Provisional Data: Sing Sing Creek near Big Flats, NY


Please select a monitoring station.
Please select start date.
Please select start date.

Toggle Unit: C/F Toggle Unit: C/F
Sample Time Temperature (C) Temperature (F) Specific Conductivity (mS/cm) pH   Turbidity (NTU+) DO (mg/L)
8/9/2021 12:00:00 AM 19.92 67.856 0.536 7.79 22.44 8.12
8/9/2021 12:15:00 AM 19.87 67.766 0.536 7.77 22.31 7.98
8/9/2021 12:30:00 AM 19.81 67.658 0.536 7.76 22.36 7.9
8/9/2021 12:45:00 AM 19.75 67.55 0.537 7.74 22.46 7.76
8/9/2021 1:00:00 AM 19.7 67.46 0.537 7.73 22.18 7.68
8/9/2021 1:15:00 AM 19.64 67.352 0.537 7.71 22.39 7.57
8/9/2021 1:30:00 AM 19.59 67.262 0.537 7.7 22.16 7.48
8/9/2021 1:45:00 AM 19.54 67.172 0.537 7.68 22.29 7.39
8/9/2021 2:00:00 AM 19.49 67.082 0.537 7.67 22.3 7.32
8/9/2021 2:15:00 AM 19.44 66.992 0.537 7.66 22.11 7.24
8/9/2021 2:30:00 AM 19.4 66.92 0.537 7.65 22.62 7.17
8/9/2021 2:45:00 AM 19.35 66.83 0.538 7.63 22.79 7.12
8/9/2021 3:00:00 AM 19.3 66.74 0.538 7.63 22.29 7.09
8/9/2021 3:15:00 AM 19.26 66.668 0.538 7.61 22.45 7.06
8/9/2021 3:30:00 AM 19.22 66.596 0.538 7.61 22.51 7.04
8/9/2021 3:45:00 AM 19.18 66.524 0.539 7.6 22.48 6.98
8/9/2021 4:00:00 AM 19.14 66.452 0.539 7.6 22.35 6.99
8/9/2021 4:15:00 AM 19.1 66.38 0.539 7.59 22.56 6.94
8/9/2021 4:30:00 AM 19.07 66.326 0.539 7.58 22.28 6.89
8/9/2021 4:45:00 AM 19.04 66.272 0.54 7.58 23 6.84
8/9/2021 5:00:00 AM 19.01 66.218 0.54 7.58 23.05 6.95
8/9/2021 5:15:00 AM 18.98 66.164 0.54 7.57 23.05 6.87
8/9/2021 5:30:00 AM 18.95 66.11 0.54 7.57 22.71 6.88
8/9/2021 5:45:00 AM 18.92 66.056 0.54 7.57 22.71 6.9
8/9/2021 6:00:00 AM 18.88 65.984 0.541 7.56 22.25 6.88
8/9/2021 6:15:00 AM 18.85 65.93 0.541 7.56 22.52 6.9
8/9/2021 6:30:00 AM 18.82 65.876 0.541 7.55 22.46 6.85
8/9/2021 6:45:00 AM 18.78 65.804 0.541 7.56 22.39 6.87
8/9/2021 7:00:00 AM 18.76 65.768 0.542 7.55 22.62 6.92
8/9/2021 7:15:00 AM 18.73 65.714 0.542 7.56 23.07 6.94
8/9/2021 7:30:00 AM 18.7 65.66 0.542 7.56 22.6 7.01
8/9/2021 7:45:00 AM 18.67 65.606 0.542 7.56 22.73 7.11
8/9/2021 8:00:00 AM 18.66 65.588 0.542 7.56 22.12 7.15
8/9/2021 8:15:00 AM 18.64 65.552 0.541 7.56 22.3 7.27
8/9/2021 8:30:00 AM 18.63 65.534 0.543 7.58 22.04 7.42
8/9/2021 8:45:00 AM 18.62 65.516 0.54 7.58 26.32 7.48
8/9/2021 9:00:00 AM 18.63 65.534 0.543 7.6 51.53 7.73
8/9/2021 9:15:00 AM 18.64 65.552 0.544 7.62 24.35 8.03
8/9/2021 9:30:00 AM 18.66 65.588 0.544 7.64 24.13 8.21
8/9/2021 9:45:00 AM 18.68 65.624 0.54 7.65 23.88 8.36
8/9/2021 10:00:00 AM 18.72 65.696 0.545 7.66 23.7 8.51
8/9/2021 10:15:00 AM 18.76 65.768 0.545 7.68 23.81 8.78
8/9/2021 10:30:00 AM 18.84 65.912 0.542 7.7 23.83 9.05
8/9/2021 10:45:00 AM 18.91 66.038 0.546 7.73 25.12 9.36
8/9/2021 11:00:00 AM 19 66.2 0.546 7.75 23.48 9.59
8/9/2021 11:15:00 AM 19.11 66.398 0.546 7.78 23.28 9.93
8/9/2021 11:30:00 AM 19.22 66.596 0.544 7.81 23.08 10.17
8/9/2021 11:45:00 AM 19.35 66.83 0.544 7.83 22.9 10.43
8/9/2021 12:00:00 PM 19.5 67.1 0.548 7.87 23.27 10.7
8/9/2021 12:15:00 PM 19.65 67.37 0.546 7.88 22.72 10.99
8/9/2021 12:30:00 PM 19.83 67.694 0.548 7.93 22.69 11.28
8/9/2021 12:45:00 PM 19.99 67.982 0.547 7.94 22.67 11.49
8/9/2021 1:00:00 PM 20.14 68.252 0.546 7.98 23.74 11.72
8/9/2021 1:15:00 PM 20.16 68.288 0.547 7.97 23.08 11.67
8/9/2021 1:30:00 PM 20.29 68.522 0.547 8 22.58 11.84
8/9/2021 1:45:00 PM 20.4 68.72 0.546 8.02 22.71 12.06
8/9/2021 2:00:00 PM 20.53 68.954 0.548 8.04 23.92 12.24
8/9/2021 2:15:00 PM 20.7 69.26 0.549 8.07 22.19 12.41
8/9/2021 2:30:00 PM 20.86 69.548 0.549 8.08 22.15 12.67
8/9/2021 2:45:00 PM 21.08 69.944 0.549 8.1 21.6 12.82
8/9/2021 3:00:00 PM 21.18 70.124 0.548 8.12 21.45 12.84
8/9/2021 3:15:00 PM 21.31 70.358 0.549 8.13 21.38 12.92
8/9/2021 3:30:00 PM 21.47 70.646 0.549 8.12 21.34 13.17
8/9/2021 3:45:00 PM 21.66 70.988 0.548 8.19 21.39 13.32
8/9/2021 4:00:00 PM 21.75 71.15 0.548 8.19 21.75 13.18
8/9/2021 4:15:00 PM 21.74 71.132 0.549 8.17 21.59 12.91
8/9/2021 4:30:00 PM 21.84 71.312 0.549 8.2 21.46 13.06
8/9/2021 4:45:00 PM 21.92 71.456 0.55 8.22 21.32 13
8/9/2021 5:00:00 PM 21.98 71.564 0.551 8.22 21.47 12.97
8/9/2021 5:15:00 PM 22.06 71.708 0.552 8.23 21.57 12.94
8/9/2021 5:30:00 PM 22.11 71.798 0.552 8.22 21.35 12.14
8/9/2021 5:45:00 PM 22.15 71.87 0.552 8.22 21.3 12.66
8/9/2021 6:00:00 PM 22.18 71.924 0.552 8.23 21.35 12.52
8/9/2021 6:15:00 PM 22.2 71.96 0.553 8.21 21.26 12.32
8/9/2021 6:30:00 PM 22.23 72.014 0.553 8.21 21.27 12.2
8/9/2021 6:45:00 PM 22.25 72.05 0.554 8.19 21.59 11.9
8/9/2021 7:00:00 PM 22.26 72.068 0.555 8.16 21.55 11.72
8/9/2021 7:15:00 PM 22.27 72.086 0.555 8.15 21.41 11.46
8/9/2021 7:30:00 PM 22.28 72.104 0.555 8.16 21.49 11.3
8/9/2021 7:45:00 PM 22.26 72.068 0.556 8.13 21.42 11.08
8/9/2021 8:00:00 PM 22.25 72.05 0.556 8.13 21.38 10.86
8/9/2021 8:15:00 PM 22.22 71.996 0.557 8.11 21.31 10.62
8/9/2021 8:30:00 PM 22.18 71.924 0.558 8.09 21.32 10.32
8/9/2021 8:45:00 PM 22.13 71.834 0.56 8.07 21.4 10.09
8/9/2021 9:00:00 PM 22.09 71.762 0.56 8.04 21.79 9.85
8/9/2021 9:15:00 PM 22.04 71.672 0.56 8.03 22.19 9.67
8/9/2021 9:30:00 PM 21.98 71.564 0.561 7.99 21.72 9.43
8/9/2021 9:45:00 PM 21.92 71.456 0.562 7.98 21.65 9.21
8/9/2021 10:00:00 PM 21.86 71.348 0.563 7.95 21.6 9.03
8/9/2021 10:15:00 PM 21.79 71.222 0.564 7.93 21.8 8.83
8/9/2021 10:30:00 PM 21.73 71.114 0.564 7.91 21.69 8.67
8/9/2021 10:45:00 PM 21.66 70.988 0.565 7.89 21.83 8.45
8/9/2021 11:00:00 PM 21.59 70.862 0.566 7.86 21.65 8.31
8/9/2021 11:15:00 PM 21.51 70.718 0.566 7.85 21.86 8.14
8/9/2021 11:30:00 PM 21.44 70.592 0.566 7.83 22.1 7.99
8/9/2021 11:45:00 PM 21.37 70.466 0.567 7.8 22.21 7.81
8/10/2021 12:00:00 AM 21.28 70.304 0.568 7.79 22.16 7.67
8/10/2021 12:15:00 AM 21.21 70.17799 0.569 7.77 22.15 7.58
8/10/2021 12:30:00 AM 21.13 70.034 0.569 7.75 22.25 7.45
8/10/2021 12:45:00 AM 21.05 69.89 0.57 7.74 22.27 7.35
8/10/2021 1:00:00 AM 20.97 69.746 0.57 7.73 22.52 6.81
8/10/2021 1:15:00 AM 20.9 69.62 0.571 7.72 22.58 7.08
8/10/2021 1:30:00 AM 20.82 69.476 0.572 7.7 22.6 7.08
8/10/2021 1:45:00 AM 20.74 69.332 0.572 7.7 22.43 7.04
8/10/2021 2:00:00 AM 20.67 69.206 0.573 7.68 22.51 6.96
8/10/2021 2:15:00 AM 20.59 69.062 0.573 7.67 22.35 6.91
8/10/2021 2:30:00 AM 20.52 68.936 0.574 7.67 22.55 6.83
8/10/2021 2:45:00 AM 20.44 68.792 0.574 7.66 22.8 6.8
8/10/2021 3:00:00 AM 20.37 68.666 0.575 7.64 22.83 6.72
8/10/2021 3:15:00 AM 20.3 68.54 0.575 7.64 23.21 6.69
8/10/2021 3:30:00 AM 20.23 68.414 0.576 7.63 22.77 6.66
8/10/2021 3:45:00 AM 20.17 68.306 0.576 7.62 22.8 6.61
8/10/2021 4:00:00 AM 20.09 68.162 0.576 7.61 22.85 6.61
8/10/2021 4:15:00 AM 20.03 68.054 0.577 7.61 23.07 6.58
8/10/2021 4:30:00 AM 19.97 67.946 0.577 7.6 23.12 6.3
8/10/2021 4:45:00 AM 19.91 67.838 0.577 7.6 23.04 6.53
8/10/2021 5:00:00 AM 19.85 67.73 0.578 7.59 23.15 6.43
8/10/2021 5:15:00 AM 19.8 67.64 0.578 7.59 23.29 6.54
8/10/2021 5:30:00 AM 19.75 67.55 0.578 7.58 23.26 6.53
8/10/2021 5:45:00 AM 19.7 67.46 0.578 7.58 22.94 6.52
8/10/2021 6:00:00 AM 19.65 67.37 0.578 7.58 24.01 6.51
8/10/2021 6:15:00 AM 19.6 67.28 0.578 7.57 23.17 6.53
8/10/2021 6:30:00 AM 19.55 67.19 0.578 7.57 23.02 6.56
8/10/2021 6:45:00 AM 19.51 67.118 0.578 7.57 24.99 6.51
8/10/2021 7:00:00 AM 19.48 67.064 0.578 7.58 23.38 6.65
8/10/2021 7:15:00 AM 19.46 67.028 0.578 7.58 23.52 6.75
8/10/2021 7:30:00 AM 19.43 66.974 0.572 7.59 23.49 6.86
8/10/2021 7:45:00 AM 19.42 66.956 0.578 7.59 23.76 6.94
8/10/2021 8:00:00 AM 19.41 66.938 0.578 7.6 23.93 7.04
8/10/2021 8:15:00 AM 19.4 66.92 0.575 7.6 23.88 7.01
8/10/2021 8:30:00 AM 19.39 66.902 0.577 7.6 23.81 7.13
8/10/2021 8:45:00 AM 19.4 66.92 0.578 7.62 23.68 7.33
8/10/2021 9:00:00 AM 19.38 66.884 0.578 7.63 23.83 7.45
8/10/2021 9:15:00 AM 19.41 66.938 0.578 7.64 23.66 7.52
8/10/2021 9:30:00 AM 19.4 66.92 0.576 7.64 24.32 7.59
8/10/2021 9:45:00 AM 19.42 66.956 0.577 7.65 25.11 7.87
8/10/2021 10:00:00 AM 19.44 66.992 0.577 7.67 24.65 8.04
8/10/2021 10:15:00 AM 19.46 67.028 0.576 7.68 24.72 8.29
8/10/2021 10:30:00 AM 19.47 67.046 0.578 7.69 24.8 8.28
8/10/2021 10:45:00 AM 19.5 67.1 0.578 7.69 24.85 8.47
8/10/2021 11:00:00 AM 19.57 67.226 0.578 7.74 24.87 8.9
8/10/2021 11:15:00 AM 19.64 67.352 0.578 7.76 25.14 9.08
8/10/2021 11:30:00 AM 19.76 67.568 0.577 7.79 24.55 9.56
8/10/2021 11:45:00 AM 19.86 67.748 0.576 7.82 24.7 9.87
8/10/2021 12:00:00 PM 19.93 67.874 0.578 7.83 24.51 10.02
8/10/2021 12:15:00 PM 20.06 68.108 0.578 7.86 24.84 10.42
8/10/2021 12:30:00 PM 20.15 68.27 0.578 7.89 24.75 10.65
8/10/2021 12:45:00 PM 20.23 68.414 0.577 7.91 24.75 10.83
8/10/2021 1:00:00 PM 20.34 68.612 0.577 7.93 24.94 10.95
8/10/2021 1:15:00 PM 20.44 68.792 0.576 7.95 24.63 11.18
8/10/2021 1:30:00 PM 20.51 68.918 0.578 7.97 25.23 11.34
8/10/2021 1:45:00 PM 20.72 69.296 0.575 8.01 24.62 11.76
8/10/2021 2:00:00 PM 20.91 69.638 0.576 8.03 27.63 11.99
8/10/2021 2:15:00 PM 20.92 69.656 0.575 8.03 25.22 11.97
8/10/2021 2:30:00 PM 20.98 69.764 0.575 8.05 25.2 12.09
8/10/2021 2:45:00 PM 21.06 69.908 0.574 8.06 25.33 12.13
8/10/2021 3:00:00 PM 21.21 70.17799 0.575 8.08 25.17 12.4
8/10/2021 3:15:00 PM 21.33 70.394 0.574 8.12 25.06 12.72
8/10/2021 3:30:00 PM 21.4 70.52 0.576 8.14 25.25 12.76
8/10/2021 3:45:00 PM 21.47 70.646 0.576 8.15 25.11 12.68
8/10/2021 4:00:00 PM 21.54 70.772 0.577 8.16 25.14 12.83
8/10/2021 4:15:00 PM 21.58 70.844 0.577 8.18 25.12 12.85
8/10/2021 4:30:00 PM 21.65 70.97 0.576 8.18 24.83 12.91
8/10/2021 4:45:00 PM 21.75 71.15 0.578 8.18 25.08 12.86
8/10/2021 5:00:00 PM 21.81 71.258 0.577 8.19 24.79 12.81
8/10/2021 5:15:00 PM 21.85 71.33 0.578 8.19 24.97 12.75
8/10/2021 5:30:00 PM 21.9 71.42 0.578 8.2 25.01 12.64
8/10/2021 5:45:00 PM 21.9 71.42 0.578 8.19 24.82 12.53
8/10/2021 6:00:00 PM 21.94 71.492 0.579 8.21 25 12.53
8/10/2021 6:15:00 PM 21.94 71.492 0.579 8.16 25.16 12.24
8/10/2021 6:30:00 PM 21.95 71.51 0.579 8.18 25.15 12.12
8/10/2021 6:45:00 PM 21.95 71.51 0.579 8.17 25.01 11.94
8/10/2021 7:00:00 PM 21.94 71.492 0.58 8.16 25.19 11.75
8/10/2021 7:15:00 PM 21.93 71.474 0.58 8.14 25.13 11.5
8/10/2021 7:30:00 PM 21.92 71.456 0.581 8.14 25.12 11.28
8/10/2021 7:45:00 PM 21.91 71.438 0.581 8.12 25.07 11.06
8/10/2021 8:00:00 PM 21.89 71.402 0.582 8.11 25.12 10.87
8/10/2021 8:15:00 PM 21.86 71.348 0.582 8.08 25.35 10.56
8/10/2021 8:30:00 PM 21.82 71.276 0.583 8.06 31.15 10.31
8/10/2021 8:45:00 PM 21.78 71.204 0.583 8.06 25.29 10.09
8/10/2021 9:00:00 PM 21.74 71.132 0.582 8.02 25.53 9.9
8/10/2021 9:15:00 PM 21.71 71.078 0.584 8.01 25.49 9.71
8/10/2021 9:30:00 PM 21.67 71.006 0.585 7.99 25.55 9.41
8/10/2021 9:45:00 PM 21.64 70.952 0.585 7.97 25.63 9.25
8/10/2021 10:00:00 PM 21.6 70.88 0.586 7.94 25.79 9.08
8/10/2021 10:15:00 PM 21.56 70.808 0.586 7.93 25.67 8.88
8/10/2021 10:30:00 PM 21.52 70.736 0.587 7.91 25.76 8.74
8/10/2021 10:45:00 PM 21.49 70.682 0.587 7.89 25.83 8.57
8/10/2021 11:00:00 PM 21.44 70.592 0.588 7.88 25.67 8.41
8/10/2021 11:15:00 PM 21.4 70.52 0.589 7.85 25.92 8.17
8/10/2021 11:30:00 PM 21.36 70.448 0.589 7.84 26.13 8.06
8/10/2021 11:45:00 PM 21.33 70.394 0.59 7.82 25.93 7.63
8/11/2021 12:00:00 AM 21.29 70.32201 0.59 7.81 25.91 7.77
8/11/2021 12:15:00 AM 21.25 70.25 0.591 7.79 26.24 7.68
8/11/2021 12:30:00 AM 21.19 70.142 0.591 7.77 26.53 7.58
8/11/2021 12:45:00 AM 21.15 70.07 0.592 7.77 26.52 7.47
8/11/2021 1:00:00 AM 21.09 69.962 0.592 7.76 26.46 7.36
8/11/2021 1:15:00 AM 21.05 69.89 0.593 7.74 26.33 7.24
8/11/2021 1:30:00 AM 20.99 69.782 0.593 7.73 26.23 7.07
8/11/2021 1:45:00 AM 20.93 69.674 0.593 7.71 26.19 7.04
8/11/2021 2:00:00 AM 20.88 69.584 0.594 7.71 26.07 6.98
8/11/2021 2:15:00 AM 20.82 69.476 0.592 7.69 26.07 6.86
8/11/2021 2:30:00 AM 20.77 69.386 0.595 7.69 26.14 6.79
8/11/2021 2:45:00 AM 20.71 69.278 0.594 7.68 26.03 6.72
8/11/2021 3:00:00 AM 20.67 69.206 0.594 7.66 26.36 6.59
8/11/2021 3:15:00 AM 20.61 69.098 0.595 7.66 26.07 6.38
8/11/2021 3:30:00 AM 20.55 68.99 0.596 7.65 26.18 6.58
8/11/2021 3:45:00 AM 20.5 68.9 0.596 7.65 26.27 6.56
8/11/2021 4:00:00 AM 20.44 68.792 0.597 7.64 26.28 6.49
8/11/2021 4:15:00 AM 20.38 68.684 0.597 7.63 26.1 6.44
8/11/2021 4:30:00 AM 20.33 68.594 0.597 7.63 26.01 6.45
8/11/2021 4:45:00 AM 20.28 68.504 0.598 7.62 26.25 6.43
8/11/2021 5:00:00 AM 20.23 68.414 0.598 7.61 26.15 6.4
8/11/2021 5:15:00 AM 20.19 68.342 0.598 7.61 26.39 6.38
8/11/2021 5:30:00 AM 20.13 68.234 0.598 7.61 25.98 6.39
8/11/2021 5:45:00 AM 20.08 68.144 0.598 7.61 26.18 6.3
8/11/2021 6:00:00 AM 20.03 68.054 0.598 7.6 26.16 6.17
8/11/2021 6:15:00 AM 19.99 67.982 0.598 7.6 26.25 6.38
8/11/2021 6:30:00 AM 19.95 67.91 0.598 7.6 26.21 6.36
8/11/2021 6:45:00 AM 19.91 67.838 0.597 7.6 26.04 6.4
8/11/2021 7:00:00 AM 19.87 67.766 0.598 7.59 26.26 6.34
8/11/2021 7:15:00 AM 19.84 67.712 0.598 7.6 26.27 6.46
8/11/2021 7:30:00 AM 19.83 67.694 0.596 7.59 26.26 6.51
8/11/2021 7:45:00 AM 19.82 67.676 0.597 7.6 26.8 6.56
8/11/2021 8:00:00 AM 19.8 67.64 0.598 7.61 26.78 6.71
8/11/2021 8:15:00 AM 19.79 67.622 0.595 7.6 26.4 6.66
8/11/2021 8:30:00 AM 19.8 67.64 0.595 7.62 26.68 6.88
8/11/2021 8:45:00 AM 19.81 67.658 0.598 7.63 26.63 7.08
8/11/2021 9:00:00 AM 19.82 67.676 0.596 7.64 25.39 7.26
8/11/2021 9:15:00 AM 19.84 67.712 0.595 7.65 25.43 7.14
8/11/2021 9:30:00 AM 19.87 67.766 0.594 7.66 25.72 7.58
8/11/2021 9:45:00 AM 19.9 67.82 0.595 7.68 25.96 7.79
8/11/2021 10:00:00 AM 19.93 67.874 0.597 7.69 25.6 8.03
8/11/2021 10:15:00 AM 20 68 0.596 7.72 25.8 8.26
8/11/2021 10:30:00 AM 20.07 68.126 0.594 7.74 26.04 8.58
8/11/2021 10:45:00 AM 20.15 68.27 0.596 7.76 25.93 8.77
8/11/2021 11:00:00 AM 20.24 68.432 0.595 7.78 25.77 9.21
8/11/2021 11:15:00 AM 20.32 68.576 0.596 7.8 26.19 9.39
8/11/2021 11:30:00 AM 20.41 68.738 0.595 7.82 25.77 9.66
8/11/2021 11:45:00 AM 20.53 68.954 0.595 7.81 25.97 9.88
8/11/2021 12:00:00 PM 20.63 69.134 0.595 7.79 25.84 10.16
8/11/2021 12:15:00 PM 20.75 69.35 0.594 7.81 25.95 10.48
8/11/2021 12:30:00 PM 20.85 69.53 0.595 7.9 25.87 10.6
8/11/2021 12:45:00 PM 20.95 69.71 0.59 7.94 25.54 10.98
8/11/2021 1:00:00 PM 21.15 70.07 0.593 7.96 25.78 11.32
8/11/2021 1:15:00 PM 21.29 70.32201 0.591 7.99 26.76 11.5
8/11/2021 1:30:00 PM 21.36 70.448 0.59 7.98 27.27 11.46
8/11/2021 1:45:00 PM 21.48 70.664 0.591 8.01 29.96 11.7
8/11/2021 2:00:00 PM 21.63 70.934 0.59 8.04 27.35 12.02
8/11/2021 2:15:00 PM 21.78 71.204 0.591 8.06 31.03 12.18
8/11/2021 2:30:00 PM 21.82 71.276 0.591 8.07 28.38 12.12
8/11/2021 2:45:00 PM 21.91 71.438 0.591 8.06 31.14 12.17
8/11/2021 3:00:00 PM 22 71.6 0.589 8.09 28.61 12.36
8/11/2021 3:15:00 PM 22.05 71.69 0.591 8.1 33.09 12.52
8/11/2021 3:30:00 PM 22.13 71.834 0.591 8.11 29.68 12.63
8/11/2021 3:45:00 PM 22.21 71.978 0.592 8.14 32.3 12.76
8/11/2021 4:00:00 PM 22.24 72.032 0.592 8.14 33.63 12.78
8/11/2021 4:15:00 PM 22.34 72.212 0.591 8.15 32.33 12.82
8/11/2021 4:30:00 PM 22.42 72.356 0.593 8.16 30.01 12.81
8/11/2021 4:45:00 PM 22.5 72.5 0.593 8.17 29.78 12.79
8/11/2021 5:00:00 PM 22.54 72.57201 0.594 8.17 30.66 12.76
8/11/2021 5:15:00 PM 22.58 72.644 0.593 8.15 28.56 12.38
8/11/2021 5:30:00 PM 22.61 72.698 0.593 8.15 28.83 12.2
8/11/2021 5:45:00 PM 22.65 72.77 0.594 8.16 29.25 12.34
8/11/2021 6:00:00 PM 22.67 72.806 0.594 8.15 26.41 12.2
8/11/2021 6:15:00 PM 22.68 72.824 0.594 8.14 26.09 11.88
8/11/2021 6:30:00 PM 22.71 72.878 0.594 8.15 26.03 11.96
8/11/2021 6:45:00 PM 22.71 72.878 0.594 8.13 26.69 11.67
8/11/2021 7:00:00 PM 22.72 72.896 0.595 8.13 27.46 11.36
8/11/2021 7:15:00 PM 22.74 72.932 0.595 8.13 27.82 11.35
8/11/2021 7:30:00 PM 22.74 72.932 0.595 8.12 28.09 11.07
8/11/2021 7:45:00 PM 22.73 72.914 0.596 8.1 28.12 10.9
8/11/2021 8:00:00 PM 22.7 72.86 0.596 8.09 27.88 10.63
8/11/2021 8:15:00 PM 22.67 72.806 0.596 8.08 27.67 10.41
8/11/2021 8:30:00 PM 22.63 72.734 0.597 8.06 28.12 10.14
8/11/2021 8:45:00 PM 22.59 72.662 0.598 8.04 28.22 9.91
8/11/2021 9:00:00 PM 22.55 72.59 0.598 8.01 28.15 9.74
8/11/2021 9:15:00 PM 22.52 72.536 0.598 8 28.44 9.43
8/11/2021 9:30:00 PM 22.46 72.42799 0.6 7.97 29.5 9.3
8/11/2021 9:45:00 PM 22.42 72.356 0.598 7.96 29.85 9.11
8/11/2021 10:00:00 PM 22.37 72.266 0.601 7.95 30.13 8.93
8/11/2021 10:15:00 PM 22.32 72.176 0.602 7.93 29.79 8.76
8/11/2021 10:30:00 PM 22.26 72.068 0.602 7.9 29.9 8.52
8/11/2021 10:45:00 PM 22.21 71.978 0.602 7.89 30.56 8.12
8/11/2021 11:00:00 PM 22.15 71.87 0.603 7.88 29.71 8.12
8/11/2021 11:15:00 PM 22.09 71.762 0.604 7.86 29.54 7.83
8/11/2021 11:30:00 PM 22.03 71.654 0.605 7.85 30.47 7.9
8/11/2021 11:45:00 PM 21.95 71.51 0.606 7.83 83.29 7.8
8/12/2021 12:00:00 AM 21.87 71.366 0.606 7.82 30.98 7.61
8/12/2021 12:15:00 AM 21.81 71.258 0.606 7.81 30.73 7.54
8/12/2021 12:30:00 AM 21.75 71.15 0.606 7.79 30.77 7.41
8/12/2021 12:45:00 AM 21.68 71.024 0.607 7.78 30.82 7.31
8/12/2021 1:00:00 AM 21.62 70.916 0.608 7.77 30.72 7.12
8/12/2021 1:15:00 AM 21.56 70.808 0.608 7.75 30.42 7.06
8/12/2021 1:30:00 AM 21.5 70.7 0.609 7.74 31.05 6.95
8/12/2021 1:45:00 AM 21.43 70.574 0.609 7.7 31 6.87
8/12/2021 2:00:00 AM 21.37 70.466 0.609 7.69 30.88 6.77
8/12/2021 2:15:00 AM 21.32 70.376 0.609 7.67 31.31 6.69
8/12/2021 2:30:00 AM 21.25 70.25 0.61 7.68 31.36 6.63
8/12/2021 2:45:00 AM 21.2 70.16 0.61 7.68 31.57 6.57
8/12/2021 3:00:00 AM 21.13 70.034 0.609 7.66 31.62 6.48
8/12/2021 3:15:00 AM 21.07 69.926 0.61 7.67 31.9 6.37
8/12/2021 3:30:00 AM 21.02 69.836 0.61 7.65 31.59 6.32
8/12/2021 3:45:00 AM 20.95 69.71 0.61 7.64 31.66 6.33
8/12/2021 4:00:00 AM 20.9 69.62 0.61 7.65 31.7 6.18
8/12/2021 4:15:00 AM 20.84 69.512 0.61 7.65 31.52 6.24
8/12/2021 4:30:00 AM 20.79 69.422 0.61 7.65 31.85 6.15
8/12/2021 4:45:00 AM 20.72 69.296 0.611 7.64 31.9 6.19
8/12/2021 5:00:00 AM 20.67 69.206 0.61 7.63 31.92 6.15
8/12/2021 5:15:00 AM 20.6 69.08 0.611 7.63 31.78 6.19
8/12/2021 5:30:00 AM 20.54 68.972 0.61 7.63 32.17 6.15
8/12/2021 5:45:00 AM 20.49 68.882 0.611 7.62 32.08 5.96
8/12/2021 6:00:00 AM 20.43 68.774 0.611 7.61 32.47 6.05
8/12/2021 6:15:00 AM 20.37 68.666 0.61 7.61 32.48 6.1
8/12/2021 6:30:00 AM 20.32 68.576 0.611 7.6 32.45 6.05
8/12/2021 6:45:00 AM 20.26 68.468 0.611 7.61 32.82 6.12
8/12/2021 7:00:00 AM 20.21 68.378 0.61 7.61 32.9 6.14
8/12/2021 7:15:00 AM 20.17 68.306 0.61 7.6 33.11 6.11
8/12/2021 7:30:00 AM 20.13 68.234 0.611 7.6 33 6.16
8/12/2021 7:45:00 AM 20.09 68.162 0.611 7.58 33.16 6.25
8/12/2021 8:00:00 AM 20.06 68.108 0.61 7.61 33.09 6.37
8/12/2021 8:15:00 AM 20.04 68.07201 0.61 7.61 33.18 6.47
8/12/2021 8:30:00 AM 20.02 68.036 0.61 7.62 32.74 6.56
8/12/2021 8:45:00 AM 20 68 0.609 7.62 33.15 6.59
8/12/2021 9:00:00 AM 19.99 67.982 0.61 7.63 33.04 6.71
8/12/2021 9:15:00 AM 19.99 67.982 0.609 7.63 33.03 6.79
8/12/2021 9:30:00 AM 19.99 67.982 0.61 7.63 33.07 6.81
8/12/2021 9:45:00 AM 20.03 68.054 0.607 7.65 33.28 7.07
8/12/2021 10:00:00 AM 20.09 68.162 0.609 7.67 33.17 7.49
8/12/2021 10:15:00 AM 20.15 68.27 0.609 7.68 33.13 7.59
8/12/2021 10:30:00 AM 20.21 68.378 0.609 7.7 33.33 7.88
8/12/2021 10:45:00 AM 20.26 68.468 0.609 7.7 33.38 8.12
8/12/2021 11:00:00 AM 20.33 68.594 0.607 7.71 33.14 8.41
8/12/2021 11:15:00 AM 20.39 68.702 0.609 7.71 33.34 8.43
8/12/2021 11:30:00 AM 20.41 68.738 0.609 7.75 33.34 8.68
8/12/2021 11:45:00 AM 20.42 68.756 0.609 7.75 33.25 8.52
8/12/2021 12:00:00 PM 20.44 68.792 0.609 7.7 33.53 8.7
8/12/2021 12:15:00 PM 20.52 68.936 0.609 7.79 33.43 9.01
8/12/2021 12:30:00 PM 20.61 69.098 0.608 7.78 33.1 9.35
8/12/2021 12:45:00 PM 20.83 69.494 0.608 7.81 32.88 9.96
8/12/2021 1:00:00 PM 21 69.8 0.604 7.84 32.89 10.04
8/12/2021 1:15:00 PM 21.24 70.232 0.606 7.8 32.83 10.37
8/12/2021 1:30:00 PM 21.45 70.61 0.604 7.78 32.74 10.7
8/12/2021 1:45:00 PM 21.61 70.898 0.603 7.88 32.55 10.54
8/12/2021 2:00:00 PM 21.59 70.862 0.604 7.9 32.69 10.64
8/12/2021 2:15:00 PM 21.61 70.898 0.605 7.92 32.56 10.42
8/12/2021 2:30:00 PM 21.59 70.862 0.606 7.91 32.47 9.81
8/12/2021 2:45:00 PM 21.55 70.79 0.607 7.9 32.63 9.96
8/12/2021 3:00:00 PM 21.51 70.718 0.607 7.89 32.83 9.83
8/12/2021 3:15:00 PM 21.48 70.664 0.608 7.89 32.89 9.83
8/12/2021 3:30:00 PM 21.44 70.592 0.609 7.89 33.06 9.97
8/12/2021 3:45:00 PM 21.44 70.592 0.609 7.89 33 9.8
8/12/2021 4:00:00 PM 21.42 70.556 0.608 7.93 33.08 10.18
8/12/2021 4:15:00 PM 21.4 70.52 0.609 7.92 33.09 10.19
8/12/2021 4:30:00 PM 21.42 70.556 0.609 7.93 33.24 10.05
8/12/2021 4:45:00 PM 21.5 70.7 0.608 7.9 33.21 10.28
8/12/2021 5:00:00 PM 21.55 70.79 0.609 7.92 33.2 10.55
8/12/2021 5:15:00 PM 21.59 70.862 0.609 7.86 33.18 10.42
8/12/2021 5:30:00 PM 21.66 70.988 0.61 7.93 33.5 10.08
8/12/2021 5:45:00 PM 21.69 71.042 0.61 7.97 33.6 10.06
8/12/2021 6:00:00 PM 21.65 70.97 0.61 7.97 33.5 10.04
8/12/2021 6:15:00 PM 21.61 70.898 0.611 7.96 33.59 9.62
8/12/2021 6:30:00 PM 21.62 70.916 0.611 7.88 34.04 10.07
8/12/2021 6:45:00 PM 21.6 70.88 0.611 7.97 33.73 10.17
8/12/2021 7:00:00 PM 21.57 70.826 0.612 7.93 33.72 9.9
8/12/2021 7:15:00 PM 21.55 70.79 0.612 7.93 33.91 9.78
8/12/2021 7:30:00 PM 21.52 70.736 0.613 7.92 33.99 9.25
8/12/2021 7:45:00 PM 21.51 70.718 0.613 7.92 34.19 9.56
8/12/2021 8:00:00 PM 21.49 70.682 0.613 7.93 34.27 9.16
8/12/2021 8:15:00 PM 21.48 70.664 0.613 7.92 34.1 9.36
8/12/2021 8:30:00 PM 21.48 70.664 0.613 7.91 33.86 9.16
8/12/2021 8:45:00 PM 21.47 70.646 0.614 7.9 34.15 8.96
8/12/2021 9:00:00 PM 21.46 70.628 0.614 7.89 33.98 8.81
8/12/2021 9:15:00 PM 21.44 70.592 0.614 7.89 33.88 8.73
8/12/2021 9:30:00 PM 21.42 70.556 0.615 7.88 33.97 8.01
8/12/2021 9:45:00 PM 21.4 70.52 0.615 7.87 34.32 8.26
8/12/2021 10:00:00 PM 21.36 70.448 0.616 7.85 34.11 8.28
8/12/2021 10:15:00 PM 21.32 70.376 0.617 7.84 34.75 8.18
8/12/2021 10:30:00 PM 21.28 70.304 0.617 7.82 34.11 8.03
8/12/2021 10:45:00 PM 21.22 70.196 0.618 7.82 34.59 7.78
8/12/2021 11:00:00 PM 21.18 70.124 0.618 7.79 34.15 7.63
8/12/2021 11:15:00 PM 21.13 70.034 0.618 7.78 34.52 7.55
8/12/2021 11:30:00 PM 21.08 69.944 0.618 7.77 34.34 7.41
8/12/2021 11:45:00 PM 21.04 69.872 0.619 7.76 34.63 7.36
8/13/2021 12:00:00 AM 21 69.8 0.619 7.75 34.28 7.3
8/13/2021 12:15:00 AM 20.94 69.692 0.619 7.74 34.62 7.22
8/13/2021 12:30:00 AM 20.91 69.638 0.62 7.73 34.14 7.13
8/13/2021 12:45:00 AM 20.86 69.548 0.62 7.72 34.36 7.07
8/13/2021 1:00:00 AM 20.82 69.476 0.62 7.72 34.28 7
8/13/2021 1:15:00 AM 20.76 69.368 0.62 7.72 34.52 7.08
8/13/2021 1:30:00 AM 20.7 69.26 0.621 7.71 34.65 6.93
8/13/2021 1:45:00 AM 20.64 69.152 0.621 7.7 34 6.92
8/13/2021 2:00:00 AM 20.6 69.08 0.621 7.69 33.86 6.33
8/13/2021 2:15:00 AM 20.54 68.972 0.621 7.68 33.8 6.78
8/13/2021 2:30:00 AM 20.5 68.9 0.621 7.69 33.22 6.79
8/13/2021 2:45:00 AM 20.45 68.81 0.621 7.68 33.3 6.67
8/13/2021 3:00:00 AM 20.4 68.72 0.621 7.67 33.27 6.7
8/13/2021 3:15:00 AM 20.35 68.63 0.621 7.67 33.43 6.74
8/13/2021 3:30:00 AM 20.31 68.558 0.621 7.66 33.46 6.66
8/13/2021 3:45:00 AM 20.25 68.45 0.621 7.66 33.89 6.65
8/13/2021 4:00:00 AM 20.2 68.36 0.621 7.66 33.84 6.54
8/13/2021 4:15:00 AM 20.16 68.288 0.622 7.65 33.6 6.4
8/13/2021 4:30:00 AM 20.11 68.198 0.621 7.65 33.82 6.47
8/13/2021 4:45:00 AM 20.05 68.09 0.621 7.64 34.69 6.37
8/13/2021 5:00:00 AM 20.01 68.018 0.622 7.64 34.23 6.34
8/13/2021 5:15:00 AM 19.96 67.92799 0.622 7.64 34.09 6.45
8/13/2021 5:30:00 AM 19.92 67.856 0.622 7.6 34.38 6.41
8/13/2021 5:45:00 AM 19.86 67.748 0.622 7.61 34.25 6.24
8/13/2021 6:00:00 AM 19.81 67.658 0.622 7.61 34.24 6.05
8/13/2021 6:15:00 AM 19.75 67.55 0.622 7.61 34.14 6.25
8/13/2021 6:30:00 AM 19.7 67.46 0.622 7.55 34.2 6.34
8/13/2021 6:45:00 AM 19.66 67.388 0.623 7.58 34.07 6.31
8/13/2021 7:00:00 AM 19.61 67.298 0.623 7.56 34.1 6.35
8/13/2021 7:15:00 AM 19.56 67.208 0.622 7.6 33.86 6.46
8/13/2021 7:30:00 AM 19.54 67.172 0.623 7.6 33.95 6.56
8/13/2021 7:45:00 AM 19.5 67.1 0.623 7.59 33.92 6.64
8/13/2021 8:00:00 AM 19.49 67.082 0.623 7.59 33.65 6.68
8/13/2021 8:15:00 AM 19.47 67.046 0.623 7.59 34.03 6.78
8/13/2021 8:30:00 AM 19.45 67.01 0.623 7.61 34.05 6.93
8/13/2021 8:45:00 AM 19.44 66.992 0.623 7.63 34.12 6.93
8/13/2021 9:00:00 AM 19.41 66.938 0.623 7.61 33.87 7.04
8/13/2021 9:15:00 AM 19.4 66.92 0.623 7.61 33.55 7.07
8/13/2021 9:30:00 AM 19.4 66.92 0.623 7.62 33.82 7.28
8/13/2021 9:45:00 AM 19.41 66.938 0.623 7.6 33.47 6.95
8/13/2021 10:00:00 AM 19.43 66.974 0.623 7.61 33.33 6.46
8/13/2021 10:15:00 AM 19.46 67.028 0.623 7.63 33.68 7.17
8/13/2021 10:30:00 AM 19.53 67.154 0.622 7.61 33.62 7.49
8/13/2021 10:45:00 AM 19.56 67.208 0.622 7.62 33.49 7.66
8/13/2021 11:00:00 AM 19.6 67.28 0.622 7.64 33.48 7.89
8/13/2021 11:15:00 AM 19.65 67.37 0.621 7.65 33.06 8.38
8/13/2021 11:30:00 AM 19.73 67.514 0.621 7.63 33.78 8.64
8/13/2021 11:45:00 AM 19.85 67.73 0.621 7.63 33.63 9.14
8/13/2021 12:00:00 PM 19.98 67.964 0.621 7.62 33.48 9.23
8/13/2021 12:15:00 PM 20.09 68.162 0.621 7.62 33.63 9.38
8/13/2021 12:30:00 PM 20.26 68.468 0.617 7.7 33.63 9.83
8/13/2021 12:45:00 PM 20.43 68.774 0.617 7.72 33.33 10.13
8/13/2021 1:00:00 PM 20.58 69.044 0.618 7.62 33.26 10.34
8/13/2021 1:15:00 PM 20.69 69.242 0.617 7.54 33.15 10.33
8/13/2021 1:30:00 PM 20.75 69.35 0.616 7.57 33.23 10.41
8/13/2021 1:45:00 PM 20.89 69.602 0.615 7.68 33.25 10.81
8/13/2021 2:00:00 PM 21.06 69.908 0.615 7.75 33.11 11.01
8/13/2021 2:15:00 PM 21.29 70.32201 0.615 7.83 33.08 11.37
8/13/2021 2:30:00 PM 21.45 70.61 0.617 7.66 33.13 11.12
8/13/2021 2:45:00 PM 21.52 70.736 0.616 7.55 32.74 11.31
8/13/2021 3:00:00 PM 21.6 70.88 0.617 7.55 32.88 11.4
8/13/2021 3:15:00 PM 21.72 71.096 0.617 7.54 32.89 11.85
8/13/2021 3:30:00 PM 21.82 71.276 0.615 7.84 32.88 11.81
8/13/2021 3:45:00 PM 21.82 71.276 0.615 7.61 33.22 11.9
8/13/2021 4:00:00 PM 21.81 71.258 0.615 7.62 33.28 11.07
8/13/2021 4:15:00 PM 21.8 71.24 0.615 7.8 33.45 11.31
8/13/2021 4:30:00 PM 21.8 71.24 0.616 7.76 33.62 11.09
8/13/2021 4:45:00 PM 21.78 71.204 0.617 7.81 33.02 10.42
8/13/2021 5:00:00 PM 21.76 71.168 0.617 7.82 49.09 10.69
8/13/2021 5:15:00 PM 21.76 71.168 0.618 7.94 30.85 10.89
8/13/2021 5:30:00 PM 21.74 71.132 0.618 7.97 29.85 10.56
8/13/2021 5:45:00 PM 21.74 71.132 0.618 7.95 32.52 10.85
8/13/2021 6:00:00 PM 21.76 71.168 0.618 7.96 34.86 10.62
8/13/2021 6:15:00 PM 21.77 71.186 0.619 7.98 34.65 10.75
8/13/2021 6:30:00 PM 21.77 71.186 0.618 7.93 33.14 10.84
8/13/2021 6:45:00 PM 21.76 71.168 0.619 7.98 31.6 10.63
8/13/2021 7:00:00 PM 21.74 71.132 0.619 8.01 33.27 10.42
8/13/2021 7:15:00 PM 21.72 71.096 0.619 8 33.31 10.38
8/13/2021 7:30:00 PM 21.67 71.006 0.619 7.99 33.38 10.23
8/13/2021 7:45:00 PM 21.63 70.934 0.619 7.98 33.47 9.94
8/13/2021 8:00:00 PM 21.59 70.862 0.62 7.96 33.63 9.66
8/13/2021 8:15:00 PM 21.55 70.79 0.62 7.95 34.88 9.67
8/13/2021 8:30:00 PM 21.51 70.718 0.62 7.94 38.16 9.33
8/13/2021 8:45:00 PM 21.48 70.664 0.62 7.94 39.37 9.29
8/13/2021 9:00:00 PM 21.45 70.61 0.62 7.91 34.01 9.11
8/13/2021 9:15:00 PM 21.44 70.592 0.62 7.9 34.01 9.11
8/13/2021 9:30:00 PM 21.4 70.52 0.62 7.89 34.02 8.76
8/13/2021 9:45:00 PM 21.38 70.484 0.62 7.88 34.22 8.73
8/13/2021 10:00:00 PM 21.36 70.448 0.62 7.84 33.96 8.54
8/13/2021 10:15:00 PM 21.33 70.394 0.62 7.84 34.12 8.48
8/13/2021 10:30:00 PM 21.31 70.358 0.62 7.85 33.95 8.41
8/13/2021 10:45:00 PM 21.28 70.304 0.621 7.83 34.1 8.09
8/13/2021 11:00:00 PM 21.26 70.268 0.621 7.85 34.03 8.02
8/13/2021 11:15:00 PM 21.23 70.214 0.621 7.84 34.17 8.02
8/13/2021 11:30:00 PM 21.2 70.16 0.621 7.83 34.24 7.77
8/13/2021 11:45:00 PM 21.16 70.088 0.622 7.83 34.37 7.69
8/14/2021 12:00:00 AM 21.12 70.016 0.622 7.81 34.46 7.5
8/14/2021 12:15:00 AM 21.07 69.926 0.623 7.8 34.6 7.39
8/14/2021 12:30:00 AM 21.02 69.836 0.623 7.79 34.59 7.27
8/14/2021 12:45:00 AM 20.97 69.746 0.623 7.77 34.68 7.3
8/14/2021 1:00:00 AM 20.93 69.674 0.624 7.75 34.68 7.03
8/14/2021 1:15:00 AM 20.87 69.566 0.624 7.75 34.73 6.92
8/14/2021 1:30:00 AM 20.82 69.476 0.624 7.75 36.13 7.02
8/14/2021 1:45:00 AM 20.77 69.386 0.624 7.73 34.86 6.9
8/14/2021 2:00:00 AM 20.72 69.296 0.625 7.73 35.17 6.8
8/14/2021 2:15:00 AM 20.67 69.206 0.625 7.72 35.06 6.86
8/14/2021 2:30:00 AM 20.63 69.134 0.625 7.72 35.01 6.78
8/14/2021 2:45:00 AM 20.57 69.026 0.625 7.71 35.61 6.68
8/14/2021 3:00:00 AM 20.51 68.918 0.626 7.71 35.33 6.74
8/14/2021 3:15:00 AM 20.46 68.828 0.626 7.71 35.43 6.8
8/14/2021 3:30:00 AM 20.39 68.702 0.626 7.69 35.52 6.71
8/14/2021 3:45:00 AM 20.35 68.63 0.627 7.7 35.3 6.59
8/14/2021 4:00:00 AM 20.29 68.522 0.626 7.69 34.43 5.83
8/14/2021 4:15:00 AM 20.22 68.396 0.626 7.69 34.25 6.64
8/14/2021 4:30:00 AM 20.16 68.288 0.626 7.68 33.97 6.6
8/14/2021 4:45:00 AM 20.1 68.18 0.626 7.68 33.82 6.63
8/14/2021 5:00:00 AM 20.04 68.07201 0.626 7.67 33.72 6.57
8/14/2021 5:15:00 AM 19.97 67.946 0.626 7.66 34.78 6.56
8/14/2021 5:30:00 AM 19.91 67.838 0.626 7.66 34.47 6.58
8/14/2021 5:45:00 AM 19.84 67.712 0.625 7.67 34.51 6.47
8/14/2021 6:00:00 AM 19.8 67.64 0.625 7.67 34.12 6.57
8/14/2021 6:15:00 AM 19.76 67.568 0.624 7.68 34.43 6.66
8/14/2021 6:30:00 AM 19.72 67.496 0.623 7.67 34.51 6.69
8/14/2021 6:45:00 AM 19.68 67.424 0.623 7.68 34.4 6.72
8/14/2021 7:00:00 AM 19.63 67.334 0.623 7.68 34.34 6.73
8/14/2021 7:15:00 AM 19.6 67.28 0.623 7.68 34.48 6.72
8/14/2021 7:30:00 AM 19.55 67.19 0.623 7.68 34.55 6.8
8/14/2021 7:45:00 AM 19.51 67.118 0.622 7.68 34.74 6.83
8/14/2021 8:00:00 AM 19.47 67.046 0.622 7.68 35.06 6.83
8/14/2021 8:15:00 AM 19.43 66.974 0.622 7.68 35.03 6.91
8/14/2021 8:30:00 AM 19.39 66.902 0.621 7.68 35.93 6.99
8/14/2021 8:45:00 AM 19.34 66.812 0.621 7.69 34.77 7.05
8/14/2021 9:00:00 AM 19.3 66.74 0.621 7.69 34.75 7.08
8/14/2021 9:15:00 AM 19.26 66.668 0.62 7.69 34.82 7.19
8/14/2021 9:30:00 AM 19.23 66.614 0.619 7.7 34.84 7.27
8/14/2021 9:45:00 AM 19.2 66.56 0.618 7.71 34.96 7.41
8/14/2021 10:00:00 AM 19.17 66.506 0.616 7.71 34.52 7.48
8/14/2021 10:15:00 AM 19.15 66.47 0.615 7.72 34.45 7.63
8/14/2021 10:30:00 AM 19.16 66.488 0.615 7.74 34.5 7.86
8/14/2021 10:45:00 AM 19.17 66.506 0.614 7.76 34.57 8.21
8/14/2021 11:00:00 AM 19.16 66.488 0.613 7.78 34.37 8.25
8/14/2021 11:15:00 AM 19.17 66.506 0.612 7.79 34.57 8.54
8/14/2021 11:30:00 AM 19.18 66.524 0.61 7.81 34.38 8.75
8/14/2021 11:45:00 AM 19.19 66.542 0.609 7.82 34.53 8.9
8/14/2021 12:00:00 PM 19.21 66.578 0.608 7.83 34.56 9.19
8/14/2021 12:15:00 PM 19.24 66.632 0.607 7.86 34.77 9.41
8/14/2021 12:30:00 PM 19.29 66.722 0.606 7.87 34.74 9.73
8/14/2021 12:45:00 PM 19.35 66.83 0.605 7.9 34.79 9.89
8/14/2021 1:00:00 PM 19.45 67.01 0.603 7.91 34.88 10.25
8/14/2021 1:15:00 PM 19.62 67.316 0.598 7.95 35.21 10.54
8/14/2021 1:30:00 PM 19.74 67.532 0.601 7.95 34.93 10.56
8/14/2021 1:45:00 PM 19.88 67.784 0.6 7.98 35.17 10.68
8/14/2021 2:00:00 PM 20.13 68.234 0.597 7.99 34.96 11.06
8/14/2021 2:15:00 PM 20.25 68.45 0.593 7.96 34.75 11.18
8/14/2021 2:30:00 PM 20.43 68.774 0.594 7.96 34.99 11.28
8/14/2021 2:45:00 PM 20.6 69.08 0.592 7.99 35.1 11.52
8/14/2021 3:00:00 PM 20.78 69.404 0.591 8.03 35.61 11.27
8/14/2021 3:15:00 PM 20.9 69.62 0.588 8.07 35.4 11.35
8/14/2021 3:30:00 PM 21 69.8 0.586 8.08 35.28 11.09
8/14/2021 3:45:00 PM 21.06 69.908 0.584 8.09 35.19 11.15
8/14/2021 4:00:00 PM 21.08 69.944 0.58 8.09 35.16 10.82
8/14/2021 4:15:00 PM 21.12 70.016 0.58 8.09 35.26 10.85
8/14/2021 4:30:00 PM 21.17 70.106 0.579 8.08 35.3 10.75
8/14/2021 4:45:00 PM 21.24 70.232 0.574 8.08 35.26 10.81
8/14/2021 5:00:00 PM 21.33 70.394 0.57 8.11 35.25 10.81
8/14/2021 5:15:00 PM 21.34 70.412 0.566 8.09 35.44 10.75
8/14/2021 5:30:00 PM 21.41 70.538 0.561 8.09 35.42 11.12
8/14/2021 5:45:00 PM 21.47 70.646 0.556 8.11 35.66 11.33
8/14/2021 6:00:00 PM 21.48 70.664 0.552 8.1 35.65 11.2
8/14/2021 6:15:00 PM 21.5 70.7 0.548 8.07 35.74 11.09
8/14/2021 6:30:00 PM 21.49 70.682 0.544 8.05 35.78 10.82
8/14/2021 6:45:00 PM 21.46 70.628 0.542 8.05 35.74 10.52
8/14/2021 7:00:00 PM 21.43 70.574 0.539 8.05 35.75 10.5
8/14/2021 7:15:00 PM 21.39 70.502 0.538 8.03 35.78 10.09
8/14/2021 7:30:00 PM 21.35 70.43 0.535 8.02 35.94 10.22
8/14/2021 7:45:00 PM 21.3 70.34 0.535 8.01 35.92 10.04
8/14/2021 8:00:00 PM 21.25 70.25 0.535 7.97 35.95 9.8
8/14/2021 8:15:00 PM 21.2 70.16 0.536 7.98 36.07 9.66
8/14/2021 8:30:00 PM 21.16 70.088 0.536 7.97 36.02 9.58
8/14/2021 8:45:00 PM 21.12 70.016 0.539 7.97 36.16 9.34
8/14/2021 9:00:00 PM 21.08 69.944 0.539 7.96 33.82 9.19
8/14/2021 9:15:00 PM 21.03 69.854 0.541 7.95 33.88 9.05
8/14/2021 9:30:00 PM 20.98 69.764 0.543 7.92 33.52 8.79
8/14/2021 9:45:00 PM 20.92 69.656 0.544 7.93 33.75 8.83
8/14/2021 10:00:00 PM 20.87 69.566 0.546 7.9 33.88 8.58
8/14/2021 10:15:00 PM 20.81 69.458 0.547 7.88 33.36 8.26
8/14/2021 10:30:00 PM 20.76 69.368 0.548 7.88 33.73 8.27
8/14/2021 10:45:00 PM 20.69 69.242 0.551 7.86 34.09 8.21
8/14/2021 11:00:00 PM 20.63 69.134 0.553 7.85 34.01 8.18
8/14/2021 11:15:00 PM 20.53 68.954 0.555 7.84 34.49 8.13
8/14/2021 11:30:00 PM 20.44 68.792 0.556 7.82 34.8 8.01
8/14/2021 11:45:00 PM 20.38 68.684 0.558 7.79 33.66 7.95
8/15/2021 12:00:00 AM 20.29 68.522 0.559 7.79 34.05 7.77
8/15/2021 12:15:00 AM 20.2 68.36 0.561 7.78 34.42 7.73
8/15/2021 12:30:00 AM 20.12 68.216 0.562 7.77 34.75 7.61
8/15/2021 12:45:00 AM 20.03 68.054 0.564 7.76 34.78 7.58
8/15/2021 1:00:00 AM 19.93 67.874 0.565 7.74 35.41 7.41
8/15/2021 1:15:00 AM 19.84 67.712 0.566 7.74 35.14 7.39
8/15/2021 1:30:00 AM 19.76 67.568 0.568 7.72 34.8 7.33
8/15/2021 1:45:00 AM 19.67 67.406 0.569 7.71 34.8 7.28
8/15/2021 2:00:00 AM 19.56 67.208 0.57 7.71 34.89 7.2
8/15/2021 2:15:00 AM 19.48 67.064 0.57 7.7 34.89 7.15
8/15/2021 2:30:00 AM 19.4 66.92 0.57 7.69 34.52 7.06
8/15/2021 2:45:00 AM 19.3 66.74 0.572 7.68 34.42 7.07
8/15/2021 3:00:00 AM 19.2 66.56 0.571 7.67 34.5 6.99
8/15/2021 3:15:00 AM 19.09 66.362 0.573 7.67 34.64 6.98
8/15/2021 3:30:00 AM 19.03 66.254 0.572 7.66 34.44 6.88
8/15/2021 3:45:00 AM 18.97 66.146 0.572 7.62 34.46 6.72
8/15/2021 4:00:00 AM 18.84 65.912 0.573 7.64 33.89 6.79
8/15/2021 4:15:00 AM 18.7 65.66 0.573 7.64 34.88 6.81
8/15/2021 4:30:00 AM 18.62 65.516 0.572 7.6 43.74 6.64
8/15/2021 4:45:00 AM 18.53 65.354 0.573 7.6 34.9 6.72
8/15/2021 5:00:00 AM 18.44 65.192 0.572 7.6 31.14 6.7
8/15/2021 5:15:00 AM 18.36 65.048 0.571 7.57 29.92 6.69
8/15/2021 5:30:00 AM 18.25 64.85 0.572 7.6 29.75 6.67
8/15/2021 5:45:00 AM 18.18 64.724 0.572 7.55 32.12 6.71
8/15/2021 6:00:00 AM 18.09 64.562 0.572 7.57 29.69 6.68
8/15/2021 6:15:00 AM 18.02 64.436 0.572 7.59 29.35 6.71
8/15/2021 6:30:00 AM 17.96 64.328 0.571 7.55 29.47 6.69
8/15/2021 6:45:00 AM 17.9 64.22 0.571 7.55 29.44 6.76
8/15/2021 7:00:00 AM 17.85 64.13 0.57 7.58 29.33 6.79
8/15/2021 7:15:00 AM 17.79 64.022 0.569 7.55 29.65 6.85
8/15/2021 7:30:00 AM 17.74 63.932 0.57 7.56 29.27 6.91
8/15/2021 7:45:00 AM 17.7 63.86 0.571 7.56 29.21 6.93
8/15/2021 8:00:00 AM 17.66 63.788 0.57 7.56 29.7 7.08
8/15/2021 8:15:00 AM 17.63 63.734 0.571 7.58 29.08 7.15
8/15/2021 8:30:00 AM 17.59 63.662 0.571 7.58 29.4 7.31
8/15/2021 8:45:00 AM 17.58 63.644 0.571 7.64 29.16 7.4
8/15/2021 9:00:00 AM 17.57 63.626 0.571 7.6 28.94 7.54
8/15/2021 9:15:00 AM 17.56 63.608 0.571 7.65 29.35 7.67
8/15/2021 9:30:00 AM 17.54 63.572 0.571 7.67 29.06 7.84
8/15/2021 9:45:00 AM 17.53 63.554 0.571 7.64 28.37 7.87
8/15/2021 10:00:00 AM 17.55 63.59 0.571 7.63 28.34 7.97
8/15/2021 10:15:00 AM 17.57 63.626 0.571 7.63 28.42 7.92
8/15/2021 10:30:00 AM 17.62 63.716 0.572 7.67 28.13 8.34
8/15/2021 10:45:00 AM 17.68 63.824 0.571 7.68 28.44 8.72
8/15/2021 11:00:00 AM 17.76 63.968 0.571 7.7 28.66 8.93
8/15/2021 11:15:00 AM 17.81 64.058 0.571 7.74 28.34 9.07
8/15/2021 11:30:00 AM 17.88 64.184 0.572 7.75 28.22 9.03
8/15/2021 11:45:00 AM 18 64.4 0.572 7.75 28.51 9.31
8/15/2021 12:00:00 PM 18.1 64.58 0.571 7.74 28.63 9.13
8/15/2021 12:15:00 PM 18.2 64.76 0.571 7.76 28.53 9.42
8/15/2021 12:30:00 PM 18.31 64.958 0.571 7.77 28.49 9.44
8/15/2021 12:45:00 PM 18.36 65.048 0.572 7.76 27.98 9.41
8/15/2021 1:00:00 PM 18.47 65.246 0.572 7.78 27.81 9.61
8/15/2021 1:15:00 PM 18.62 65.516 0.571 7.8 27.67 10.05
8/15/2021 1:30:00 PM 18.65 65.57 0.571 7.81 30.19 10.09
8/15/2021 1:45:00 PM 18.68 65.624 0.571 7.81 27.43 10.06
8/15/2021 2:00:00 PM 18.74 65.732 0.572 7.84 27.37 10.02
8/15/2021 2:15:00 PM 18.86 65.948 0.572 7.89 27.66 10.44
8/15/2021 2:30:00 PM 19 66.2 0.571 7.9 27.45 10.7
8/15/2021 2:45:00 PM 19.17 66.506 0.572 7.92 27.61 11.01
8/15/2021 3:00:00 PM 19.32 66.776 0.572 7.93 27.47 11.43
8/15/2021 3:15:00 PM 19.48 67.064 0.572 7.97 27.63 11.52
8/15/2021 3:30:00 PM 19.64 67.352 0.572 7.99 27.59 11.56
8/15/2021 3:45:00 PM 19.73 67.514 0.571 8.01 26.88 11.6
8/15/2021 4:00:00 PM 19.84 67.712 0.572 7.99 27.06 11.67
8/15/2021 4:15:00 PM 19.9 67.82 0.572 7.98 26.96 11.96
8/15/2021 4:30:00 PM 19.96 67.92799 0.571 7.99 27.26 11.8
8/15/2021 4:45:00 PM 19.98 67.964 0.572 7.97 26.93 11.75
8/15/2021 5:00:00 PM 20 68 0.572 7.99 27.4 11.46
8/15/2021 5:15:00 PM 20.02 68.036 0.572 8.02 27.36 11.6
8/15/2021 5:30:00 PM 20.03 68.054 0.573 8.02 27.73 11.65
8/15/2021 5:45:00 PM 20.03 68.054 0.572 8.02 27.68 11.75
8/15/2021 6:00:00 PM 20.06 68.108 0.572 8.04 28.04 11.7
8/15/2021 6:15:00 PM 20.05 68.09 0.572 8.05 27.87 11.48
8/15/2021 6:30:00 PM 20.04 68.07201 0.573 8.08 29.72 11.87
8/15/2021 6:45:00 PM 20.03 68.054 0.574 8.07 27.62 11.68
8/15/2021 7:00:00 PM 20 68 0.573 8.07 27.37 11.43
8/15/2021 7:15:00 PM 19.98 67.964 0.574 8.06 27.27 10.89
8/15/2021 7:30:00 PM 19.97 67.946 0.574 8.07 27.59 11.23
8/15/2021 7:45:00 PM 19.94 67.892 0.574 8.05 27.58 11.08
8/15/2021 8:00:00 PM 19.91 67.838 0.575 8.07 27.66 11.05
8/15/2021 8:15:00 PM 19.88 67.784 0.575 8.05 27.84 10.75
8/15/2021 8:30:00 PM 19.84 67.712 0.576 8.04 27.94 10.68
8/15/2021 8:45:00 PM 19.79 67.622 0.577 7.98 27.93 10.5
8/15/2021 9:00:00 PM 19.75 67.55 0.577 8.02 27.88 10.34
8/15/2021 9:15:00 PM 19.69 67.442 0.578 8.02 27.61 10.27
8/15/2021 9:30:00 PM 19.63 67.334 0.578 7.99 27.92 10.09
8/15/2021 9:45:00 PM 19.58 67.244 0.578 7.98 27.66 9.87
8/15/2021 10:00:00 PM 19.51 67.118 0.579 7.99 27.82 9.77
8/15/2021 10:15:00 PM 19.44 66.992 0.58 7.95 27.88 9.36
8/15/2021 10:30:00 PM 19.38 66.884 0.58 7.96 27.96 9.43
8/15/2021 10:45:00 PM 19.32 66.776 0.581 7.94 28.01 9.34
8/15/2021 11:00:00 PM 19.26 66.668 0.581 7.91 28.29 9.17
8/15/2021 11:15:00 PM 19.21 66.578 0.582 7.92 27.95 9.11
8/15/2021 11:30:00 PM 19.15 66.47 0.583 7.91 28.3 8.83
8/15/2021 11:45:00 PM 19.08 66.344 0.583 7.9 28.25 8.87
8/16/2021 12:00:00 AM 19.04 66.272 0.584 7.88 28.11 8.64
8/16/2021 12:15:00 AM 18.97 66.146 0.584 7.86 28.47 8.58
8/16/2021 12:30:00 AM 18.91 66.038 0.585 7.84 31.26 8.5
8/16/2021 12:45:00 AM 18.85 65.93 0.585 7.85 28.97 8.39
8/16/2021 1:00:00 AM 18.79 65.82201 0.585 7.83 29.15 8.33
8/16/2021 1:15:00 AM 18.72 65.696 0.586 7.83 29.23 8.26
8/16/2021 1:30:00 AM 18.65 65.57 0.587 7.81 29.16 8.2
8/16/2021 1:45:00 AM 18.56 65.408 0.587 7.8 29.11 8.06
8/16/2021 2:00:00 AM 18.51 65.318 0.588 7.78 28.91 7.93
8/16/2021 2:15:00 AM 18.44 65.192 0.588 7.79 28.98 7.99
8/16/2021 2:30:00 AM 18.39 65.102 0.588 7.81 28.9 7.96
8/16/2021 2:45:00 AM 18.29 64.922 0.59 7.77 29.17 7.94
8/16/2021 3:00:00 AM 18.24 64.832 0.59 7.8 29.22 7.83
8/16/2021 3:15:00 AM 18.18 64.724 0.591 7.75 29.09 7.8
8/16/2021 3:30:00 AM 18.1 64.58 0.591 7.77 28.89 7.71
8/16/2021 3:45:00 AM 18.03 64.454 0.592 7.75 29.08 7.64
8/16/2021 4:00:00 AM 17.95 64.31 0.592 7.76 28.8 7.69
8/16/2021 4:15:00 AM 17.9 64.22 0.593 7.76 28.91 7.59
8/16/2021 4:30:00 AM 17.82 64.076 0.594 7.72 28.9 7.56
8/16/2021 4:45:00 AM 17.75 63.95 0.594 7.72 29.15 7.46
8/16/2021 5:00:00 AM 17.7 63.86 0.595 7.74 29.23 7.45
8/16/2021 5:15:00 AM 17.62 63.716 0.595 7.73 29.25 7.32
8/16/2021 5:30:00 AM 17.57 63.626 0.595 7.69 28.97 7.39
8/16/2021 5:45:00 AM 17.49 63.482 0.596 7.71 29.07 7.36
8/16/2021 6:00:00 AM 17.43 63.374 0.596 7.7 29.21 7.29
8/16/2021 6:15:00 AM 17.34 63.212 0.596 7.71 29.13 7.27
8/16/2021 6:30:00 AM 17.27 63.086 0.597 7.71 28.78 7.17
8/16/2021 6:45:00 AM 17.22 62.996 0.597 7.68 28.99 7.28
8/16/2021 7:00:00 AM 17.17 62.906 0.598 7.68 28.78 7.18
8/16/2021 7:15:00 AM 17.14 62.852 0.598 7.69 28.7 7.25
8/16/2021 7:30:00 AM 17.07 62.726 0.599 7.66 29.56 7.28
8/16/2021 7:45:00 AM 17.03 62.654 0.599 7.69 29 7.33
8/16/2021 8:00:00 AM 17 62.6 0.6 7.7 28.81 7.47
8/16/2021 8:15:00 AM 16.99 62.582 0.6 7.71 31.55 7.57
8/16/2021 8:30:00 AM 16.96 62.528 0.601 7.68 28.53 7.56
8/16/2021 8:45:00 AM 16.96 62.528 0.601 7.69 28.56 7.33
8/16/2021 9:00:00 AM 16.95 62.51 0.6 7.71 28.73 7.25
8/16/2021 9:15:00 AM 16.96 62.528 0.601 7.71 64.75 7.72
8/16/2021 9:30:00 AM 16.98 62.564 0.602 7.74 28.64 7.95
8/16/2021 9:45:00 AM 17 62.6 0.601 7.73 28.72 7.85
8/16/2021 10:00:00 AM 17.02 62.636 0.601 7.77 28.56 7.79
8/16/2021 10:15:00 AM 17.04 62.672 0.601 7.77 28.58 8.21
8/16/2021 10:30:00 AM 17.05 62.69 0.602 7.75 28.64 7.93
8/16/2021 10:45:00 AM 17.06 62.708 0.601 7.78 31.32 8.05
8/16/2021 11:00:00 AM 17.08 62.744 0.601 7.8 28.97 8.5
8/16/2021 11:15:00 AM 17.1 62.78 0.601 7.79 29.46 8.52
8/16/2021 11:30:00 AM 17.12 62.816 0.601 7.79 28.63 9.05
8/16/2021 11:45:00 AM 17.17 62.906 0.601 7.82 28.44 9.46
8/16/2021 12:00:00 PM 17.23 63.014 0.6 7.84 28.45 9.44
8/16/2021 12:15:00 PM 17.31 63.158 0.601 7.86 28.34 9.72
8/16/2021 12:30:00 PM 17.4 63.32 0.6 7.88 28.46 10.09
8/16/2021 12:45:00 PM 17.47 63.446 0.599 7.89 28.96 10.29
8/16/2021 1:00:00 PM 17.57 63.626 0.599 7.91 28.41 10.45
8/16/2021 1:15:00 PM 17.72 63.896 0.598 7.97 28.6 10.91
8/16/2021 1:30:00 PM 17.87 64.166 0.597 7.97 28.47 11.16
8/16/2021 1:45:00 PM 17.96 64.328 0.597 7.99 28.6 11.32
8/16/2021 2:00:00 PM 18.06 64.508 0.597 8.02 28.24 11.26
8/16/2021 2:15:00 PM 18.17 64.706 0.596 8.02 28.07 11.31
8/16/2021 2:30:00 PM 18.22 64.796 0.596 8.03 28.31 11.42
8/16/2021 2:45:00 PM 18.22 64.796 0.596 7.98 28.33 10.88
8/16/2021 3:00:00 PM 18.22 64.796 0.596 8 28.67 11.22
8/16/2021 3:15:00 PM 18.2 64.76 0.596 7.98 28.39 11.14
8/16/2021 3:30:00 PM 18.18 64.724 0.596 7.99 28.29 11.16
8/16/2021 3:45:00 PM 18.17 64.706 0.596 8.01 28.12 10.81
8/16/2021 4:00:00 PM 18.15 64.67 0.596 8.01 28.28 10.78
8/16/2021 4:15:00 PM 18.15 64.67 0.596 8.01 28.28 10.88
8/16/2021 4:30:00 PM 18.15 64.67 0.596 8.01 31.68 11.2
8/16/2021 4:45:00 PM 18.15 64.67 0.597 8.01 28.35 11.03
8/16/2021 5:00:00 PM 18.15 64.67 0.597 8.01 28.56 11.09
8/16/2021 5:15:00 PM 18.15 64.67 0.597 8.02 28.28 10.87
8/16/2021 5:30:00 PM 18.13 64.634 0.597 7.99 28.37 10.97
8/16/2021 5:45:00 PM 18.13 64.634 0.597 8 28.4 10.88
8/16/2021 6:00:00 PM 18.13 64.634 0.597 8.01 28.44 10.71
8/16/2021 6:15:00 PM 18.12 64.616 0.597 8 28.44 10.64
8/16/2021 6:30:00 PM 18.11 64.598 0.599 8 28.41 10.69
8/16/2021 6:45:00 PM 18.1 64.58 0.599 8.02 28.54 10.8
8/16/2021 7:00:00 PM 18.07 64.526 0.598 7.97 28.74 10.49
8/16/2021 7:15:00 PM 18.02 64.436 0.599 7.98 28.73 10.23
8/16/2021 7:30:00 PM 17.98 64.364 0.601 7.98 28.74 10.13
8/16/2021 7:45:00 PM 17.94 64.292 0.601 7.97 28.53 10.06
8/16/2021 8:00:00 PM 17.9 64.22 0.602 7.95 28.39 9.92
8/16/2021 8:15:00 PM 17.87 64.166 0.601 7.94 28.13 10.03
8/16/2021 8:30:00 PM 17.82 64.076 0.601 7.93 28.36 9.67
8/16/2021 8:45:00 PM 17.79 64.022 0.602 7.93 28.12 9.5
8/16/2021 9:00:00 PM 17.77 63.986 0.604 7.92 28.45 9.47
8/16/2021 9:15:00 PM 17.75 63.95 0.602 7.89 28.97 9.3
8/16/2021 9:30:00 PM 17.74 63.932 0.604 7.9 28.68 9.26
8/16/2021 9:45:00 PM 17.73 63.914 0.604 7.91 28.66 9.02
8/16/2021 10:00:00 PM 17.72 63.896 0.604 7.9 28.68 8.87
8/16/2021 10:15:00 PM 17.71 63.878 0.604 7.89 28.5 8.94
8/16/2021 10:30:00 PM 17.72 63.896 0.605 7.9 28.35 8.84
8/16/2021 10:45:00 PM 17.72 63.896 0.605 7.87 28.44 9.11
8/16/2021 11:00:00 PM 17.71 63.878 0.606 7.88 28.69 8.55
8/16/2021 11:15:00 PM 17.71 63.878 0.606 7.88 28.62 8.58
8/16/2021 11:30:00 PM 17.7 63.86 0.606 7.88 28.88 8.33
8/16/2021 11:45:00 PM 17.7 63.86 0.607 7.87 28.93 8.34
8/17/2021 12:00:00 AM 17.69 63.842 0.606 7.84 28.86 8.68
8/17/2021 12:15:00 AM 17.68 63.824 0.608 7.85 28.85 8.34
8/17/2021 12:30:00 AM 17.67 63.806 0.608 7.84 28.71 8.33
8/17/2021 12:45:00 AM 17.65 63.77 0.608 7.8 29.15 8.05
8/17/2021 1:00:00 AM 17.63 63.734 0.609 7.82 29.04 8.04
8/17/2021 1:15:00 AM 17.61 63.698 0.609 7.82 29.12 7.73
8/17/2021 1:30:00 AM 17.6 63.68 0.609 7.81 29.18 8.21
8/17/2021 1:45:00 AM 17.59 63.662 0.61 7.8 29.62 7.82
8/17/2021 2:00:00 AM 17.58 63.644 0.61 7.77 29.62 7.68
8/17/2021 2:15:00 AM 17.56 63.608 0.61 7.77 29.96 7.48
8/17/2021 2:30:00 AM 17.54 63.572 0.61 7.77 30 7.27
8/17/2021 2:45:00 AM 17.52 63.536 0.611 7.75 29.98 7.41
8/17/2021 3:00:00 AM 17.5 63.5 0.611 7.74 30.06 7.33
8/17/2021 3:15:00 AM 17.49 63.482 0.612 7.73 29.93 7.32
8/17/2021 3:30:00 AM 17.47 63.446 0.611 7.74 29.94 7.65
8/17/2021 3:45:00 AM 17.45 63.41 0.612 7.73 29.61 7.64
8/17/2021 4:00:00 AM 17.43 63.374 0.612 7.71 29.63 7.17
8/17/2021 4:15:00 AM 17.41 63.338 0.614 7.72 30.12 7.32
8/17/2021 4:30:00 AM 17.39 63.302 0.613 7.7 29.81 7.61
8/17/2021 4:45:00 AM 17.37 63.266 0.614 7.72 29.76 7.53
8/17/2021 5:00:00 AM 17.35 63.23 0.614 7.72 29.77 7.51
8/17/2021 5:15:00 AM 17.33 63.194 0.614 7.71 29.61 6.88
8/17/2021 5:30:00 AM 17.31 63.158 0.615 7.68 29.5 6.9
8/17/2021 5:45:00 AM 17.29 63.122 0.615 7.7 29.62 7.11
8/17/2021 6:00:00 AM 17.28 63.104 0.615 7.69 29.63 7.2
8/17/2021 6:15:00 AM 17.26 63.068 0.615 7.68 29.27 7.08
8/17/2021 6:30:00 AM 17.24 63.032 0.615 7.67 30.68 7.21
8/17/2021 6:45:00 AM 17.23 63.014 0.609 7.66 29.46 7.07
8/17/2021 7:00:00 AM 17.26 63.068 0.599 7.68 31.04 7.32
8/17/2021 7:15:00 AM 17.29 63.122 0.592 7.7 34.16 7.35
8/17/2021 7:30:00 AM 17.3 63.14 0.589 7.7 35.84 7.58
8/17/2021 7:45:00 AM 17.28 63.104 0.59 7.69 35.53 7.82
8/17/2021 8:00:00 AM 17.26 63.068 0.591 7.68 35.41 7.84
8/17/2021 8:15:00 AM 17.25 63.05 0.591 7.67 34.86 7.82
8/17/2021 8:30:00 AM 17.24 63.032 0.592 7.69 34.46 7.85
8/17/2021 8:45:00 AM 17.25 63.05 0.591 7.7 34.65 7.92
8/17/2021 9:00:00 AM 17.27 63.086 0.589 7.67 34.23 7.98
8/17/2021 9:15:00 AM 17.29 63.122 0.588 7.66 36.68 7.91
8/17/2021 9:30:00 AM 17.3 63.14 0.587 7.68 35.87 7.94
8/17/2021 9:45:00 AM 17.33 63.194 0.586 7.68 37.07 8.02
8/17/2021 10:00:00 AM 17.36 63.248 0.584 7.68 37.21 8.16
8/17/2021 10:15:00 AM 17.41 63.338 0.581 7.71 36.43 8.32
8/17/2021 10:30:00 AM 17.43 63.374 0.58 7.7 38.61 8.42
8/17/2021 10:45:00 AM 17.43 63.374 0.583 7.74 44.75 8.55
8/17/2021 11:00:00 AM 17.43 63.374 0.586 7.76 40.48 8.65
8/17/2021 11:15:00 AM 17.43 63.374 0.587 7.79 38.98 8.83
8/17/2021 11:30:00 AM 17.48 63.464 0.585 7.8 37.66 8.87
8/17/2021 11:45:00 AM 17.48 63.464 0.582 7.82 36.82 8.98
8/17/2021 12:00:00 PM 17.47 63.446 0.579 7.79 37.59 9.07
8/17/2021 12:15:00 PM 17.48 63.464 0.576 7.79 38.37 9.23
8/17/2021 12:30:00 PM 17.54 63.572 0.571 7.83 41.45 9.39
8/17/2021 12:45:00 PM 17.63 63.734 0.562 7.83 58 9.56
8/17/2021 1:00:00 PM 17.65 63.77 0.551 7.85 311.28 9.55
8/17/2021 1:15:00 PM 17.77 63.986 0.523 7.84 66.82 9.45
8/17/2021 1:30:00 PM 18.3 64.94 0.449 7.77 70.15 9.02
8/17/2021 1:45:00 PM 18.58 65.444 0.374 7.72 104.22 8.84
8/17/2021 2:00:00 PM 18.8 65.84 0.324 7.68 120.24 8.78
8/17/2021 2:15:00 PM 19.04 66.272 0.296 7.62 132.01 8.69
8/17/2021 2:30:00 PM 19.36 66.848 0.259 7.61 116.23 8.62
8/17/2021 2:45:00 PM 19.62 67.316 0.226 7.57 98.91 8.63
8/17/2021 3:00:00 PM 19.67 67.406 0.204 7.52 109.07 8.65
8/17/2021 3:15:00 PM 19.66 67.388 0.188 7.52 112.41 8.63
8/17/2021 3:30:00 PM 19.75 67.55 0.174 7.46 115.81 8.6
8/17/2021 3:45:00 PM 19.86 67.748 0.165 7.49 123.78 8.58
8/17/2021 4:00:00 PM 19.95 67.91 0.16 7.45 121.65 8.58
8/17/2021 4:15:00 PM 20.02 68.036 0.157 7.47 116.99 8.53
8/17/2021 4:30:00 PM 20.07 68.126 0.158 7.43 111.4 8.53
8/17/2021 4:45:00 PM 20.12 68.216 0.158 7.46 102.89 8.45
8/17/2021 5:00:00 PM 20.15 68.27 0.158 7.45 105.48 8.48
8/17/2021 5:15:00 PM 20.18 68.324 0.159 7.45 110.86 8.46
8/17/2021 5:30:00 PM 20.21 68.378 0.161 7.43 105.63 8.46
8/17/2021 5:45:00 PM 20.24 68.432 0.163 7.47 98.04 8.46
8/17/2021 6:00:00 PM 20.28 68.504 0.166 7.43 104.11 8.42
8/17/2021 6:15:00 PM 20.32 68.576 0.168 7.45 95.45 8.39
8/17/2021 6:30:00 PM 20.35 68.63 0.171 7.44 92.53 8.41
8/17/2021 6:45:00 PM 20.38 68.684 0.175 7.47 86.31 8.37
8/17/2021 7:00:00 PM 20.4 68.72 0.179 7.48 86.3 8.34
8/17/2021 7:15:00 PM 20.42 68.756 0.182 7.46 85.94 8.36
8/17/2021 7:30:00 PM 20.43 68.774 0.187 7.46 80.61 8.35
8/17/2021 7:45:00 PM 20.45 68.81 0.191 7.46 81.59 8.31
8/17/2021 8:00:00 PM 20.45 68.81 0.195 7.45 84.36 8.26
8/17/2021 8:15:00 PM 20.45 68.81 0.199 7.5 73.74 8.24
8/17/2021 8:30:00 PM 20.44 68.792 0.203 7.45 76.92 8.19
8/17/2021 8:45:00 PM 20.43 68.774 0.208 7.46 70.48 8.22
8/17/2021 9:00:00 PM 20.41 68.738 0.213 7.47 71.82 8.21
8/17/2021 9:15:00 PM 20.39 68.702 0.217 7.48 75.45 8.16
8/17/2021 9:30:00 PM 20.36 68.648 0.222 7.48 71.53 8.14
8/17/2021 9:45:00 PM 20.33 68.594 0.226 7.49 73.49 8.08
8/17/2021 10:00:00 PM 20.3 68.54 0.23 7.51 65.23 8.11
8/17/2021 10:15:00 PM 20.28 68.504 0.234 7.49 62.74 8.07
8/17/2021 10:30:00 PM 20.25 68.45 0.238 7.5 63.36 8.02
8/17/2021 10:45:00 PM 20.22 68.396 0.241 7.46 67.01 7.98
8/17/2021 11:00:00 PM 20.19 68.342 0.244 7.47 61.55 8
8/17/2021 11:15:00 PM 20.17 68.306 0.247 7.46 61.14 7.99
8/17/2021 11:30:00 PM 20.14 68.252 0.249 7.47 103.59 8.02
8/17/2021 11:45:00 PM 20.11 68.198 0.252 7.5 70.24 7.96
8/18/2021 12:00:00 AM 20.09 68.162 0.255 7.5 64.86 7.96
8/18/2021 12:15:00 AM 20.06 68.108 0.256 7.45 60.13 7.96
8/18/2021 12:30:00 AM 20.03 68.054 0.258 7.46 66.97 7.96
8/18/2021 12:45:00 AM 20.01 68.018 0.262 7.45 59.36 7.97
8/18/2021 1:00:00 AM 19.98 67.964 0.263 7.49 57.85 7.96
8/18/2021 1:15:00 AM 19.94 67.892 0.265 7.46 58.58 7.91
8/18/2021 1:30:00 AM 19.91 67.838 0.267 7.44 58.83 7.92
8/18/2021 1:45:00 AM 19.88 67.784 0.269 7.46 58.65 7.91
8/18/2021 2:00:00 AM 19.85 67.73 0.271 7.49 56.44 7.93
8/18/2021 2:15:00 AM 19.81 67.658 0.273 7.5 56.5 7.93
8/18/2021 2:30:00 AM 19.78 67.604 0.275 7.49 55.97 7.94
8/18/2021 2:45:00 AM 19.75 67.55 0.277 7.49 54.11 7.91
8/18/2021 3:00:00 AM 19.72 67.496 0.278 7.47 54.67 7.94
8/18/2021 3:15:00 AM 19.69 67.442 0.281 7.48 53.91 7.92
8/18/2021 3:30:00 AM 19.66 67.388 0.282 7.49 53.16 7.92
8/18/2021 3:45:00 AM 19.64 67.352 0.283 7.49 53.5 7.96
8/18/2021 4:00:00 AM 19.69 67.442 0.289 7.52 72.97 8.12
8/18/2021 4:15:00 AM 19.7 67.46 0.285 7.5 66.3 8.16
8/18/2021 4:30:00 AM 19.71 67.478 0.279 7.52 71.22 8.21
8/18/2021 4:45:00 AM 19.75 67.55 0.264 7.55 89.95 8.41
8/18/2021 5:00:00 AM 19.67 67.406 0.264 7.51 78.76 8.44
8/18/2021 5:15:00 AM 19.64 67.352 0.256 7.46 81.8 8.35
8/18/2021 5:30:00 AM 19.66 67.388 0.244 7.47 91.68 8.3
8/18/2021 5:45:00 AM 19.64 67.352 0.237 7.44 89.53 8.34
8/18/2021 6:00:00 AM 19.58 67.244 0.233 7.45 130.54 8.39
8/18/2021 6:15:00 AM 19.59 67.262 0.215 7.38 458.37 8.46
8/18/2021 6:30:00 AM 19.55 67.19 0.212 7.4 534.75 8.47
8/18/2021 6:45:00 AM 19.57 67.226 0.202 7.34 541.76 8.42
8/18/2021 7:00:00 AM 19.82 67.676 0.171 7.36 1025.65 8.33
8/18/2021 7:15:00 AM 20.04 68.07201 0.145 7.44 1583.71 8.32
8/18/2021 7:30:00 AM 20.17 68.306 0.131 7.41 1616.97 8.3
8/18/2021 7:45:00 AM 20.23 68.414 0.125 7.35 1377.19 8.27
8/18/2021 8:00:00 AM 20.25 68.45 0.125 7.35 1085.17 8.27
8/18/2021 8:15:00 AM 20.25 68.45 0.127 7.24 747.41 8.24
8/18/2021 8:30:00 AM 20.29 68.522 0.125 7.25 549.94 8.21
8/18/2021 8:45:00 AM 20.35 68.63 0.122 7.22 434.08 8.19
8/18/2021 9:00:00 AM 20.38 68.684 0.123 7.2 373.06 8.17
8/18/2021 9:15:00 AM 20.39 68.702 0.125 7.17 262.34 8.16
8/18/2021 9:30:00 AM 20.38 68.684 0.129 7.18 233.67 8.14
8/18/2021 9:45:00 AM 20.34 68.612 0.137 7.15 191.06 8.13
8/18/2021 10:00:00 AM 20.25 68.45 0.147 7.19 176.38 8.14
8/18/2021 10:15:00 AM 20.12 68.216 0.158 7.16 151.01 8.19
8/18/2021 10:30:00 AM 19.96 67.92799 0.165 7.18 152.06 8.22
8/18/2021 10:45:00 AM 19.85 67.73 0.166 7.18 159.15 8.23
8/18/2021 11:00:00 AM 19.8 67.64 0.165 7.2 159.16 8.23
8/18/2021 11:15:00 AM 19.78 67.604 0.164 7.2 154.24 8.23
8/18/2021 11:30:00 AM 19.78 67.604 0.165 7.17 158.39 8.24
8/18/2021 11:45:00 AM 19.77 67.586 0.166 7.19 162.97 8.26
8/18/2021 12:00:00 PM 19.77 67.586 0.165 7.22 147.39 8.27
8/18/2021 12:15:00 PM 19.77 67.586 0.167 7.21 150.37 8.28
8/18/2021 12:30:00 PM 19.76 67.568 0.168 7.18 132.29 8.28
8/18/2021 12:45:00 PM 19.77 67.586 0.168 7.19 128.6 8.29
8/18/2021 1:00:00 PM 19.77 67.586 0.169 7.21 119.11 8.3
8/18/2021 1:15:00 PM 19.77 67.586 0.17 7.23 111.45 8.32
8/18/2021 1:30:00 PM 19.77 67.586 0.171 7.2 122.23 8.32
8/18/2021 1:45:00 PM 19.76 67.568 0.173 7.25 108.71 8.35
8/18/2021 2:00:00 PM 19.75 67.55 0.174 7.25 115.33 8.38
8/18/2021 2:15:00 PM 19.74 67.532 0.177 7.26 103.57 8.38
8/18/2021 2:30:00 PM 19.73 67.514 0.176 7.26 109.48 8.39
8/18/2021 2:45:00 PM 19.73 67.514 0.177 7.26 104.43 8.42
8/18/2021 3:00:00 PM 19.73 67.514 0.178 7.27 101.83 8.41
8/18/2021 3:15:00 PM 19.72 67.496 0.18 7.22 110.79 8.44
8/18/2021 3:30:00 PM 19.71 67.478 0.181 7.25 109.03 8.46
8/18/2021 3:45:00 PM 19.7 67.46 0.183 7.28 127.94 8.47
8/18/2021 4:00:00 PM 19.7 67.46 0.185 7.3 98.28 8.49
8/18/2021 4:15:00 PM 19.7 67.46 0.189 7.27 95.8 8.48
8/18/2021 4:30:00 PM 19.7 67.46 0.19 7.26 90.96 8.48
8/18/2021 4:45:00 PM 19.71 67.478 0.193 7.31 93.08 8.47
8/18/2021 5:00:00 PM 19.73 67.514 0.196 7.3 85.86 8.45
8/18/2021 5:15:00 PM 19.73 67.514 0.196 7.3 91.7 8.45
8/18/2021 5:30:00 PM 19.73 67.514 0.198 7.3 96.1 8.43
8/18/2021 5:45:00 PM 19.74 67.532 0.197 7.28 99.94 8.43
8/18/2021 6:00:00 PM 19.75 67.55 0.199 7.29 91.36 8.44
8/18/2021 6:15:00 PM 19.77 67.586 0.2 7.27 99.72 8.42
8/18/2021 6:30:00 PM 19.79 67.622 0.2 7.32 95.57 8.42
8/18/2021 6:45:00 PM 19.82 67.676 0.2 7.31 120.06 8.4
8/18/2021 7:00:00 PM 19.86 67.748 0.198 7.28 114.77 8.41
8/18/2021 7:15:00 PM 19.92 67.856 0.193 7.31 147.77 8.4
8/18/2021 7:30:00 PM 19.97 67.946 0.186 7.3 181.5 8.44
8/18/2021 7:45:00 PM 19.97 67.946 0.18 7.29 319.13 8.45
8/18/2021 8:00:00 PM 19.97 67.946 0.168 7.27 217.55 8.45
8/18/2021 8:15:00 PM 20.04 68.07201 0.156 7.29 270.05 8.44
8/18/2021 8:30:00 PM 20.11 68.198 0.146 7.27 333.49 8.46
8/18/2021 8:45:00 PM 20.14 68.252 0.14 7.24 422.36 8.46
8/18/2021 9:00:00 PM 20.15 68.27 0.136 7.28 390.06 8.46
8/18/2021 9:15:00 PM 20.15 68.27 0.134 7.25 380.65 8.45
8/18/2021 9:30:00 PM 20.15 68.27 0.127 7.19 341.65 8.4
8/18/2021 9:45:00 PM 20.15 68.27 0.124 7.15 465.17 8.36
8/18/2021 10:00:00 PM 20.14 68.252 0.121 7.14 460.85 8.32
8/18/2021 10:15:00 PM 20.12 68.216 0.119 7.19 495.17 8.3
8/18/2021 10:30:00 PM 20.1 68.18 0.118 7.18 517.65 8.26
8/18/2021 10:45:00 PM 20.09 68.162 0.115 7.13 576.26 8.16
8/18/2021 11:00:00 PM 20.09 68.162 0.109 7.14 576.64 8.12
8/18/2021 11:15:00 PM 20.09 68.162 0.106 7.11 577.32 8.04
8/18/2021 11:30:00 PM 20.05 68.09 0.105 7.06 912.02 8.01
8/18/2021 11:45:00 PM 20.06 68.108 0.102 7.08 661.03 8.01
8/19/2021 12:00:00 AM 20.06 68.108 0.101 7.06 911.56 7.97
8/19/2021 12:15:00 AM 20.05 68.09 0.098 7.03 739.63 7.94
8/19/2021 12:30:00 AM 20.04 68.07201 0.098 6.99 813.28 7.92
8/19/2021 12:45:00 AM 20.04 68.07201 0.097 7 1225.88 7.89
8/19/2021 1:00:00 AM 20.04 68.07201 0.095 6.96 518.52 7.84
8/19/2021 1:15:00 AM 20.04 68.07201 0.093 6.96 512.02 7.81
8/19/2021 1:30:00 AM 20.03 68.054 0.093 6.93 411.94 7.8
8/19/2021 1:45:00 AM 20.02 68.036 0.094 6.95 405.56 7.78
8/19/2021 2:00:00 AM 20.01 68.018 0.094 6.87 383.69 7.75
8/19/2021 2:15:00 AM 20 68 0.094 6.97 392.23 7.74
8/19/2021 2:30:00 AM 19.98 67.964 0.094 6.9 351.25 7.74
8/19/2021 2:45:00 AM 19.97 67.946 0.093 6.92 297.23 7.73
8/19/2021 3:00:00 AM 19.96 67.92799 0.093 6.91 338.59 7.73
8/19/2021 3:15:00 AM 19.94 67.892 0.093 6.92 317.3 7.74
8/19/2021 3:30:00 AM 19.93 67.874 0.093 6.92 315.42 7.74
8/19/2021 3:45:00 AM 19.91 67.838 0.093 6.89 302.39 7.74
8/19/2021 4:00:00 AM 19.89 67.802 0.094 6.92 293.41 7.74
8/19/2021 4:15:00 AM 19.88 67.784 0.093 6.84 259.65 7.74
8/19/2021 4:30:00 AM 19.86 67.748 0.094 6.92 237.01 7.73
8/19/2021 4:45:00 AM 19.85 67.73 0.094 6.91 252.01 7.73
8/19/2021 5:00:00 AM 19.83 67.694 0.095 6.91 780.41 7.73
8/19/2021 5:15:00 AM 19.82 67.676 0.095 6.93 236.76 7.73
8/19/2021 5:30:00 AM 19.8 67.64 0.096 6.87 222.21 7.72
8/19/2021 5:45:00 AM 19.78 67.604 0.096 6.94 216.46 7.72
8/19/2021 6:00:00 AM 19.76 67.568 0.102 6.93 204.23 7.71
8/19/2021 6:15:00 AM 19.74 67.532 0.098 6.82 190.58 7.72
8/19/2021 6:30:00 AM 19.72 67.496 0.099 6.9 183.62 7.72
8/19/2021 6:45:00 AM 19.7 67.46 0.105 6.94 174.62 7.71
8/19/2021 7:00:00 AM 19.68 67.424 0.105 6.92 171.87 7.71
8/19/2021 7:15:00 AM 19.66 67.388 0.107 6.92 160.39 7.71
8/19/2021 7:30:00 AM 19.64 67.352 0.109 6.9 153.27 7.71
8/19/2021 7:45:00 AM 19.62 67.316 0.11 6.9 149.08 7.71
8/19/2021 8:00:00 AM 19.6 67.28 0.112 6.94 142.15 7.7
8/19/2021 8:15:00 AM 19.58 67.244 0.113 6.97 140.9 7.7
8/19/2021 8:30:00 AM 19.56 67.208 0.114 6.95 134.81 7.7
8/19/2021 8:45:00 AM 19.56 67.208 0.116 6.9 140.38 7.68
8/19/2021 9:00:00 AM 19.57 67.226 0.116 6.91 149.51 7.67
8/19/2021 9:15:00 AM 19.58 67.244 0.116 6.94 163.11 7.67
8/19/2021 9:30:00 AM 19.6 67.28 0.118 6.98 171.45 7.64
8/19/2021 9:45:00 AM 19.62 67.316 0.119 6.98 178.53 7.59
8/19/2021 10:00:00 AM 19.67 67.406 0.119 6.97 211.83 7.53
8/19/2021 10:15:00 AM 19.7 67.46 0.123 6.98 267.94 7.53
8/19/2021 10:30:00 AM 19.75 67.55 0.122 6.96 291.07 7.51
8/19/2021 10:45:00 AM 19.78 67.604 0.123 7 347.41 7.52
8/19/2021 11:00:00 AM 19.79 67.622 0.124 6.94 356.47 7.55
8/19/2021 11:15:00 AM 19.82 67.676 0.126 7.01 431.38 7.57
8/19/2021 11:30:00 AM 19.83 67.694 0.127 6.98 463.48 7.63
8/19/2021 11:45:00 AM 19.85 67.73 0.127 7.04 465.07 7.65
8/19/2021 12:00:00 PM 19.86 67.748 0.128 7.02 454.67 7.67
8/19/2021 12:15:00 PM 19.87 67.766 0.129 7.02 453.49 7.71
8/19/2021 12:30:00 PM 19.87 67.766 0.129 7.06 446.2 7.73
8/19/2021 12:45:00 PM 19.89 67.802 0.131 7.05 442.15 7.75
8/19/2021 1:00:00 PM 19.9 67.82 0.13 7.1 428.2 7.76
8/19/2021 1:15:00 PM 19.92 67.856 0.132 7.07 403.43 7.78
8/19/2021 1:30:00 PM 19.94 67.892 0.133 7.04 415 7.81
8/19/2021 1:45:00 PM 19.95 67.91 0.133 6.99 404.86 7.83
8/19/2021 2:00:00 PM 19.96 67.92799 0.133 7.09 369.94 7.84
8/19/2021 2:15:00 PM 19.97 67.946 0.134 7.06 386.37 7.85
8/19/2021 2:30:00 PM 19.99 67.982 0.135 7.07 339.95 7.87
8/19/2021 2:45:00 PM 20 68 0.135 7.11 327.15 7.87
8/19/2021 3:00:00 PM 20.01 68.018 0.135 7.09 326.56 7.88
8/19/2021 3:15:00 PM 20.04 68.07201 0.138 7.03 305 7.89
8/19/2021 3:30:00 PM 20.06 68.108 0.134 7.04 296.42 7.91
8/19/2021 3:45:00 PM 20.08 68.144 0.135 7.12 277.24 7.92
8/19/2021 4:00:00 PM 20.1 68.18 0.137 7.11 260.33 7.92
8/19/2021 4:15:00 PM 20.11 68.198 0.138 7.11 256.54 7.93
8/19/2021 4:30:00 PM 20.13 68.234 0.14 7.11 259.74 7.92
8/19/2021 4:45:00 PM 20.16 68.288 0.141 7.11 227.84 7.91
8/19/2021 5:00:00 PM 20.18 68.324 0.141 7.11 218.54 7.91
8/19/2021 5:15:00 PM 20.2 68.36 0.143 7.12 226.29 7.91
8/19/2021 5:30:00 PM 20.22 68.396 0.144 7.12 211.4 7.91
8/19/2021 5:45:00 PM 20.22 68.396 0.145 7.12 205.27 7.91
8/19/2021 6:00:00 PM 20.24 68.432 0.147 7.12 196.45 7.91
8/19/2021 6:15:00 PM 20.25 68.45 0.147 7.08 196.37 7.92
8/19/2021 6:30:00 PM 20.26 68.468 0.149 7.08 195.2 7.92
8/19/2021 6:45:00 PM 20.26 68.468 0.151 7.11 183.65 7.93
8/19/2021 7:00:00 PM 20.27 68.486 0.152 7.11 177.12 7.93
8/19/2021 7:15:00 PM 20.28 68.504 0.155 7.14 176.6 7.94
8/19/2021 7:30:00 PM 20.28 68.504 0.155 7.14 175.02 7.95
8/19/2021 7:45:00 PM 20.28 68.504 0.156 7.05 164.35 7.97
8/19/2021 8:00:00 PM 20.27 68.486 0.158 7.12 156.11 7.99
8/19/2021 8:15:00 PM 20.25 68.45 0.159 7.06 155.32 8.01
8/19/2021 8:30:00 PM 20.22 68.396 0.161 7.15 159.02 8.04
8/19/2021 8:45:00 PM 20.19 68.342 0.162 7.08 143.87 8.05
8/19/2021 9:00:00 PM 20.15 68.27 0.163 7.1 146.14 8.07
8/19/2021 9:15:00 PM 20.1 68.18 0.165 7.11 143.42 8.09
8/19/2021 9:30:00 PM 20.06 68.108 0.166 7.14 133.08 8.11
8/19/2021 9:45:00 PM 20.02 68.036 0.167 7.12 164.4 8.13
8/19/2021 10:00:00 PM 19.98 67.964 0.168 7.13 125.66 8.14
8/19/2021 10:15:00 PM 19.93 67.874 0.168 7.2 127.14 8.15
8/19/2021 10:30:00 PM 19.88 67.784 0.17 7.17 120.7 8.16
8/19/2021 10:45:00 PM 19.83 67.694 0.171 7.2 115.77 8.18
8/19/2021 11:00:00 PM 19.77 67.586 0.171 7.17 111.1 8.21
8/19/2021 11:15:00 PM 19.72 67.496 0.174 7.2 110.22 8.21
8/19/2021 11:30:00 PM 19.66 67.388 0.177 7.2 108.42 8.23
8/19/2021 11:45:00 PM 19.6 67.28 0.177 7.15 101.19 8.25
8/20/2021 12:00:00 AM 19.55 67.19 0.178 7.16 102 8.25
8/20/2021 12:15:00 AM 19.49 67.082 0.179 7.18 99.75 8.27
8/20/2021 12:30:00 AM 19.43 66.974 0.18 7.19 96.81 8.29
8/20/2021 12:45:00 AM 19.37 66.866 0.182 7.19 91.39 8.31
8/20/2021 1:00:00 AM 19.31 66.758 0.183 7.12 88.17 8.33
8/20/2021 1:15:00 AM 19.26 66.668 0.185 7.2 96.14 8.35
8/20/2021 1:30:00 AM 19.2 66.56 0.185 7.21 85.76 8.37
8/20/2021 1:45:00 AM 19.15 66.47 0.187 7.2 79.79 8.38
8/20/2021 2:00:00 AM 19.1 66.38 0.188 7.13 73.46 8.4
8/20/2021 2:15:00 AM 19.05 66.29 0.189 7.21 78.63 8.41
8/20/2021 2:30:00 AM 19 66.2 0.192 7.2 74.75 8.42
8/20/2021 2:45:00 AM 18.95 66.11 0.193 7.23 78.49 8.43
8/20/2021 3:00:00 AM 18.9 66.02 0.192 7.17 74.72 8.44
8/20/2021 3:15:00 AM 18.85 65.93 0.194 7.21 73.39 8.46
8/20/2021 3:30:00 AM 18.81 65.858 0.194 7.23 72.96 8.46
8/20/2021 3:45:00 AM 18.77 65.786 0.197 7.19 73.86 8.47
8/20/2021 4:00:00 AM 18.72 65.696 0.199 7.23 70.13 8.48
8/20/2021 4:15:00 AM 18.68 65.624 0.199 7.21 67.94 8.49
8/20/2021 4:30:00 AM 18.64 65.552 0.199 7.24 69.79 8.5
8/20/2021 4:45:00 AM 18.6 65.48 0.199 7.24 68.59 8.52
8/20/2021 5:00:00 AM 18.56 65.408 0.204 7.23 65.89 8.53
8/20/2021 5:15:00 AM 18.52 65.336 0.204 7.24 65.23 8.54
8/20/2021 5:30:00 AM 18.48 65.264 0.204 7.24 72.92 8.55
8/20/2021 5:45:00 AM 18.45 65.21 0.205 7.17 63.91 8.56
8/20/2021 6:00:00 AM 18.41 65.138 0.205 7.25 62.78 8.58
8/20/2021 6:15:00 AM 18.38 65.084 0.207 7.24 72.33 8.58
8/20/2021 6:30:00 AM 18.35 65.03 0.21 7.25 67.57 8.59
8/20/2021 6:45:00 AM 18.32 64.976 0.209 7.26 68.3 8.59
8/20/2021 7:00:00 AM 18.3 64.94 0.212 7.26 69.86 8.6
8/20/2021 7:15:00 AM 18.27 64.886 0.213 7.23 67.03 8.61
8/20/2021 7:30:00 AM 18.25 64.85 0.211 7.26 64.37 8.62
8/20/2021 7:45:00 AM 18.22 64.796 0.214 7.26 63.74 8.62
8/20/2021 8:00:00 AM 18.2 64.76 0.215 7.18 65.78 8.63
8/20/2021 8:15:00 AM 18.19 64.742 0.216 7.25 64.23 8.64
8/20/2021 8:30:00 AM 18.17 64.706 0.217 7.23 64.56 8.65
8/20/2021 8:45:00 AM 18.17 64.706 0.217 7.27 61.48 8.66
8/20/2021 9:00:00 AM 18.17 64.706 0.22 7.26 59.24 8.68
8/20/2021 9:15:00 AM 18.17 64.706 0.216 7.24 56.96 8.69
8/20/2021 9:30:00 AM 18.18 64.724 0.22 7.28 55.7 8.72
8/20/2021 9:45:00 AM 18.19 64.742 0.221 7.26 56.86 8.73
8/20/2021 10:00:00 AM 18.21 64.778 0.221 7.25 57.33 8.75
8/20/2021 10:15:00 AM 18.24 64.832 0.222 7.25 56.04 8.78
8/20/2021 10:30:00 AM 18.27 64.886 0.221 7.3 57.58 8.8
8/20/2021 10:45:00 AM 18.31 64.958 0.224 7.3 57.41 8.82
8/20/2021 11:00:00 AM 18.35 65.03 0.226 7.28 55.8 8.86
8/20/2021 11:15:00 AM 18.42 65.156 0.227 7.29 56.7 8.88
8/20/2021 11:30:00 AM 18.48 65.264 0.227 7.27 58.38 8.91
8/20/2021 11:45:00 AM 18.55 65.39 0.226 7.3 55.14 8.93
8/20/2021 12:00:00 PM 18.62 65.516 0.225 7.35 53.52 8.96
8/20/2021 12:15:00 PM 18.69 65.642 0.229 7.36 52.79 8.99
8/20/2021 12:30:00 PM 18.77 65.786 0.23 7.37 53.2 9.01
8/20/2021 12:45:00 PM 18.86 65.948 0.232 7.37 51.25 9.03
8/20/2021 1:00:00 PM 18.96 66.128 0.232 7.38 52.61 9.05
8/20/2021 1:15:00 PM 19.05 66.29 0.23 7.38 57.19 9.06
8/20/2021 1:30:00 PM 19.13 66.434 0.233 7.39 53.46 9.06
8/20/2021 1:45:00 PM 19.2 66.56 0.234 7.4 52.12 9.07
8/20/2021 2:00:00 PM 19.26 66.668 0.234 7.38 52.98 9.06
8/20/2021 2:15:00 PM 19.31 66.758 0.234 7.4 50.69 9.05
8/20/2021 2:30:00 PM 19.34 66.812 0.237 7.4 53.56 9.04
8/20/2021 2:45:00 PM 19.39 66.902 0.236 7.41 53.54 9.02
8/20/2021 3:00:00 PM 19.44 66.992 0.237 7.41 52.78 9.01
8/20/2021 3:15:00 PM 19.5 67.1 0.239 7.42 50.07 9
8/20/2021 3:30:00 PM 19.55 67.19 0.24 7.4 50.19 8.98
8/20/2021 3:45:00 PM 19.6 67.28 0.24 7.38 50.54 8.97
8/20/2021 4:00:00 PM 19.64 67.352 0.24 7.42 49.63 8.95
8/20/2021 4:15:00 PM 19.71 67.478 0.241 7.42 50.61 8.95
8/20/2021 4:30:00 PM 19.8 67.64 0.242 7.42 50.16 8.94
8/20/2021 4:45:00 PM 19.86 67.748 0.242 7.42 50.86 8.93
8/20/2021 5:00:00 PM 19.95 67.91 0.243 7.44 49.92 8.93
8/20/2021 5:15:00 PM 20 68 0.245 7.43 50.75 8.92
8/20/2021 5:30:00 PM 20.06 68.108 0.246 7.4 49.59 8.91
8/20/2021 5:45:00 PM 20.12 68.216 0.246 7.41 50.38 8.89
8/20/2021 6:00:00 PM 20.15 68.27 0.248 7.43 49.22 8.87
8/20/2021 6:15:00 PM 20.18 68.324 0.249 7.4 48.42 8.83
8/20/2021 6:30:00 PM 20.19 68.342 0.25 7.43 48.74 8.81
8/20/2021 6:45:00 PM 20.21 68.378 0.25 7.44 50.63 8.79
8/20/2021 7:00:00 PM 20.22 68.396 0.252 7.42 48.88 8.73
8/20/2021 7:15:00 PM 20.22 68.396 0.253 7.41 48.84 8.69
8/20/2021 7:30:00 PM 20.22 68.396 0.253 7.43 47.68 8.66
8/20/2021 7:45:00 PM 20.21 68.378 0.254 7.4 50.7 8.61
8/20/2021 8:00:00 PM 20.2 68.36 0.255 7.41 48.08 8.57
8/20/2021 8:15:00 PM 20.19 68.342 0.258 7.39 48.6 8.53
8/20/2021 8:30:00 PM 20.18 68.324 0.258 7.42 48.13 8.5
8/20/2021 8:45:00 PM 20.17 68.306 0.259 7.39 50.53 8.47
8/20/2021 9:00:00 PM 20.15 68.27 0.26 7.41 50.15 8.44
8/20/2021 9:15:00 PM 20.13 68.234 0.262 7.37 49.78 8.41
8/20/2021 9:30:00 PM 20.1 68.18 0.263 7.4 47.97 8.39
8/20/2021 9:45:00 PM 20.07 68.126 0.264 7.4 47.42 8.36
8/20/2021 10:00:00 PM 20.03 68.054 0.266 7.4 46.78 8.34
8/20/2021 10:15:00 PM 19.99 67.982 0.267 7.39 48.86 8.32
8/20/2021 10:30:00 PM 19.95 67.91 0.268 7.35 49.66 8.33
8/20/2021 10:45:00 PM 19.91 67.838 0.269 7.39 47.9 8.31
8/20/2021 11:00:00 PM 19.88 67.784 0.27 7.37 51.55 8.3
8/20/2021 11:15:00 PM 19.84 67.712 0.27 7.38 51.65 8.3
8/20/2021 11:30:00 PM 19.79 67.622 0.273 7.35 51.62 8.29
8/20/2021 11:45:00 PM 19.74 67.532 0.274 7.34 48.16 8.29
8/21/2021 12:00:00 AM 19.69 67.442 0.275 7.35 51.82 8.28
8/21/2021 12:15:00 AM 19.64 67.352 0.276 7.34 50.58 8.29
8/21/2021 12:30:00 AM 19.58 67.244 0.277 7.35 49.98 8.28
8/21/2021 12:45:00 AM 19.53 67.154 0.28 7.36 50.87 8.29
8/21/2021 1:00:00 AM 19.47 67.046 0.281 7.36 50.78 8.29
8/21/2021 1:15:00 AM 19.41 66.938 0.282 7.38 48.97 8.28
8/21/2021 1:30:00 AM 19.36 66.848 0.283 7.37 49.49 8.32
8/21/2021 1:45:00 AM 19.3 66.74 0.282 7.37 48.26 8.32
8/21/2021 2:00:00 AM 19.24 66.632 0.285 7.37 46.11 8.33
8/21/2021 2:15:00 AM 19.19 66.542 0.285 7.37 47.22 8.33
8/21/2021 2:30:00 AM 19.14 66.452 0.286 7.32 47.96 8.3
8/21/2021 2:45:00 AM 19.08 66.344 0.288 7.33 51.08 8.34
8/21/2021 3:00:00 AM 19.03 66.254 0.288 7.33 48.65 8.34
8/21/2021 3:15:00 AM 18.98 66.164 0.29 7.37 51.32 8.34
8/21/2021 3:30:00 AM 18.93 66.074 0.292 7.37 48.57 8.36
8/21/2021 3:45:00 AM 18.89 66.002 0.292 7.37 49.28 8.37
8/21/2021 4:00:00 AM 18.84 65.912 0.294 7.38 49.57 8.36
8/21/2021 4:15:00 AM 18.79 65.82201 0.295 7.38 50.01 8.38
8/21/2021 4:30:00 AM 18.75 65.75 0.294 7.38 49.88 8.39
8/21/2021 4:45:00 AM 18.7 65.66 0.295 7.33 52.11 8.39
8/21/2021 5:00:00 AM 18.66 65.588 0.296 7.38 49.75 8.4
8/21/2021 5:15:00 AM 18.61 65.498 0.297 7.38 51.82 8.41
8/21/2021 5:30:00 AM 18.57 65.426 0.299 7.38 47.86 8.42
8/21/2021 5:45:00 AM 18.52 65.336 0.298 7.34 50.45 8.43
8/21/2021 6:00:00 AM 18.48 65.264 0.299 7.38 47.64 8.44
8/21/2021 6:15:00 AM 18.44 65.192 0.299 7.38 48.73 8.44
8/21/2021 6:30:00 AM 18.4 65.12 0.3 7.39 47.76 8.45
8/21/2021 6:45:00 AM 18.36 65.048 0.301 7.37 48.52 8.46
8/21/2021 7:00:00 AM 18.32 64.976 0.301 7.38 50.26 8.48
8/21/2021 7:15:00 AM 18.28 64.904 0.303 7.38 47.12 8.49
8/21/2021 7:30:00 AM 18.25 64.85 0.301 7.38 46.43 8.5
8/21/2021 7:45:00 AM 18.23 64.814 0.302 7.39 46.62 8.52
8/21/2021 8:00:00 AM 18.21 64.778 0.303 7.4 48.85 8.52
8/21/2021 8:15:00 AM 18.19 64.742 0.302 7.4 47.85 8.57
8/21/2021 8:30:00 AM 18.18 64.724 0.303 7.38 46.45 8.58
8/21/2021 8:45:00 AM 18.18 64.724 0.305 7.4 44.84 8.61
8/21/2021 9:00:00 AM 18.17 64.706 0.305 7.41 45.21 8.62
8/21/2021 9:15:00 AM 18.16 64.688 0.307 7.41 43.96 8.66
8/21/2021 9:30:00 AM 18.17 64.706 0.306 7.38 44.36 8.68
8/21/2021 9:45:00 AM 18.16 64.688 0.307 7.42 45.98 8.71
8/21/2021 10:00:00 AM 18.17 64.706 0.307 7.42 45.32 8.74
8/21/2021 10:15:00 AM 18.17 64.706 0.307 7.41 42.04 8.76
8/21/2021 10:30:00 AM 18.17 64.706 0.308 7.39 45.07 8.77
8/21/2021 10:45:00 AM 18.18 64.724 0.31 7.44 43.86 8.8
8/21/2021 11:00:00 AM 18.2 64.76 0.31 7.39 45.94 8.83
8/21/2021 11:15:00 AM 18.23 64.814 0.309 7.45 47.2 8.87
8/21/2021 11:30:00 AM 18.27 64.886 0.31 7.44 45.81 8.91
8/21/2021 11:45:00 AM 18.29 64.922 0.311 7.46 44.45 8.93
8/21/2021 12:00:00 PM 18.33 64.994 0.31 7.46 44.22 8.98
8/21/2021 12:15:00 PM 18.39 65.102 0.311 7.45 45.65 9.02
8/21/2021 12:30:00 PM 18.43 65.174 0.313 7.48 43.16 9.06
8/21/2021 12:45:00 PM 18.5 65.3 0.311 7.49 42.54 9.11
8/21/2021 1:00:00 PM 18.54 65.372 0.313 7.49 44.24 9.14
8/21/2021 1:15:00 PM 18.62 65.516 0.314 7.5 43.94 9.08
8/21/2021 1:30:00 PM 18.71 65.67799 0.315 7.51 44.26 9.25
8/21/2021 1:45:00 PM 18.78 65.804 0.315 7.48 44.54 9.29
8/21/2021 2:00:00 PM 18.85 65.93 0.317 7.53 43.84 9.32
8/21/2021 2:15:00 PM 18.92 66.056 0.317 7.52 44.14 9.33
8/21/2021 2:30:00 PM 19 66.2 0.318 7.54 43.12 9.36
8/21/2021 2:45:00 PM 19.08 66.344 0.317 7.52 42.13 9.38
8/21/2021 3:00:00 PM 19.14 66.452 0.318 7.51 42.77 9.37
8/21/2021 3:15:00 PM 19.23 66.614 0.318 7.56 43.84 9.39
8/21/2021 3:30:00 PM 19.32 66.776 0.32 7.55 42.94 9.41
8/21/2021 3:45:00 PM 19.43 66.974 0.321 7.52 43.19 9.41
8/21/2021 4:00:00 PM 19.54 67.172 0.32 7.57 41.13 9.4
8/21/2021 4:15:00 PM 19.6 67.28 0.322 7.57 42.93 9.39
8/21/2021 4:30:00 PM 19.66 67.388 0.322 7.56 41.57 9.39
8/21/2021 4:45:00 PM 19.71 67.478 0.323 7.58 40.96 9.36
8/21/2021 5:00:00 PM 19.75 67.55 0.323 7.57 40.26 9.32
8/21/2021 5:15:00 PM 19.78 67.604 0.324 7.56 42.27 9.3
8/21/2021 5:30:00 PM 19.82 67.676 0.325 7.54 42.78 9.26
8/21/2021 5:45:00 PM 19.86 67.748 0.325 7.54 43.1 9.23
8/21/2021 6:00:00 PM 19.89 67.802 0.325 7.57 42.91 9.18
8/21/2021 6:15:00 PM 19.93 67.874 0.325 7.56 41.2 9.13
8/21/2021 6:30:00 PM 19.95 67.91 0.326 7.53 43.27 9.09
8/21/2021 6:45:00 PM 19.95 67.91 0.327 7.56 42.45 9.04
8/21/2021 7:00:00 PM 19.96 67.92799 0.327 7.57 39.82 8.99
8/21/2021 7:15:00 PM 19.94 67.892 0.328 7.55 43.27 8.94
8/21/2021 7:30:00 PM 19.93 67.874 0.328 7.54 42.09 8.87
8/21/2021 7:45:00 PM 19.9 67.82 0.329 7.53 43.49 8.82
8/21/2021 8:00:00 PM 19.88 67.784 0.33 7.5 44.47 8.76
8/21/2021 8:15:00 PM 19.86 67.748 0.33 7.5 41.73 8.7
8/21/2021 8:30:00 PM 19.85 67.73 0.331 7.52 42.05 8.61
8/21/2021 8:45:00 PM 19.84 67.712 0.332 7.48 43.07 8.57
8/21/2021 9:00:00 PM 19.83 67.694 0.332 7.51 42.87 8.51
8/21/2021 9:15:00 PM 19.82 67.676 0.332 7.46 43.58 8.45
8/21/2021 9:30:00 PM 19.81 67.658 0.333 7.46 44.15 8.4
8/21/2021 9:45:00 PM 19.79 67.622 0.333 7.45 44.87 8.37
8/21/2021 10:00:00 PM 19.78 67.604 0.357 7.49 44.13 8.32
8/21/2021 10:15:00 PM 19.76 67.568 0.334 7.48 42.16 8.29
8/21/2021 10:30:00 PM 19.73 67.514 0.341 7.47 42.6 8.26
8/21/2021 10:45:00 PM 19.72 67.496 0.334 7.46 2140.96 8.25
8/21/2021 11:00:00 PM 19.7 67.46 0.343 7.46 71.75 8.25
8/21/2021 11:15:00 PM 19.67 67.406 0.341 7.45 51.83 8.23
8/21/2021 11:30:00 PM 19.64 67.352 0.34 7.47 52.29 8.22
8/21/2021 11:45:00 PM 19.6 67.28 0.342 7.47 49.45 8.2
8/22/2021 12:00:00 AM 19.57 67.226 0.342 7.46 45.13 8.2
8/22/2021 12:15:00 AM 19.53 67.154 0.343 7.45 45.55 8.19
8/22/2021 12:30:00 AM 19.49 67.082 0.344 7.46 44.14 8.19
8/22/2021 12:45:00 AM 19.45 67.01 0.344 7.45 40.81 8.18
8/22/2021 1:00:00 AM 19.41 66.938 0.346 7.45 43.22 8.19
8/22/2021 1:15:00 AM 19.37 66.866 0.346 7.44 42.8 8.18
8/22/2021 1:30:00 AM 19.32 66.776 0.346 7.46 41.52 8.18
8/22/2021 1:45:00 AM 19.28 66.704 0.347 7.46 41.3 8.18
8/22/2021 2:00:00 AM 19.23 66.614 0.348 7.44 39.74 8.18
8/22/2021 2:15:00 AM 19.18 66.524 0.349 7.43 40.94 8.2
8/22/2021 2:30:00 AM 19.14 66.452 0.35 7.45 39.94 8.19
8/22/2021 2:45:00 AM 19.09 66.362 0.35 7.44 41.12 8.2
8/22/2021 3:00:00 AM 19.04 66.272 0.351 7.43 39.48 8.22
8/22/2021 3:15:00 AM 19 66.2 0.353 7.44 38.41 8.22
8/22/2021 3:30:00 AM 18.95 66.11 0.353 7.45 41.54 8.22
8/22/2021 3:45:00 AM 18.9 66.02 0.354 7.45 39.94 8.24
8/22/2021 4:00:00 AM 18.85 65.93 0.354 7.45 40.43 8.24
8/22/2021 4:15:00 AM 18.81 65.858 0.356 7.45 38.2 8.26
8/22/2021 4:30:00 AM 18.76 65.768 0.356 7.45 38.4 8.26
8/22/2021 4:45:00 AM 18.72 65.696 0.357 7.45 38.5 8.26
8/22/2021 5:00:00 AM 18.67 65.606 0.359 7.45 40.84 8.28
8/22/2021 5:15:00 AM 18.63 65.534 0.359 7.45 38.55 8.29
8/22/2021 5:30:00 AM 18.59 65.462 0.36 7.45 38.77 8.29
8/22/2021 5:45:00 AM 18.55 65.39 0.36 7.45 38.35 8.28
8/22/2021 6:00:00 AM 18.51 65.318 0.361 7.45 38.69 8.31
8/22/2021 6:15:00 AM 18.47 65.246 0.363 7.46 38.86 8.31
8/22/2021 6:30:00 AM 18.43 65.174 0.363 7.46 38.9 8.32
8/22/2021 6:45:00 AM 18.39 65.102 0.364 7.46 38.91 8.34
8/22/2021 7:00:00 AM 18.36 65.048 0.365 7.46 38.11 8.35
8/22/2021 7:15:00 AM 18.32 64.976 0.365 7.46 37.41 8.38
8/22/2021 7:30:00 AM 18.3 64.94 0.365 7.46 37.44 8.4
8/22/2021 7:45:00 AM 18.27 64.886 0.366 7.47 37.74 8.41
8/22/2021 8:00:00 AM 18.24 64.832 0.366 7.47 37.77 8.44
8/22/2021 8:15:00 AM 18.22 64.796 0.366 7.47 38.06 8.46
8/22/2021 8:30:00 AM 18.19 64.742 0.367 7.47 36.68 8.48
8/22/2021 8:45:00 AM 18.18 64.724 0.367 7.48 36.15 8.54
8/22/2021 9:00:00 AM 18.16 64.688 0.368 7.48 36.53 8.59
8/22/2021 9:15:00 AM 18.16 64.688 0.369 7.49 144.97 8.66
8/22/2021 9:30:00 AM 18.17 64.706 0.369 7.5 41.84 8.68
8/22/2021 9:45:00 AM 18.17 64.706 0.37 7.51 39.43 8.76
8/22/2021 10:00:00 AM 18.18 64.724 0.369 7.51 44.55 8.8
8/22/2021 10:15:00 AM 18.18 64.724 0.37 7.52 43.37 8.88
8/22/2021 10:30:00 AM 18.2 64.76 0.371 7.53 40.11 8.96
8/22/2021 10:45:00 AM 18.26 64.868 0.371 7.54 39.29 9.07
8/22/2021 11:00:00 AM 18.35 65.03 0.371 7.56 39.61 9.15
8/22/2021 11:15:00 AM 18.43 65.174 0.371 7.57 43.46 9.22
8/22/2021 11:30:00 AM 18.48 65.264 0.373 7.57 44.42 9.27
8/22/2021 11:45:00 AM 18.52 65.336 0.373 7.58 69.69 9.34
8/22/2021 12:00:00 PM 18.56 65.408 0.374 7.59 209.42 9.36
8/22/2021 12:15:00 PM 18.6 65.48 0.373 7.6 43.44 9.41
8/22/2021 12:30:00 PM 18.64 65.552 0.374 7.6 40.76 9.41
8/22/2021 12:45:00 PM 18.69 65.642 0.375 7.61 40 9.46
8/22/2021 1:00:00 PM 18.73 65.714 0.375 7.61 39.79 9.44
8/22/2021 1:15:00 PM 18.76 65.768 0.375 7.61 42.2 9.4
8/22/2021 1:30:00 PM 18.8 65.84 0.376 7.62 38.66 9.42
8/22/2021 1:45:00 PM 18.85 65.93 0.377 7.62 42.47 9.4
8/22/2021 2:00:00 PM 18.9 66.02 0.377 7.62 38.97 9.44
8/22/2021 2:15:00 PM 18.93 66.074 0.378 7.63 39.97 9.43
8/22/2021 2:30:00 PM 18.95 66.11 0.378 7.63 37.66 9.47
8/22/2021 2:45:00 PM 18.97 66.146 0.378 7.63 36.57 9.41
8/22/2021 3:00:00 PM 19 66.2 0.378 7.64 41.7 9.48
8/22/2021 3:15:00 PM 19.02 66.236 0.379 7.64 37.46 9.47
8/22/2021 3:30:00 PM 19.05 66.29 0.38 7.62 37.81 9.41
8/22/2021 3:45:00 PM 19.12 66.416 0.38 7.65 38.88 9.5
8/22/2021 4:00:00 PM 19.15 66.47 0.38 7.61 37.08 9.49
8/22/2021 4:15:00 PM 19.19 66.542 0.379 7.65 36.89 9.48
8/22/2021 4:30:00 PM 19.26 66.668 0.381 7.66 37.08 9.52
8/22/2021 4:45:00 PM 19.33 66.794 0.381 7.66 40.73 9.48
8/22/2021 5:00:00 PM 19.39 66.902 0.381 7.67 43.34 9.5
8/22/2021 5:15:00 PM 19.45 67.01 0.382 7.67 36.66 9.48
8/22/2021 5:30:00 PM 19.49 67.082 0.382 7.67 36.99 9.44
8/22/2021 5:45:00 PM 19.51 67.118 0.382 7.66 36.36 9.37
8/22/2021 6:00:00 PM 19.53 67.154 0.382 7.64 37.7 9.33
8/22/2021 6:15:00 PM 19.54 67.172 0.381 7.66 36.77 9.25
8/22/2021 6:30:00 PM 19.56 67.208 0.379 7.65 43.6 9.16
8/22/2021 6:45:00 PM 19.54 67.172 0.38 7.63 40.46 9.1
8/22/2021 7:00:00 PM 19.53 67.154 0.38 7.6 39.91 9.03
8/22/2021 7:15:00 PM 19.5 67.1 0.381 7.59 38.69 8.95
8/22/2021 7:30:00 PM 19.48 67.064 0.381 7.6 39.42 8.85
8/22/2021 7:45:00 PM 19.47 67.046 0.381 7.59 42.84 8.78
8/22/2021 8:00:00 PM 19.45 67.01 0.382 7.57 38.58 8.7
8/22/2021 8:15:00 PM 19.44 66.992 0.383 7.56 38.98 8.64
8/22/2021 8:30:00 PM 19.44 66.992 0.384 7.54 41.59 8.58
8/22/2021 8:45:00 PM 19.43 66.974 0.384 7.54 38.35 8.5
8/22/2021 9:00:00 PM 19.43 66.974 0.385 7.53 41.43 8.42
8/22/2021 9:15:00 PM 19.41 66.938 0.385 7.53 39.72 8.41
8/22/2021 9:30:00 PM 19.4 66.92 0.385 7.51 38.24 8.31
8/22/2021 9:45:00 PM 19.37 66.866 0.386 7.51 38.74 8.27
8/22/2021 10:00:00 PM 19.35 66.83 0.387 7.54 38.78 8.26
8/22/2021 10:15:00 PM 19.33 66.794 0.387 7.53 38.41 8.26
8/22/2021 10:30:00 PM 19.31 66.758 0.388 7.54 38.83 8.2
8/22/2021 10:45:00 PM 19.28 66.704 0.388 7.5 39.59 8.21
8/22/2021 11:00:00 PM 19.25 66.65 0.389 7.52 38.85 8.17
8/22/2021 11:15:00 PM 19.22 66.596 0.389 7.5 39.6 8.21
8/22/2021 11:30:00 PM 19.19 66.542 0.389 7.52 38.23 8.11
8/22/2021 11:45:00 PM 19.15 66.47 0.39 7.51 38.7 8.2
8/23/2021 12:00:00 AM 19.11 66.398 0.391 7.51 41.78 8.19
8/23/2021 12:15:00 AM 19.07 66.326 0.391 7.48 44.76 8.13
8/23/2021 12:30:00 AM 19.03 66.254 0.392 7.52 38.44 8.1
8/23/2021 12:45:00 AM 19 66.2 0.393 7.49 39.31 8.17
8/23/2021 1:00:00 AM 18.97 66.146 0.393 7.5 38.67 8.16
8/23/2021 1:15:00 AM 18.95 66.11 0.392 7.48 40.14 8.18
8/23/2021 1:30:00 AM 18.96 66.128 0.393 7.52 48.4 8.2
8/23/2021 1:45:00 AM 18.92 66.056 0.392 7.5 45.53 8.19
8/23/2021 2:00:00 AM 18.9 66.02 0.392 7.5 43.38 8.18
8/23/2021 2:15:00 AM 18.89 66.002 0.392 7.48 46.51 8.12
8/23/2021 2:30:00 AM 18.87 65.966 0.391 7.5 47.79 8.15
8/23/2021 2:45:00 AM 18.85 65.93 0.391 7.47 49.27 8.16
8/23/2021 3:00:00 AM 18.83 65.894 0.391 7.5 48.94 8.15
8/23/2021 3:15:00 AM 18.81 65.858 0.39 7.5 47.97 8.15
8/23/2021 3:30:00 AM 18.79 65.82201 0.389 7.47 51.7 8.17
8/23/2021 3:45:00 AM 18.78 65.804 0.388 7.5 49.71 8.17
8/23/2021 4:00:00 AM 18.75 65.75 0.387 7.49 48.25 8.17
8/23/2021 4:15:00 AM 18.72 65.696 0.387 7.5 48.74 8.19
8/23/2021 4:30:00 AM 18.68 65.624 0.388 7.51 49.5 8.17
8/23/2021 4:45:00 AM 18.65 65.57 0.387 7.51 54.44 8.19
8/23/2021 5:00:00 AM 18.62 65.516 0.385 7.47 50.75 8.19
8/23/2021 5:15:00 AM 18.6 65.48 0.383 7.5 54.21 8.21
8/23/2021 5:30:00 AM 18.58 65.444 0.381 7.51 57.18 8.25
8/23/2021 5:45:00 AM 18.55 65.39 0.379 7.51 57.44 8.28
8/23/2021 6:00:00 AM 18.53 65.354 0.375 7.51 56.9 8.28
8/23/2021 6:15:00 AM 18.55 65.39 0.367 7.5 61.3 8.3
8/23/2021 6:30:00 AM 18.61 65.498 0.355 7.5 62.05 8.34
8/23/2021 6:45:00 AM 18.64 65.552 0.346 7.54 75.17 8.35
8/23/2021 7:00:00 AM 18.65 65.57 0.327 7.53 78.54 8.37
8/23/2021 7:15:00 AM 18.63 65.534 0.315 7.5 88.61 8.44
8/23/2021 7:30:00 AM 18.58 65.444 0.311 7.52 98.24 8.46
8/23/2021 7:45:00 AM 18.55 65.39 0.307 7.51 81.26 8.44
8/23/2021 8:00:00 AM 18.63 65.534 0.291 7.5 87.64 8.43
8/23/2021 8:15:00 AM 18.76 65.768 0.265 7.48 95.74 8.45
8/23/2021 8:30:00 AM 18.83 65.894 0.241 7.45 93.13 8.5
8/23/2021 8:45:00 AM 18.83 65.894 0.225 7.43 80.25 8.56
8/23/2021 9:00:00 AM 18.86 65.948 0.215 7.42 92.76 8.56
8/23/2021 9:15:00 AM 18.93 66.074 0.207 7.4 96.84 8.56
8/23/2021 9:30:00 AM 19.01 66.218 0.2 7.38 85.41 8.56
8/23/2021 9:45:00 AM 19.08 66.344 0.197 7.37 103.1 8.56
8/23/2021 10:00:00 AM 19.13 66.434 0.197 7.33 86.47 8.55
8/23/2021 10:15:00 AM 19.18 66.524 0.197 7.35 90.31 8.55
8/23/2021 10:30:00 AM 19.21 66.578 0.197 7.35 89.17 8.53
8/23/2021 10:45:00 AM 19.25 66.65 0.198 7.34 90.45 8.54
8/23/2021 11:00:00 AM 19.28 66.704 0.2 7.35 86.34 8.53
8/23/2021 11:15:00 AM 19.32 66.776 0.202 7.3 81.79 8.53
8/23/2021 11:30:00 AM 19.35 66.83 0.205 7.35 84.81 8.54
8/23/2021 11:45:00 AM 19.39 66.902 0.207 7.36 80.45 8.54
8/23/2021 12:00:00 PM 19.48 67.064 0.211 7.33 76.32 8.59
8/23/2021 12:15:00 PM 19.55 67.19 0.214 7.38 78.41 8.61
8/23/2021 12:30:00 PM 19.66 67.388 0.219 7.37 73.57 8.64
8/23/2021 12:45:00 PM 19.73 67.514 0.223 7.39 70.97 8.68
8/23/2021 1:00:00 PM 19.83 67.694 0.228 7.37 66.5 8.72
8/23/2021 1:15:00 PM 19.88 67.784 0.234 7.38 64.62 8.77
8/23/2021 1:30:00 PM 19.99 67.982 0.239 7.43 64.07 8.82
8/23/2021 1:45:00 PM 20.02 68.036 0.245 7.43 59.74 8.84
8/23/2021 2:00:00 PM 20.07 68.126 0.249 7.45 61.59 8.87
8/23/2021 2:15:00 PM 20.16 68.288 0.253 7.47 58.28 8.92
8/23/2021 2:30:00 PM 20.2 68.36 0.257 7.47 58.97 8.92
8/23/2021 2:45:00 PM 20.27 68.486 0.26 7.48 57.44 8.96
8/23/2021 3:00:00 PM 20.26 68.468 0.262 7.48 56.02 8.91
8/23/2021 3:15:00 PM 20.27 68.486 0.265 7.48 60.13 8.86
8/23/2021 3:30:00 PM 20.29 68.522 0.267 7.51 54.94 8.84
8/23/2021 3:45:00 PM 20.3 68.54 0.269 7.49 55.11 8.86
8/23/2021 4:00:00 PM 20.32 68.576 0.272 7.5 52.6 8.85
8/23/2021 4:15:00 PM 20.32 68.576 0.274 7.5 56.02 8.8
8/23/2021 4:30:00 PM 20.33 68.594 0.275 7.5 55.13 8.79
8/23/2021 4:45:00 PM 20.35 68.63 0.278 7.51 53.99 8.8
8/23/2021 5:00:00 PM 20.38 68.684 0.279 7.51 54.29 8.77
8/23/2021 5:15:00 PM 20.42 68.756 0.282 7.48 52.27 8.76
8/23/2021 5:30:00 PM 20.43 68.774 0.283 7.52 51.69 8.75
8/23/2021 5:45:00 PM 20.42 68.756 0.285 7.51 51.76 8.74
8/23/2021 6:00:00 PM 20.42 68.756 0.286 7.52 53.31 8.73
8/23/2021 6:15:00 PM 20.4 68.72 0.288 7.52 49.29 8.7
8/23/2021 6:30:00 PM 20.38 68.684 0.289 7.52 48.87 8.68
8/23/2021 6:45:00 PM 20.36 68.648 0.291 7.52 49.57 8.68
8/23/2021 7:00:00 PM 20.34 68.612 0.292 7.5 48.4 8.64
8/23/2021 7:15:00 PM 20.31 68.558 0.293 7.52 49.33 8.62
8/23/2021 7:30:00 PM 20.28 68.504 0.294 7.51 49.16 8.59
8/23/2021 7:45:00 PM 20.26 68.468 0.296 7.48 47.05 8.55
8/23/2021 8:00:00 PM 20.24 68.432 0.296 7.47 48.71 8.54
8/23/2021 8:15:00 PM 20.23 68.414 0.296 7.5 47.19 8.46
8/23/2021 8:30:00 PM 20.23 68.414 0.296 7.49 52.23 8.41
8/23/2021 8:45:00 PM 20.23 68.414 0.299 7.49 48.37 8.36
8/23/2021 9:00:00 PM 20.23 68.414 0.3 7.49 48.2 8.36
8/23/2021 9:15:00 PM 20.23 68.414 0.302 7.49 47.67 8.24
8/23/2021 9:30:00 PM 20.23 68.414 0.303 7.49 46.48 8.32
8/23/2021 9:45:00 PM 20.22 68.396 0.306 7.49 49.99 8.3
8/23/2021 10:00:00 PM 20.2 68.36 0.308 7.48 46.2 8.26
8/23/2021 10:15:00 PM 20.18 68.324 0.31 7.45 46.01 8.24
8/23/2021 10:30:00 PM 20.15 68.27 0.311 7.47 46.65 8.22
8/23/2021 10:45:00 PM 20.11 68.198 0.313 7.46 46.76 8.21
8/23/2021 11:00:00 PM 20.07 68.126 0.314 7.47 46.63 8.19
8/23/2021 11:15:00 PM 20.03 68.054 0.314 7.46 48.24 8.18
8/23/2021 11:30:00 PM 19.99 67.982 0.315 7.46 46.15 8.17
8/23/2021 11:45:00 PM 19.94 67.892 0.316 7.45 45 8.11
8/24/2021 12:00:00 AM 19.9 67.82 0.317 7.45 45.84 8.16
8/24/2021 12:15:00 AM 19.86 67.748 0.317 7.47 47.67 8.19
8/24/2021 12:30:00 AM 19.82 67.676 0.318 7.45 49.19 8.16
8/24/2021 12:45:00 AM 19.78 67.604 0.318 7.47 45.91 8.13
8/24/2021 1:00:00 AM 19.74 67.532 0.32 7.47 46.47 8.2
8/24/2021 1:15:00 AM 19.7 67.46 0.321 7.47 47.67 8.12
8/24/2021 1:30:00 AM 19.67 67.406 0.322 7.48 45.16 8.17
8/24/2021 1:45:00 AM 19.63 67.334 0.322 7.45 47.21 8.17
8/24/2021 2:00:00 AM 19.58 67.244 0.325 7.47 46.28 8.19
8/24/2021 2:15:00 AM 19.54 67.172 0.325 7.47 46.53 8.18
8/24/2021 2:30:00 AM 19.5 67.1 0.325 7.47 43.25 8.19
8/24/2021 2:45:00 AM 19.45 67.01 0.326 7.42 56.19 8.2
8/24/2021 3:00:00 AM 19.4 66.92 0.328 7.47 50.66 8.21
8/24/2021 3:15:00 AM 19.34 66.812 0.329 7.47 46.82 8.24
8/24/2021 3:30:00 AM 19.29 66.722 0.329 7.48 48.49 8.25
8/24/2021 3:45:00 AM 19.23 66.614 0.331 7.47 45.67 8.26
8/24/2021 4:00:00 AM 19.17 66.506 0.33 7.46 58.29 8.22
8/24/2021 4:15:00 AM 19.11 66.398 0.332 7.47 46.32 8.28
8/24/2021 4:30:00 AM 19.06 66.308 0.334 7.47 46.28 8.29
8/24/2021 4:45:00 AM 19 66.2 0.336 7.48 46.7 8.28
8/24/2021 5:00:00 AM 18.94 66.092 0.336 7.48 45.45 8.3
8/24/2021 5:15:00 AM 18.89 66.002 0.337 7.43 46.89 8.31
8/24/2021 5:30:00 AM 18.84 65.912 0.338 7.43 43.98 8.3
8/24/2021 5:45:00 AM 18.78 65.804 0.339 7.46 44.96 8.32
8/24/2021 6:00:00 AM 18.73 65.714 0.339 7.47 46.4 8.34
8/24/2021 6:15:00 AM 18.68 65.624 0.34 7.5 45.45 8.34
8/24/2021 6:30:00 AM 18.63 65.534 0.341 7.49 50.96 8.36
8/24/2021 6:45:00 AM 18.58 65.444 0.358 7.48 46.62 8.37
8/24/2021 7:00:00 AM 18.54 65.372 0.349 7.48 44.68 8.39
8/24/2021 7:15:00 AM 18.5 65.3 0.348 7.48 44.64 8.4
8/24/2021 7:30:00 AM 18.46 65.228 0.348 7.5 46.25 8.41
8/24/2021 7:45:00 AM 18.43 65.174 0.349 7.49 43.17 8.44
8/24/2021 8:00:00 AM 18.39 65.102 0.351 7.49 43.73 8.47
8/24/2021 8:15:00 AM 18.36 65.048 0.35 7.5 44.83 8.5
8/24/2021 8:30:00 AM 18.34 65.012 0.351 7.5 42.91 8.54
8/24/2021 8:45:00 AM 18.3 64.94 0.351 7.51 42.45 8.57
8/24/2021 9:00:00 AM 18.28 64.904 0.352 7.51 41.7 8.6
8/24/2021 9:15:00 AM 18.26 64.868 0.353 7.51 42.46 8.64
8/24/2021 9:30:00 AM 18.25 64.85 0.353 7.51 43.86 8.68
8/24/2021 9:45:00 AM 18.26 64.868 0.353 7.52 40.66 8.74
8/24/2021 10:00:00 AM 18.27 64.886 0.354 7.53 39.62 8.8
8/24/2021 10:15:00 AM 18.3 64.94 0.355 7.51 40.39 8.86
8/24/2021 10:30:00 AM 18.35 65.03 0.355 7.52 42.54 8.96
8/24/2021 10:45:00 AM 18.41 65.138 0.355 7.53 39.9 9.03
8/24/2021 11:00:00 AM 18.49 65.282 0.356 7.58 39.65 9.1
8/24/2021 11:15:00 AM 18.59 65.462 0.356 7.54 39.62 9.19
8/24/2021 11:30:00 AM 18.7 65.66 0.357 7.58 38.88 9.28
8/24/2021 11:45:00 AM 18.82 65.876 0.357 7.61 46.45 9.37
8/24/2021 12:00:00 PM 18.95 66.11 0.358 7.63 37.71 9.45
8/24/2021 12:15:00 PM 19.1 66.38 0.358 7.64 39.06 9.51
8/24/2021 12:30:00 PM 19.25 66.65 0.359 7.64 38.75 9.57
8/24/2021 12:45:00 PM 19.42 66.956 0.36 7.66 38.76 9.66
8/24/2021 1:00:00 PM 19.59 67.262 0.36 7.67 38.02 9.71
8/24/2021 1:15:00 PM 19.77 67.586 0.36 7.65 38.38 9.77
8/24/2021 1:30:00 PM 19.94 67.892 0.362 7.67 38.41 9.83
8/24/2021 1:45:00 PM 20.12 68.216 0.362 7.7 39.97 9.86
8/24/2021 2:00:00 PM 20.29 68.522 0.362 7.73 50.22 9.91
8/24/2021 2:15:00 PM 20.45 68.81 0.363 7.7 75.35 9.95
8/24/2021 2:30:00 PM 20.59 69.062 0.364 7.7 71.85 9.95
8/24/2021 2:45:00 PM 20.73 69.314 0.365 7.75 53.84 9.95
8/24/2021 3:00:00 PM 20.84 69.512 0.365 7.75 47.62 9.94
8/24/2021 3:15:00 PM 20.96 69.728 0.365 7.75 77.24 9.94
8/24/2021 3:30:00 PM 21.05 69.89 0.365 7.76 45.29 9.92
8/24/2021 3:45:00 PM 21.14 70.052 0.366 7.76 44.96 9.9
8/24/2021 4:00:00 PM 21.2 70.16 0.367 7.74 162.7 9.85
8/24/2021 4:15:00 PM 21.26 70.268 0.366 7.76 64.25 9.82
8/24/2021 4:30:00 PM 21.3 70.34 0.367 7.76 50.39 9.77
8/24/2021 4:45:00 PM 21.32 70.376 0.368 7.73 57.06 9.71
8/24/2021 5:00:00 PM 21.34 70.412 0.369 7.75 46.03 9.64
8/24/2021 5:15:00 PM 21.34 70.412 0.369 7.75 44.86 9.57
8/24/2021 5:30:00 PM 21.34 70.412 0.37 7.73 41.73 9.49
8/24/2021 5:45:00 PM 21.34 70.412 0.37 7.73 41.51 9.41
8/24/2021 6:00:00 PM 21.33 70.394 0.37 7.7 41.41 9.33
8/24/2021 6:15:00 PM 21.32 70.376 0.371 7.69 41.97 9.25
8/24/2021 6:30:00 PM 21.3 70.34 0.371 7.68 41.57 9.16
8/24/2021 6:45:00 PM 21.29 70.32201 0.372 7.7 42.13 9.05
8/24/2021 7:00:00 PM 21.26 70.268 0.372 7.69 46.09 8.98
8/24/2021 7:15:00 PM 21.24 70.232 0.373 7.69 41.56 8.9
8/24/2021 7:30:00 PM 21.2 70.16 0.374 7.69 41.17 8.81
8/24/2021 7:45:00 PM 21.16 70.088 0.374 7.63 40.82 8.72
8/24/2021 8:00:00 PM 21.13 70.034 0.375 7.62 42.55 8.63
8/24/2021 8:15:00 PM 21.1 69.98 0.376 7.64 42.08 8.56
8/24/2021 8:30:00 PM 21.06 69.908 0.376 7.63 41.46 8.48
8/24/2021 8:45:00 PM 21.04 69.872 0.377 7.63 40.75 8.41
8/24/2021 9:00:00 PM 21.01 69.818 0.377 7.62 41.85 8.34
8/24/2021 9:15:00 PM 20.98 69.764 0.378 7.61 40.67 8.28
8/24/2021 9:30:00 PM 20.95 69.71 0.379 7.58 41.37 8.23
8/24/2021 9:45:00 PM 20.92 69.656 0.379 7.59 41.85 8.18
8/24/2021 10:00:00 PM 20.88 69.584 0.38 7.59 42.91 8.12
8/24/2021 10:15:00 PM 20.84 69.512 0.381 7.58 43.7 8.08
8/24/2021 10:30:00 PM 20.8 69.44 0.382 7.55 41.15 8.06
8/24/2021 10:45:00 PM 20.75 69.35 0.383 7.57 44.29 8.02
8/24/2021 11:00:00 PM 20.7 69.26 0.384 7.56 40.81 8
8/24/2021 11:15:00 PM 20.65 69.17 0.384 7.53 43.85 7.97
8/24/2021 11:30:00 PM 20.6 69.08 0.385 7.53 46.99 7.96
8/24/2021 11:45:00 PM 20.54 68.972 0.386 7.52 39.49 7.94
8/25/2021 12:00:00 AM 20.48 68.864 0.386 7.51 39.49 7.92
8/25/2021 12:15:00 AM 20.42 68.756 0.387 7.51 39.56 7.93
8/25/2021 12:30:00 AM 20.36 68.648 0.389 7.54 40.69 7.92
8/25/2021 12:45:00 AM 20.3 68.54 0.389 7.55 39.57 7.93
8/25/2021 1:00:00 AM 20.23 68.414 0.391 7.54 43.27 7.91
8/25/2021 1:15:00 AM 20.17 68.306 0.391 7.52 40.09 7.92
8/25/2021 1:30:00 AM 20.11 68.198 0.393 7.53 48.44 7.93
8/25/2021 1:45:00 AM 20.05 68.09 0.393 7.53 43.73 7.93
8/25/2021 2:00:00 AM 20 68 0.395 7.53 44.68 7.93
8/25/2021 2:15:00 AM 19.95 67.91 0.396 7.53 40.14 7.91
8/25/2021 2:30:00 AM 19.9 67.82 0.397 7.53 43.92 7.93
8/25/2021 2:45:00 AM 19.85 67.73 0.398 7.51 39.54 7.88
8/25/2021 3:00:00 AM 19.8 67.64 0.399 7.53 42.05 7.94
8/25/2021 3:15:00 AM 19.76 67.568 0.4 7.53 43.73 7.94
8/25/2021 3:30:00 AM 19.72 67.496 0.401 7.5 40.39 7.95
8/25/2021 3:45:00 AM 19.67 67.406 0.402 7.53 39.76 7.9
8/25/2021 4:00:00 AM 19.61 67.298 0.404 7.55 41.25 7.97
8/25/2021 4:15:00 AM 19.56 67.208 0.405 7.51 40 7.98
8/25/2021 4:30:00 AM 19.5 67.1 0.406 7.53 40.62 7.91
8/25/2021 4:45:00 AM 19.45 67.01 0.407 7.53 93.79 8
8/25/2021 5:00:00 AM 19.41 66.938 0.408 7.54 42.47 8
8/25/2021 5:15:00 AM 19.36 66.848 0.409 7.55 44.12 8.01
8/25/2021 5:30:00 AM 19.31 66.758 0.41 7.53 39.34 8.01
8/25/2021 5:45:00 AM 19.25 66.65 0.412 7.54 42.69 7.84
8/25/2021 6:00:00 AM 19.2 66.56 0.412 7.54 41.58 8.04
8/25/2021 6:15:00 AM 19.15 66.47 0.413 7.53 42.56 8.05
8/25/2021 6:30:00 AM 19.1 66.38 0.415 7.54 44.77 8.05
8/25/2021 6:45:00 AM 19.05 66.29 0.416 7.51 42.92 8.08
8/25/2021 7:00:00 AM 19 66.2 0.417 7.55 46.27 8.07
8/25/2021 7:15:00 AM 18.95 66.11 0.418 7.54 42.34 8.13
8/25/2021 7:30:00 AM 18.9 66.02 0.419 7.53 110.97 7.99
8/25/2021 7:45:00 AM 18.87 65.966 0.42 7.56 47.54 8.19
8/25/2021 8:00:00 AM 18.83 65.894 0.421 7.56 46.66 8.19
8/25/2021 8:15:00 AM 18.8 65.84 0.421 7.56 45.75 8.27
8/25/2021 8:30:00 AM 18.77 65.786 0.422 7.56 43.87 8.31
8/25/2021 8:45:00 AM 18.75 65.75 0.423 7.56 57.74 8.33
8/25/2021 9:00:00 AM 18.74 65.732 0.424 7.58 40.45 8.45
8/25/2021 9:15:00 AM 18.72 65.696 0.424 7.58 39.16 8.52
8/25/2021 9:30:00 AM 18.7 65.66 0.425 7.56 62.19 8.59
8/25/2021 9:45:00 AM 18.69 65.642 0.424 7.6 43.14 8.66
8/25/2021 10:00:00 AM 18.7 65.66 0.424 7.61 48.59 8.71
8/25/2021 10:15:00 AM 18.73 65.714 0.424 7.61 43.26 8.88
8/25/2021 10:30:00 AM 18.76 65.768 0.425 7.64 38.97 8.98
8/25/2021 10:45:00 AM 18.8 65.84 0.425 7.63 56.21 9.07
8/25/2021 11:00:00 AM 18.85 65.93 0.425 7.65 45.31 9.05
8/25/2021 11:15:00 AM 18.91 66.038 0.426 7.66 42.87 9.26
8/25/2021 11:30:00 AM 19 66.2 0.428 7.64 42.62 9.45
8/25/2021 11:45:00 AM 19.09 66.362 0.428 7.69 40.03 9.43
8/25/2021 12:00:00 PM 19.2 66.56 0.429 7.7 52.77 9.67
8/25/2021 12:15:00 PM 19.32 66.776 0.43 7.73 48.07 9.75
8/25/2021 12:30:00 PM 19.45 67.01 0.431 7.74 42.94 9.9
8/25/2021 12:45:00 PM 19.52 67.136 0.431 7.72 128.11 9.92
8/25/2021 1:00:00 PM 19.72 67.496 0.432 7.76 48.47 10.07
8/25/2021 1:15:00 PM 19.82 67.676 0.433 7.78 57.83 10.14
8/25/2021 1:30:00 PM 19.95 67.91 0.433 7.78 185.31 10.2
8/25/2021 1:45:00 PM 20.07 68.126 0.433 7.8 50.83 10.26
8/25/2021 2:00:00 PM 20.2 68.36 0.434 7.81 55.54 10.3
8/25/2021 2:15:00 PM 20.32 68.576 0.434 7.82 47.54 10.33
8/25/2021 2:30:00 PM 20.56 69.008 0.435 7.84 86.72 10.41
8/25/2021 2:45:00 PM 20.74 69.332 0.435 7.84 50.81 10.42
8/25/2021 3:00:00 PM 20.88 69.584 0.436 7.85 42.13 10.46
8/25/2021 3:15:00 PM 21.03 69.854 0.436 7.85 60.61 10.44
8/25/2021 3:30:00 PM 21.16 70.088 0.436 7.84 52.91 10.43
8/25/2021 3:45:00 PM 21.24 70.232 0.437 7.88 43.49 10.43
8/25/2021 4:00:00 PM 21.33 70.394 0.436 7.84 48.33 10.37
8/25/2021 4:15:00 PM 21.41 70.538 0.437 7.88 40.32 10.36
8/25/2021 4:30:00 PM 21.48 70.664 0.437 7.89 41.81 10.29
8/25/2021 4:45:00 PM 21.54 70.772 0.438 7.88 38.37 10.25
8/25/2021 5:00:00 PM 21.57 70.826 0.438 7.88 37.87 10.17
8/25/2021 5:15:00 PM 21.57 70.826 0.439 7.87 40 10.07
8/25/2021 5:30:00 PM 21.55 70.79 0.439 7.86 36.48 9.97
8/25/2021 5:45:00 PM 21.54 70.772 0.439 7.86 37.9 9.89
8/25/2021 6:00:00 PM 21.52 70.736 0.44 7.86 39.19 9.78
8/25/2021 6:15:00 PM 21.49 70.682 0.44 7.84 36.1 9.67
8/25/2021 6:30:00 PM 21.46 70.628 0.44 7.8 36.49 9.56
8/25/2021 6:45:00 PM 21.42 70.556 0.44 7.81 42.29 9.43
8/25/2021 7:00:00 PM 21.37 70.466 0.44 7.8 37.45 9.32
8/25/2021 7:15:00 PM 21.33 70.394 0.44 7.79 41.3 9.21
8/25/2021 7:30:00 PM 21.29 70.32201 0.44 7.77 49.12 9.09
8/25/2021 7:45:00 PM 21.25 70.25 0.44 7.76 40.93 8.98
8/25/2021 8:00:00 PM 21.2 70.16 0.44 7.71 41.93 8.64
8/25/2021 8:15:00 PM 21.16 70.088 0.441 7.74 39.6 8.73
8/25/2021 8:30:00 PM 21.11 69.998 0.441 7.72 38.8 8.58
8/25/2021 8:45:00 PM 21.06 69.908 0.441 7.71 40.1 8.55
8/25/2021 9:00:00 PM 21.02 69.836 0.441 7.7 40.08 8.41
8/25/2021 9:15:00 PM 20.98 69.764 0.441 7.69 40.43 8.37
8/25/2021 9:30:00 PM 20.93 69.674 0.442 7.68 39.02 8.17
8/25/2021 9:45:00 PM 20.89 69.602 0.442 7.67 38.4 8.25
8/25/2021 10:00:00 PM 20.86 69.548 0.442 7.66 40.47 8.15
8/25/2021 10:15:00 PM 20.83 69.494 0.442 7.65 40.57 8.11
8/25/2021 10:30:00 PM 20.79 69.422 0.443 7.64 42.78 8.06
8/25/2021 10:45:00 PM 20.76 69.368 0.443 7.61 37.11 7.94
8/25/2021 11:00:00 PM 20.73 69.314 0.443 7.62 39.74 7.86
8/25/2021 11:15:00 PM 20.69 69.242 0.444 7.62 37.98 7.89
8/25/2021 11:30:00 PM 20.66 69.188 0.444 7.58 39.86 7.86
8/25/2021 11:45:00 PM 20.63 69.134 0.444 7.57 37.28 7.79
8/26/2021 12:00:00 AM 20.6 69.08 0.445 7.57 36.93 7.79
8/26/2021 12:15:00 AM 20.56 69.008 0.445 7.56 37.49 7.76
8/26/2021 12:30:00 AM 20.53 68.954 0.445 7.59 36.51 7.7
8/26/2021 12:45:00 AM 20.49 68.882 0.446 7.57 37.46 7.72
8/26/2021 1:00:00 AM 20.45 68.81 0.446 7.58 40.69 7.73
8/26/2021 1:15:00 AM 20.41 68.738 0.447 7.58 39.91 7.66
8/26/2021 1:30:00 AM 20.37 68.666 0.447 7.58 36.9 7.7
8/26/2021 1:45:00 AM 20.32 68.576 0.448 7.57 36.07 7.7
8/26/2021 2:00:00 AM 20.28 68.504 0.448 7.57 36.58 7.69
8/26/2021 2:15:00 AM 20.23 68.414 0.449 7.54 38.86 7.71
8/26/2021 2:30:00 AM 20.19 68.342 0.45 7.57 39.29 7.69
8/26/2021 2:45:00 AM 20.14 68.252 0.451 7.57 37.1 7.66
8/26/2021 3:00:00 AM 20.09 68.162 0.451 7.57 36.56 7.7
8/26/2021 3:15:00 AM 20.04 68.07201 0.452 7.57 39.5 7.62
8/26/2021 3:30:00 AM 20 68 0.453 7.53 36.86 7.69
8/26/2021 3:45:00 AM 19.95 67.91 0.454 7.53 38.98 7.72
8/26/2021 4:00:00 AM 19.9 67.82 0.455 7.56 36.81 7.72
8/26/2021 4:15:00 AM 19.85 67.73 0.456 7.57 36.32 7.74
8/26/2021 4:30:00 AM 19.8 67.64 0.457 7.57 37.77 7.68
8/26/2021 4:45:00 AM 19.76 67.568 0.457 7.56 36.89 7.74
8/26/2021 5:00:00 AM 19.71 67.478 0.458 7.56 41.07 7.76
8/26/2021 5:15:00 AM 19.67 67.406 0.458 7.56 37.44 7.74
8/26/2021 5:30:00 AM 19.61 67.298 0.459 7.56 37.48 7.74
8/26/2021 5:45:00 AM 19.57 67.226 0.46 7.56 36.06 7.74
8/26/2021 6:00:00 AM 19.52 67.136 0.461 7.56 36.24 7.76
8/26/2021 6:15:00 AM 19.47 67.046 0.461 7.57 36.47 7.78
8/26/2021 6:30:00 AM 19.43 66.974 0.462 7.57 120.23 7.82
8/26/2021 6:45:00 AM 19.38 66.884 0.463 7.56 38.69 7.82
8/26/2021 7:00:00 AM 19.34 66.812 0.463 7.56 53.03 7.82
8/26/2021 7:15:00 AM 19.3 66.74 0.464 7.56 39.21 7.86
8/26/2021 7:30:00 AM 19.26 66.668 0.464 7.54 41.05 7.87
8/26/2021 7:45:00 AM 19.22 66.596 0.466 7.57 41.26 7.9
8/26/2021 8:00:00 AM 19.2 66.56 0.466 7.57 38.03 7.93
8/26/2021 8:15:00 AM 19.17 66.506 0.467 7.57 41.64 7.97
8/26/2021 8:30:00 AM 19.15 66.47 0.467 7.54 37.86 8.01
8/26/2021 8:45:00 AM 19.13 66.434 0.469 7.58 40.22 8.07
8/26/2021 9:00:00 AM 19.12 66.416 0.47 7.59 96.23 8.14
8/26/2021 9:15:00 AM 19.12 66.416 0.471 7.59 40.83 8.2
8/26/2021 9:30:00 AM 19.13 66.434 0.471 7.59 41.68 8.3
8/26/2021 9:45:00 AM 19.13 66.434 0.472 7.61 88.02 8.39
8/26/2021 10:00:00 AM 19.14 66.452 0.473 7.63 41.91 8.5
8/26/2021 10:15:00 AM 19.15 66.47 0.473 7.63 40.46 8.58
8/26/2021 10:30:00 AM 19.15 66.47 0.475 7.64 42.52 8.67
8/26/2021 10:45:00 AM 19.16 66.488 0.475 7.63 41.51 8.76
8/26/2021 11:00:00 AM 19.17 66.506 0.475 7.65 48.03 8.89
8/26/2021 11:15:00 AM 19.18 66.524 0.476 7.63 38.49 9.01
8/26/2021 11:30:00 AM 19.21 66.578 0.476 7.68 50.72 9.13
8/26/2021 11:45:00 AM 19.25 66.65 0.477 7.7 37.08 9.28
8/26/2021 12:00:00 PM 19.29 66.722 0.477 7.71 39.95 9.4
8/26/2021 12:15:00 PM 19.32 66.776 0.478 7.68 57.76 9.51
8/26/2021 12:30:00 PM 19.34 66.812 0.478 7.73 37.52 9.61
8/26/2021 12:45:00 PM 19.37 66.866 0.478 7.7 40.68 9.7
8/26/2021 1:00:00 PM 19.39 66.902 0.478 7.75 38.37 9.79
8/26/2021 1:15:00 PM 19.43 66.974 0.479 7.76 44.32 9.88
8/26/2021 1:30:00 PM 19.48 67.064 0.479 7.76 38 10.01
8/26/2021 1:45:00 PM 19.54 67.172 0.479 7.76 37.96 10.12
8/26/2021 2:00:00 PM 19.6 67.28 0.479 7.81 36.57 10.23
8/26/2021 2:15:00 PM 19.67 67.406 0.479 7.82 36.71 10.32
8/26/2021 2:30:00 PM 19.72 67.496 0.479 7.84 36.91 10.36
8/26/2021 2:45:00 PM 19.77 67.586 0.48 7.84 40.53 10.44
8/26/2021 3:00:00 PM 19.82 67.676 0.479 7.86 42.18 10.51
8/26/2021 3:15:00 PM 19.85 67.73 0.48 7.88 77.19 10.49
8/26/2021 3:30:00 PM 19.88 67.784 0.48 7.88 36.75 10.54
8/26/2021 3:45:00 PM 19.91 67.838 0.481 7.9 40.92 10.56
8/26/2021 4:00:00 PM 19.93 67.874 0.481 7.87 39.85 10.58
8/26/2021 4:15:00 PM 19.95 67.91 0.481 7.88 39.84 10.58
8/26/2021 4:30:00 PM 19.97 67.946 0.482 7.87 36.32 10.56
8/26/2021 4:45:00 PM 19.98 67.964 0.481 7.88 37.83 10.51
8/26/2021 5:00:00 PM 19.99 67.982 0.482 7.91 36.96 10.46
8/26/2021 5:15:00 PM 19.99 67.982 0.482 7.88 37.57 10.42
8/26/2021 5:30:00 PM 19.99 67.982 0.482 7.9 38.58 10.36
8/26/2021 5:45:00 PM 19.98 67.964 0.482 7.9 46.08 10.26
8/26/2021 6:00:00 PM 19.97 67.946 0.482 7.89 54.81 10.21
8/26/2021 6:15:00 PM 19.96 67.92799 0.483 7.85 43.88 10.14
8/26/2021 6:30:00 PM 19.95 67.91 0.483 7.88 85.11 10.03
8/26/2021 6:45:00 PM 19.95 67.91 0.483 7.87 40.94 9.94
8/26/2021 7:00:00 PM 19.93 67.874 0.483 7.86 37.56 9.85
8/26/2021 7:15:00 PM 19.9 67.82 0.483 7.85 42.13 9.72
8/26/2021 7:30:00 PM 19.87 67.766 0.483 7.84 37.35 9.6
8/26/2021 7:45:00 PM 19.84 67.712 0.484 7.8 41.84 9.49
8/26/2021 8:00:00 PM 19.8 67.64 0.483 7.78 36.85 9.38
8/26/2021 8:15:00 PM 19.76 67.568 0.484 7.8 37.3 9.27
8/26/2021 8:30:00 PM 19.72 67.496 0.484 7.8 37.34 9.16
8/26/2021 8:45:00 PM 19.68 67.424 0.484 7.78 37.96 9.06
8/26/2021 9:00:00 PM 19.65 67.37 0.484 7.76 38.75 8.96
8/26/2021 9:15:00 PM 19.61 67.298 0.484 7.75 39.41 8.86
8/26/2021 9:30:00 PM 19.57 67.226 0.484 7.71 38.03 8.76
8/26/2021 9:45:00 PM 19.53 67.154 0.484 7.73 38.45 8.68
8/26/2021 10:00:00 PM 19.49 67.082 0.484 7.71 38.36 8.58
8/26/2021 10:15:00 PM 19.45 67.01 0.484 7.7 42.48 8.53
8/26/2021 10:30:00 PM 19.41 66.938 0.484 7.69 40.2 8.45
8/26/2021 10:45:00 PM 19.37 66.866 0.485 7.68 38.77 8.4
8/26/2021 11:00:00 PM 19.34 66.812 0.485 7.64 38.72 8.34
8/26/2021 11:15:00 PM 19.3 66.74 0.485 7.67 38.81 8.29
8/26/2021 11:30:00 PM 19.26 66.668 0.486 7.66 39.17 8.23
8/26/2021 11:45:00 PM 19.23 66.614 0.485 7.62 39.49 8.19
8/27/2021 12:00:00 AM 19.2 66.56 0.486 7.66 38.78 8.16
8/27/2021 12:15:00 AM 19.16 66.488 0.486 7.62 38.84 8.13
8/27/2021 12:30:00 AM 19.13 66.434 0.486 7.63 38.41 8.1
8/27/2021 12:45:00 AM 19.11 66.398 0.486 7.62 38.68 8.07
8/27/2021 1:00:00 AM 19.07 66.326 0.487 7.62 38.11 8.04
8/27/2021 1:15:00 AM 19.04 66.272 0.487 7.6 37.87 8.04
8/27/2021 1:30:00 AM 19.01 66.218 0.487 7.62 37.82 8.02
8/27/2021 1:45:00 AM 18.99 66.182 0.487 7.61 40.06 8
8/27/2021 2:00:00 AM 18.95 66.11 0.488 7.61 38.8 8
8/27/2021 2:15:00 AM 18.93 66.074 0.488 7.61 37.41 7.99
8/27/2021 2:30:00 AM 18.9 66.02 0.488 7.6 37.33 7.97
8/27/2021 2:45:00 AM 18.87 65.966 0.488 7.6 39.03 7.97
8/27/2021 3:00:00 AM 18.84 65.912 0.489 7.6 37.78 7.95
8/27/2021 3:15:00 AM 18.81 65.858 0.489 7.6 37.11 7.96
8/27/2021 3:30:00 AM 18.78 65.804 0.49 7.57 37.1 7.94
8/27/2021 3:45:00 AM 18.76 65.768 0.49 7.6 37.24 7.95
8/27/2021 4:00:00 AM 18.73 65.714 0.49 7.56 37.1 7.95
8/27/2021 4:15:00 AM 18.7 65.66 0.49 7.55 40.96 7.96
8/27/2021 4:30:00 AM 18.68 65.624 0.491 7.59 36.82 7.96
8/27/2021 4:45:00 AM 18.66 65.588 0.491 7.59 41.13 7.96
8/27/2021 5:00:00 AM 18.64 65.552 0.492 7.59 38.04 7.95
8/27/2021 5:15:00 AM 18.61 65.498 0.492 7.56 36.98 7.95
8/27/2021 5:30:00 AM 18.59 65.462 0.493 7.57 37.26 7.96
8/27/2021 5:45:00 AM 18.57 65.426 0.493 7.59 38.42 7.95
8/27/2021 6:00:00 AM 18.54 65.372 0.494 7.59 36.88 7.95
8/27/2021 6:15:00 AM 18.52 65.336 0.495 7.59 36.39 7.96
8/27/2021 6:30:00 AM 18.49 65.282 0.495 7.57 36.44 7.96
8/27/2021 6:45:00 AM 18.47 65.246 0.495 7.59 36.09 7.96
8/27/2021 7:00:00 AM 18.45 65.21 0.496 7.59 36.41 7.96
8/27/2021 7:15:00 AM 18.43 65.174 0.496 7.56 41.05 7.98
8/27/2021 7:30:00 AM 18.42 65.156 0.497 7.6 37.48 8.02
8/27/2021 7:45:00 AM 18.41 65.138 0.497 7.6 39.35 8.05
8/27/2021 8:00:00 AM 18.39 65.102 0.498 7.56 36.34 8.07
8/27/2021 8:15:00 AM 18.38 65.084 0.498 7.6 37.38 8.09
8/27/2021 8:30:00 AM 18.36 65.048 0.499 7.56 39.83 8.1
8/27/2021 8:45:00 AM 18.36 65.048 0.499 7.61 39.7 8.16
8/27/2021 9:00:00 AM 18.36 65.048 0.499 7.57 172.12 8.22
8/27/2021 9:15:00 AM 18.37 65.066 0.5 7.59 39.59 8.29
8/27/2021 9:30:00 AM 18.36 65.048 0.5 7.62 36.78 8.34
8/27/2021 9:45:00 AM 18.37 65.066 0.501 7.62 40.38 8.42
8/27/2021 10:00:00 AM 18.38 65.084 0.501 7.64 36.79 8.5
8/27/2021 10:15:00 AM 18.39 65.102 0.501 7.64 36.01 8.59
8/27/2021 10:30:00 AM 18.45 65.21 0.502 7.65 36.52 8.74
8/27/2021 10:45:00 AM 18.48 65.264 0.503 7.67 35.98 8.85
8/27/2021 11:00:00 AM 18.5 65.3 0.503 7.66 36.13 8.95
8/27/2021 11:15:00 AM 18.52 65.336 0.503 7.69 36.08 9.03
8/27/2021 11:30:00 AM 18.56 65.408 0.503 7.7 35.98 9.17
8/27/2021 11:45:00 AM 18.63 65.534 0.504 7.71 36.54 9.33
8/27/2021 12:00:00 PM 18.77 65.786 0.504 7.74 36.36 9.48
8/27/2021 12:15:00 PM 18.82 65.876 0.504 7.75 36.67 9.63
8/27/2021 12:30:00 PM 18.96 66.128 0.505 7.75 35.49 9.83
8/27/2021 12:45:00 PM 19.04 66.272 0.504 7.79 35.32 9.97
8/27/2021 1:00:00 PM 19.16 66.488 0.505 7.81 34.97 10.13
8/27/2021 1:15:00 PM 19.29 66.722 0.505 7.79 35.67 10.25
8/27/2021 1:30:00 PM 19.51 67.118 0.505 7.84 35.19 10.4
8/27/2021 1:45:00 PM 19.69 67.442 0.506 7.86 35.35 10.52
8/27/2021 2:00:00 PM 19.84 67.712 0.506 7.87 35.3 10.67
8/27/2021 2:15:00 PM 20.01 68.018 0.506 7.9 35.58 10.8
8/27/2021 2:30:00 PM 20.16 68.288 0.507 7.92 34.63 10.91
8/27/2021 2:45:00 PM 20.13 68.234 0.506 7.92 37.68 10.91
8/27/2021 3:00:00 PM 20.14 68.252 0.506 7.93 35.23 10.93
8/27/2021 3:15:00 PM 20.09 68.162 0.507 7.93 37.35 10.84
8/27/2021 3:30:00 PM 20.04 68.07201 0.507 7.92 36.15 10.66
8/27/2021 3:45:00 PM 19.99 67.982 0.507 7.92 37.57 10.63
8/27/2021 4:00:00 PM 19.94 67.892 0.507 7.91 38.62 10.55
8/27/2021 4:15:00 PM 19.92 67.856 0.508 7.91 34.74 10.48
8/27/2021 4:30:00 PM 19.91 67.838 0.507 7.91 36.55 10.32
8/27/2021 4:45:00 PM 19.9 67.82 0.508 7.91 35.22 10.31
8/27/2021 5:00:00 PM 19.89 67.802 0.509 7.91 35.94 10.24
8/27/2021 5:15:00 PM 19.88 67.784 0.509 7.91 35.49 10.08
8/27/2021 5:30:00 PM 19.87 67.766 0.509 7.89 36.59 9.85
8/27/2021 5:45:00 PM 19.87 67.766 0.51 7.89 35.81 9.66
8/27/2021 6:00:00 PM 19.88 67.784 0.51 7.86 36.5 9.51
8/27/2021 6:15:00 PM 19.88 67.784 0.511 7.88 39.63 9.74
8/27/2021 6:30:00 PM 19.89 67.802 0.511 7.87 36.46 9.65
8/27/2021 6:45:00 PM 19.87 67.766 0.512 7.86 36.02 9.57
8/27/2021 7:00:00 PM 19.85 67.73 0.511 7.85 35.95 9.5
8/27/2021 7:15:00 PM 19.82 67.676 0.511 7.84 38.65 9.4
8/27/2021 7:30:00 PM 19.79 67.622 0.512 7.83 35.95 9.28
8/27/2021 7:45:00 PM 19.76 67.568 0.511 7.79 35.64 9.16
8/27/2021 8:00:00 PM 19.73 67.514 0.511 7.81 39.21 9.06
8/27/2021 8:15:00 PM 19.72 67.496 0.51 7.8 38.37 8.96
8/27/2021 8:30:00 PM 19.7 67.46 0.51 7.79 36 8.86
8/27/2021 8:45:00 PM 19.69 67.442 0.509 7.78 39.45 8.75
8/27/2021 9:00:00 PM 19.67 67.406 0.509 7.77 37.32 8.66
8/27/2021 9:15:00 PM 19.65 67.37 0.51 7.77 38.83 8.56
8/27/2021 9:30:00 PM 19.63 67.334 0.51 7.75 38.92 8.51
8/27/2021 9:45:00 PM 19.6 67.28 0.51 7.75 37 8.43
8/27/2021 10:00:00 PM 19.56 67.208 0.51 7.74 36.38 8.37
8/27/2021 10:15:00 PM 19.53 67.154 0.51 7.72 36.35 8.32
8/27/2021 10:30:00 PM 19.5 67.1 0.51 7.72 39.17 8.27
8/27/2021 10:45:00 PM 19.46 67.028 0.51 7.71 40.8 8.24
8/27/2021 11:00:00 PM 19.42 66.956 0.51 7.67 37.53 8.2
8/27/2021 11:15:00 PM 19.39 66.902 0.51 7.7 36.63 8.17
8/27/2021 11:30:00 PM 19.36 66.848 0.51 7.65 36.31 8.15
8/27/2021 11:45:00 PM 19.32 66.776 0.51 7.69 35.97 8.11
8/28/2021 12:00:00 AM 19.28 66.704 0.509 7.65 36.21 8.08
8/28/2021 12:15:00 AM 19.25 66.65 0.509 7.68 36.18 8.04
8/28/2021 12:30:00 AM 19.2 66.56 0.51 7.67 35.92 8.02
8/28/2021 12:45:00 AM 19.16 66.488 0.509 7.63 37.58 7.99
8/28/2021 1:00:00 AM 19.12 66.416 0.509 7.66 36.73 7.97
8/28/2021 1:15:00 AM 19.08 66.344 0.508 7.66 39.56 7.94
8/28/2021 1:30:00 AM 19.04 66.272 0.507 7.64 36.6 7.94
8/28/2021 1:45:00 AM 19 66.2 0.506 7.63 39.47 7.93
8/28/2021 2:00:00 AM 18.96 66.128 0.505 7.64 37.18 7.92
8/28/2021 2:15:00 AM 18.93 66.074 0.503 7.64 36.94 7.91
8/28/2021 2:30:00 AM 18.9 66.02 0.502 7.64 36.68 7.9
8/28/2021 2:45:00 AM 18.88 65.984 0.5 7.63 37.01 7.89
8/28/2021 3:00:00 AM 18.85 65.93 0.499 7.63 37.33 7.88
8/28/2021 3:15:00 AM 18.83 65.894 0.498 7.62 40.46 7.88
8/28/2021 3:30:00 AM 18.81 65.858 0.497 7.62 36.65 7.87
8/28/2021 3:45:00 AM 18.79 65.82201 0.497 7.62 39.8 7.86
8/28/2021 4:00:00 AM 18.77 65.786 0.498 7.61 37.1 7.86
8/28/2021 4:15:00 AM 18.75 65.75 0.498 7.58 40.07 7.87
8/28/2021 4:30:00 AM 18.73 65.714 0.5 7.62 36.21 7.87
8/28/2021 4:45:00 AM 18.71 65.67799 0.501 7.62 36.87 7.86
8/28/2021 5:00:00 AM 18.69 65.642 0.502 7.62 36.52 7.89
8/28/2021 5:15:00 AM 18.66 65.588 0.504 7.59 38.01 7.9
8/28/2021 5:30:00 AM 18.63 65.534 0.506 7.6 38.95 7.89
8/28/2021 5:45:00 AM 18.6 65.48 0.508 7.62 36.35 7.88
8/28/2021 6:00:00 AM 18.57 65.426 0.51 7.62 36.85 7.88
8/28/2021 6:15:00 AM 18.54 65.372 0.512 7.62 36.8 7.88
8/28/2021 6:30:00 AM 18.52 65.336 0.514 7.6 38.31 7.86
8/28/2021 6:45:00 AM 18.49 65.282 0.516 7.61 37.79 7.82
8/28/2021 7:00:00 AM 18.46 65.228 0.518 7.61 39.18 7.82
8/28/2021 7:15:00 AM 18.44 65.192 0.52 7.6 39.59 7.81
8/28/2021 7:30:00 AM 18.43 65.174 0.52 7.6 44.62 7.8
8/28/2021 7:45:00 AM 18.42 65.156 0.52 7.6 40.08 7.82
8/28/2021 8:00:00 AM 18.41 65.138 0.521 7.6 36.3 7.85
8/28/2021 8:15:00 AM 18.41 65.138 0.52 7.6 36.99 7.88
8/28/2021 8:30:00 AM 18.41 65.138 0.52 7.6 39.23 7.93
8/28/2021 8:45:00 AM 18.41 65.138 0.52 7.61 39.1 8
8/28/2021 9:00:00 AM 18.42 65.156 0.519 7.62 37.7 8.06
8/28/2021 9:15:00 AM 18.43 65.174 0.518 7.62 37.08 8.13
8/28/2021 9:30:00 AM 18.43 65.174 0.517 7.63 36.61 8.22
8/28/2021 9:45:00 AM 18.43 65.174 0.516 7.62 36.16 8.29
8/28/2021 10:00:00 AM 18.45 65.21 0.515 7.64 37.13 8.43
8/28/2021 10:15:00 AM 18.47 65.246 0.515 7.66 38.52 8.57
8/28/2021 10:30:00 AM 18.48 65.264 0.514 7.66 38.49 8.66
8/28/2021 10:45:00 AM 18.49 65.282 0.513 7.67 35.96 8.8
8/28/2021 11:00:00 AM 18.5 65.3 0.513 7.69 35.88 8.9
8/28/2021 11:15:00 AM 18.53 65.354 0.513 7.71 35.94 9.06
8/28/2021 11:30:00 AM 18.56 65.408 0.512 7.72 35.49 9.19
8/28/2021 11:45:00 AM 18.58 65.444 0.512 7.73 37.96 9.3
8/28/2021 12:00:00 PM 18.61 65.498 0.511 7.71 35.92 9.44
8/28/2021 12:15:00 PM 18.63 65.534 0.511 7.76 37.72 9.5
8/28/2021 12:30:00 PM 18.64 65.552 0.511 7.77 35.51 9.57
8/28/2021 12:45:00 PM 18.73 65.714 0.511 7.78 38.4 9.82
8/28/2021 1:00:00 PM 18.91 66.038 0.512 7.78 35.42 10.04
8/28/2021 1:15:00 PM 18.99 66.182 0.511 7.84 38.12 10.19
8/28/2021 1:30:00 PM 19.22 66.596 0.511 7.83 35.95 10.4
8/28/2021 1:45:00 PM 19.36 66.848 0.51 7.88 36.59 10.53
8/28/2021 2:00:00 PM 19.51 67.118 0.511 7.89 35.57 10.66
8/28/2021 2:15:00 PM 19.58 67.244 0.51 7.91 35.21 10.73
8/28/2021 2:30:00 PM 19.73 67.514 0.51 7.93 35.68 10.85
8/28/2021 2:45:00 PM 19.91 67.838 0.51 7.95 35.83 10.95
8/28/2021 3:00:00 PM 19.97 67.946 0.51 7.95 36.12 10.98
8/28/2021 3:15:00 PM 20.02 68.036 0.51 7.97 35.44 11.02
8/28/2021 3:30:00 PM 20.05 68.09 0.51 7.97 38.03 11.05
8/28/2021 3:45:00 PM 20.21 68.378 0.51 7.99 38.34 11.12
8/28/2021 4:00:00 PM 20.33 68.594 0.511 8 35.28 11.15
8/28/2021 4:15:00 PM 20.43 68.774 0.511 8.01 35.68 11.14
8/28/2021 4:30:00 PM 20.53 68.954 0.511 8 35.48 11.12
8/28/2021 4:45:00 PM 20.64 69.152 0.51 8.01 35.51 11.12
8/28/2021 5:00:00 PM 20.73 69.314 0.511 7.99 38.17 11.08
8/28/2021 5:15:00 PM 20.84 69.512 0.511 8.03 38.36 11.06
8/28/2021 5:30:00 PM 20.91 69.638 0.511 8.03 37.77 10.99
8/28/2021 5:45:00 PM 20.98 69.764 0.511 8 38.49 10.96
8/28/2021 6:00:00 PM 21.02 69.836 0.511 8 36.28 10.85
8/28/2021 6:15:00 PM 21.01 69.818 0.511 8.01 36.62 10.67
8/28/2021 6:30:00 PM 20.99 69.782 0.512 8 36.3 10.56
8/28/2021 6:45:00 PM 20.98 69.764 0.512 7.98 39.08 10.42
8/28/2021 7:00:00 PM 20.95 69.71 0.512 7.99 38.4 10.3
8/28/2021 7:15:00 PM 20.89 69.602 0.513 7.97 38.49 10.12
8/28/2021 7:30:00 PM 20.83 69.494 0.513 7.92 36.37 9.96
8/28/2021 7:45:00 PM 20.78 69.404 0.514 7.93 40.22 9.78
8/28/2021 8:00:00 PM 20.72 69.296 0.514 7.91 36.4 9.63
8/28/2021 8:15:00 PM 20.67 69.206 0.514 7.88 38.96 9.43
8/28/2021 8:30:00 PM 20.6 69.08 0.515 7.87 36.51 9.28
8/28/2021 8:45:00 PM 20.54 68.972 0.515 7.86 38.21 9.12
8/28/2021 9:00:00 PM 20.49 68.882 0.515 7.85 39.54 8.99
8/28/2021 9:15:00 PM 20.43 68.774 0.516 7.84 37.64 8.88
8/28/2021 9:30:00 PM 20.38 68.684 0.515 7.82 39.98 8.76
8/28/2021 9:45:00 PM 20.33 68.594 0.516 7.81 37.56 8.64
8/28/2021 10:00:00 PM 20.29 68.522 0.516 7.8 37.52 8.53
8/28/2021 10:15:00 PM 20.23 68.414 0.516 7.77 37.8 8.42
8/28/2021 10:30:00 PM 20.18 68.324 0.517 7.74 39.8 8.33
8/28/2021 10:45:00 PM 20.12 68.216 0.517 7.74 38.04 8.26
8/28/2021 11:00:00 PM 20.07 68.126 0.517 7.76 37.82 8.17
8/28/2021 11:15:00 PM 20.02 68.036 0.518 7.75 39.21 8.13
8/28/2021 11:30:00 PM 19.97 67.946 0.518 7.74 37.5 8.05
8/28/2021 11:45:00 PM 19.94 67.892 0.518 7.72 36.8 7.97
8/29/2021 12:00:00 AM 19.9 67.82 0.518 7.72 39.14 7.93
8/29/2021 12:15:00 AM 19.87 67.766 0.518 7.71 37.58 7.87
8/29/2021 12:30:00 AM 19.83 67.694 0.519 7.7 37.39 7.84
8/29/2021 12:45:00 AM 19.8 67.64 0.519 7.69 39.12 7.81
8/29/2021 1:00:00 AM 19.76 67.568 0.52 7.69 36.86 7.77
8/29/2021 1:15:00 AM 19.73 67.514 0.52 7.68 37.62 7.75
8/29/2021 1:30:00 AM 19.7 67.46 0.52 7.67 38.16 7.71
8/29/2021 1:45:00 AM 19.67 67.406 0.52 7.68 37.05 7.7
8/29/2021 2:00:00 AM 19.64 67.352 0.521 7.67 37.18 7.7
8/29/2021 2:15:00 AM 19.61 67.298 0.521 7.67 39.2 7.69
8/29/2021 2:30:00 AM 19.57 67.226 0.521 7.66 37.64 7.65
8/29/2021 2:45:00 AM 19.54 67.172 0.521 7.66 36.65 7.66
8/29/2021 3:00:00 AM 19.51 67.118 0.522 7.65 36.21 7.66
8/29/2021 3:15:00 AM 19.47 67.046 0.521 7.65 39.04 7.65
8/29/2021 3:30:00 AM 19.44 66.992 0.522 7.65 35.38 7.62
8/29/2021 3:45:00 AM 19.4 66.92 0.523 7.65 37.46 7.66
8/29/2021 4:00:00 AM 19.37 66.866 0.523 7.62 36.59 7.64
8/29/2021 4:15:00 AM 19.33 66.794 0.523 7.64 36.53 7.66
8/29/2021 4:30:00 AM 19.3 66.74 0.523 7.63 38.35 7.65
8/29/2021 4:45:00 AM 19.27 66.686 0.523 7.64 36.57 7.65
8/29/2021 5:00:00 AM 19.24 66.632 0.524 7.64 37.47 7.64
8/29/2021 5:15:00 AM 19.2 66.56 0.524 7.64 37.09 7.67
8/29/2021 5:30:00 AM 19.17 66.506 0.524 7.64 38.96 7.67
8/29/2021 5:45:00 AM 19.13 66.434 0.525 7.63 40.01 7.68
8/29/2021 6:00:00 AM 19.1 66.38 0.525 7.64 37.6 7.69
8/29/2021 6:15:00 AM 19.07 66.326 0.525 7.64 39.09 7.69
8/29/2021 6:30:00 AM 19.04 66.272 0.526 7.64 36.81 7.45
8/29/2021 6:45:00 AM 19.01 66.218 0.526 7.64 36.32 7.7
8/29/2021 7:00:00 AM 18.98 66.164 0.526 7.64 36.91 7.73
8/29/2021 7:15:00 AM 18.95 66.11 0.527 7.64 37.17 7.69
8/29/2021 7:30:00 AM 18.93 66.074 0.528 7.64 37.48 7.73
8/29/2021 7:45:00 AM 18.91 66.038 0.528 7.61 35.85 7.77
8/29/2021 8:00:00 AM 18.89 66.002 0.529 7.65 35.51 7.79
8/29/2021 8:15:00 AM 18.88 65.984 0.529 7.61 47.74 7.82
8/29/2021 8:30:00 AM 18.86 65.948 0.529 7.65 36.46 7.84
8/29/2021 8:45:00 AM 18.86 65.948 0.53 7.66 36.24 7.91
8/29/2021 9:00:00 AM 18.87 65.966 0.53 7.66 35.41 8.01
8/29/2021 9:15:00 AM 18.88 65.984 0.531 7.67 35.21 8.09
8/29/2021 9:30:00 AM 18.89 66.002 0.532 7.65 37.18 8.18
8/29/2021 9:45:00 AM 18.91 66.038 0.532 7.69 34.59 8.28
8/29/2021 10:00:00 AM 18.93 66.074 0.532 7.66 34.53 8.3
8/29/2021 10:15:00 AM 18.98 66.164 0.533 7.71 36.53 8.63
8/29/2021 10:30:00 AM 19.03 66.254 0.534 7.73 35.44 8.76
8/29/2021 10:45:00 AM 19.05 66.29 0.535 7.75 34.7 8.94
8/29/2021 11:00:00 AM 19.08 66.344 0.535 7.75 37.41 9.03
8/29/2021 11:15:00 AM 19.11 66.398 0.535 7.77 34.7 9.2
8/29/2021 11:30:00 AM 19.18 66.524 0.535 7.78 34.83 9.36
8/29/2021 11:45:00 AM 19.21 66.578 0.537 7.8 35.45 9.49
8/29/2021 12:00:00 PM 19.25 66.65 0.537 7.81 34.49 9.62
8/29/2021 12:15:00 PM 19.31 66.758 0.537 7.83 36.58 9.75
8/29/2021 12:30:00 PM 19.36 66.848 0.537 7.82 34.21 9.94
8/29/2021 12:45:00 PM 19.4 66.92 0.537 7.86 33.28 10.07
8/29/2021 1:00:00 PM 19.46 67.028 0.538 7.87 35.75 10.17
8/29/2021 1:15:00 PM 19.54 67.172 0.538 7.85 36.25 10.29
8/29/2021 1:30:00 PM 19.63 67.334 0.539 7.91 37.43 10.48
8/29/2021 1:45:00 PM 19.75 67.55 0.539 7.93 36.61 10.66
8/29/2021 2:00:00 PM 19.91 67.838 0.539 7.95 34.41 10.69
8/29/2021 2:15:00 PM 20.02 68.036 0.539 7.98 34.12 10.94
8/29/2021 2:30:00 PM 20.21 68.378 0.539 7.99 36.78 11.15
8/29/2021 2:45:00 PM 20.25 68.45 0.539 7.99 34.49 11.18
8/29/2021 3:00:00 PM 20.3 68.54 0.54 8.01 34.9 11.15
8/29/2021 3:15:00 PM 20.38 68.684 0.54 8.03 34.23 11.33
8/29/2021 3:30:00 PM 20.51 68.918 0.54 8.03 34.6 11.41
8/29/2021 3:45:00 PM 20.6 69.08 0.54 8.06 35.67 11.24
8/29/2021 4:00:00 PM 20.61 69.098 0.54 8.06 35.67 11.37
8/29/2021 4:15:00 PM 20.64 69.152 0.54 8.07 33.3 11.36
8/29/2021 4:30:00 PM 20.64 69.152 0.54 8.06 34.67 11.27
8/29/2021 4:45:00 PM 20.64 69.152 0.54 8.06 35.27 11.16
8/29/2021 5:00:00 PM 20.62 69.116 0.54 8.02 35.48 11
8/29/2021 5:15:00 PM 20.6 69.08 0.541 8.05 95.1 10.91
8/29/2021 5:30:00 PM 20.64 69.152 0.54 8.05 41.77 10.81
8/29/2021 5:45:00 PM 20.64 69.152 0.541 8.05 44.5 10.74
8/29/2021 6:00:00 PM 20.65 69.17 0.541 8.04 43.44 10.57
8/29/2021 6:15:00 PM 20.64 69.152 0.541 8.03 37.98 10.44
8/29/2021 6:30:00 PM 20.64 69.152 0.542 8.02 90.36 10.21
8/29/2021 6:45:00 PM 20.64 69.152 0.542 8.01 40.15 10.23
8/29/2021 7:00:00 PM 20.66 69.188 0.542 7.97 36.93 10.1
8/29/2021 7:15:00 PM 20.67 69.206 0.543 7.99 37.74 9.89
8/29/2021 7:30:00 PM 20.67 69.206 0.543 7.97 35.94 9.74
8/29/2021 7:45:00 PM 20.64 69.152 0.543 7.96 38.13 9.6
8/29/2021 8:00:00 PM 20.61 69.098 0.544 7.95 36.98 9.45
8/29/2021 8:15:00 PM 20.58 69.044 0.544 7.94 36.52 9.27
8/29/2021 8:30:00 PM 20.55 68.99 0.544 7.92 35.65 9.09
8/29/2021 8:45:00 PM 20.5 68.9 0.545 7.88 39.86 8.98
8/29/2021 9:00:00 PM 20.46 68.828 0.545 7.88 37.81 8.84
8/29/2021 9:15:00 PM 20.4 68.72 0.545 7.84 38.05 8.63
8/29/2021 9:30:00 PM 20.35 68.63 0.546 7.83 37.01 8.64
8/29/2021 9:45:00 PM 20.29 68.522 0.546 7.82 36.46 8.51
8/29/2021 10:00:00 PM 20.23 68.414 0.546 7.8 37.92 8.37
8/29/2021 10:15:00 PM 20.18 68.324 0.546 7.8 40.05 8.17
8/29/2021 10:30:00 PM 20.12 68.216 0.547 7.8 41.76 8.07
8/29/2021 10:45:00 PM 20.06 68.108 0.547 7.79 37.49 8.05
8/29/2021 11:00:00 PM 20 68 0.547 7.77 37.48 8.01
8/29/2021 11:15:00 PM 19.95 67.91 0.548 7.75 40.81 7.92
8/29/2021 11:30:00 PM 19.91 67.838 0.548 7.75 38.77 7.85
8/29/2021 11:45:00 PM 19.86 67.748 0.548 7.74 39.44 7.78
8/30/2021 12:00:00 AM 19.81 67.658 0.548 7.69 38.25 7.64
8/30/2021 12:15:00 AM 19.76 67.568 0.549 7.74 39.97 7.73
8/30/2021 12:30:00 AM 19.72 67.496 0.549 7.73 38.48 7.59
8/30/2021 12:45:00 AM 19.68 67.424 0.549 7.7 36.76 7.55
8/30/2021 1:00:00 AM 19.63 67.334 0.549 7.71 39.8 7.47
8/30/2021 1:15:00 AM 19.59 67.262 0.549 7.71 37.04 7.48
8/30/2021 1:30:00 AM 19.55 67.19 0.549 7.69 40.98 7.49
8/30/2021 1:45:00 AM 19.51 67.118 0.549 7.69 37.32 7.37
8/30/2021 2:00:00 AM 19.47 67.046 0.55 7.68 36.34 7.38
8/30/2021 2:15:00 AM 19.43 66.974 0.55 7.68 39.43 7.36
8/30/2021 2:30:00 AM 19.39 66.902 0.55 7.66 36.68 7.37
8/30/2021 2:45:00 AM 19.35 66.83 0.55 7.66 36.79 7.4
8/30/2021 3:00:00 AM 19.31 66.758 0.55 7.63 39.08 7.34
8/30/2021 3:15:00 AM 19.26 66.668 0.55 7.66 37.02 7.38
8/30/2021 3:30:00 AM 19.23 66.614 0.551 7.66 37.34 7.43
8/30/2021 3:45:00 AM 19.19 66.542 0.551 7.66 39.67 7.41
8/30/2021 4:00:00 AM 19.15 66.47 0.551 7.66 37.11 7.17
8/30/2021 4:15:00 AM 19.1 66.38 0.551 7.66 37.77 7.43
8/30/2021 4:30:00 AM 19.06 66.308 0.552 7.64 35.59 7.46
8/30/2021 4:45:00 AM 19.02 66.236 0.552 7.66 36.77 7.51
8/30/2021 5:00:00 AM 18.98 66.164 0.552 7.63 36.66 7.49
8/30/2021 5:15:00 AM 18.94 66.092 0.552 7.66 39.69 7.5
8/30/2021 5:30:00 AM 18.9 66.02 0.553 7.66 37.2 7.46
8/30/2021 5:45:00 AM 18.85 65.93 0.553 7.67 37.17 7.47
8/30/2021 6:00:00 AM 18.81 65.858 0.554 7.65 36.11 7.51
8/30/2021 6:15:00 AM 18.77 65.786 0.554 7.65 36.31 7.6
8/30/2021 6:30:00 AM 18.74 65.732 0.554 7.65 37.67 7.48
8/30/2021 6:45:00 AM 18.7 65.66 0.554 7.65 40.31 7.48
8/30/2021 7:00:00 AM 18.66 65.588 0.555 7.65 37.27 7.48
8/30/2021 7:15:00 AM 18.62 65.516 0.555 7.65 39.06 7.52
8/30/2021 7:30:00 AM 18.59 65.462 0.556 7.65 40.25 7.51
8/30/2021 7:45:00 AM 18.56 65.408 0.556 7.65 37.46 7.6
8/30/2021 8:00:00 AM 18.53 65.354 0.556 7.64 35.95 7.68
8/30/2021 8:15:00 AM 18.51 65.318 0.556 7.65 35.59 7.6
8/30/2021 8:30:00 AM 18.49 65.282 0.557 7.66 35.35 7.76
8/30/2021 8:45:00 AM 18.46 65.228 0.557 7.66 39.02 7.8
8/30/2021 9:00:00 AM 18.47 65.246 0.556 7.67 478.41 7.99
8/30/2021 9:15:00 AM 18.48 65.264 0.557 7.68 56.43 8.02
8/30/2021 9:30:00 AM 18.49 65.282 0.557 7.69 41.09 8.14
8/30/2021 9:45:00 AM 18.53 65.354 0.556 7.7 37.58 8.24
8/30/2021 10:00:00 AM 18.59 65.462 0.556 7.71 37.24 8.36
8/30/2021 10:15:00 AM 18.62 65.516 0.557 7.72 44.13 8.56
8/30/2021 10:30:00 AM 18.62 65.516 0.557 7.73 37.03 8.68
8/30/2021 10:45:00 AM 18.69 65.642 0.557 7.72 45.37 8.81
8/30/2021 11:00:00 AM 18.76 65.768 0.559 7.76 41.96 9.02
8/30/2021 11:15:00 AM 18.83 65.894 0.558 7.78 39.81 9.2
8/30/2021 11:30:00 AM 18.92 66.056 0.559 7.8 39.57 9.31
8/30/2021 11:45:00 AM 18.94 66.092 0.559 7.8 38.5 9.48
8/30/2021 12:00:00 PM 18.99 66.182 0.56 7.82 35.24 9.64
8/30/2021 12:15:00 PM 19.13 66.434 0.561 7.84 35.07 9.88
8/30/2021 12:30:00 PM 19.12 66.416 0.561 7.84 35.81 9.92
8/30/2021 12:45:00 PM 19.23 66.614 0.561 7.84 36.22 10.03
8/30/2021 1:00:00 PM 19.24 66.632 0.561 7.87 35.29 10.12
8/30/2021 1:15:00 PM 19.45 67.01 0.561 7.85 35.66 10.2
8/30/2021 1:30:00 PM 19.67 67.406 0.561 7.91 35.82 10.32
8/30/2021 1:45:00 PM 19.73 67.514 0.561 7.92 36.46 10.34
8/30/2021 2:00:00 PM 19.83 67.694 0.561 7.94 37.46 10.71
8/30/2021 2:15:00 PM 19.92 67.856 0.56 7.95 36.57 10.77
8/30/2021 2:30:00 PM 19.89 67.802 0.56 7.95 35.73 10.81
8/30/2021 2:45:00 PM 19.86 67.748 0.56 7.95 36.35 10.72
8/30/2021 3:00:00 PM 19.84 67.712 0.561 7.95 35.48 10.63
8/30/2021 3:15:00 PM 19.86 67.748 0.56 7.96 35.8 10.7
8/30/2021 3:30:00 PM 20 68 0.561 7.99 35.45 10.78
8/30/2021 3:45:00 PM 20.11 68.198 0.561 8.01 38.83 10.83
8/30/2021 4:00:00 PM 20.22 68.396 0.561 8.02 36.76 10.83
8/30/2021 4:15:00 PM 20.31 68.558 0.562 8.02 35.16 10.8
8/30/2021 4:30:00 PM 20.36 68.648 0.561 8.01 35.44 10.89
8/30/2021 4:45:00 PM 20.38 68.684 0.562 7.98 38.43 10.77
8/30/2021 5:00:00 PM 20.43 68.774 0.562 8.03 35.21 10.8
8/30/2021 5:15:00 PM 20.45 68.81 0.562 8.03 35.05 10.8
8/30/2021 5:30:00 PM 20.46 68.828 0.562 7.98 38.79 10.65
8/30/2021 5:45:00 PM 20.49 68.882 0.563 8.02 35.13 10.67
8/30/2021 6:00:00 PM 20.51 68.918 0.563 8.01 35.03 10.57
8/30/2021 6:15:00 PM 20.52 68.936 0.564 7.98 36.13 10.5
8/30/2021 6:30:00 PM 20.53 68.954 0.564 7.98 35.42 10.35
8/30/2021 6:45:00 PM 20.53 68.954 0.564 8 38.49 10.23
8/30/2021 7:00:00 PM 20.51 68.918 0.565 7.99 40.28 10.04
8/30/2021 7:15:00 PM 20.47 68.846 0.565 7.98 36.68 9.99
8/30/2021 7:30:00 PM 20.43 68.774 0.565 7.96 36.88 9.78
8/30/2021 7:45:00 PM 20.38 68.684 0.566 7.94 37.24 9.65
8/30/2021 8:00:00 PM 20.34 68.612 0.566 7.94 33.97 9.41
8/30/2021 8:15:00 PM 20.29 68.522 0.566 7.92 40.23 9.34
8/30/2021 8:30:00 PM 20.23 68.414 0.567 7.88 34.57 9.1
8/30/2021 8:45:00 PM 20.18 68.324 0.567 7.89 35.01 9.06
8/30/2021 9:00:00 PM 20.12 68.216 0.567 7.87 442.56 8.87
8/30/2021 9:15:00 PM 20.06 68.108 0.567 7.87 41.64 8.77
8/30/2021 9:30:00 PM 20.01 68.018 0.568 7.86 43.02 8.64
8/30/2021 9:45:00 PM 19.96 67.92799 0.568 7.84 44.49 8.48
8/30/2021 10:00:00 PM 19.9 67.82 0.569 7.83 40.62 8.41
8/30/2021 10:15:00 PM 19.84 67.712 0.569 7.82 39.2 8.22
8/30/2021 10:30:00 PM 19.79 67.622 0.569 7.8 37.18 8.23
8/30/2021 10:45:00 PM 19.73 67.514 0.569 7.79 39.1 8.12
8/30/2021 11:00:00 PM 19.68 67.424 0.57 7.78 37.31 8.06
8/30/2021 11:15:00 PM 19.62 67.316 0.57 7.77 38.04 7.96
8/30/2021 11:30:00 PM 19.56 67.208 0.57 7.77 37.7 7.91
8/30/2021 11:45:00 PM 19.5 67.1 0.571 7.76 36.93 7.86
8/31/2021 12:00:00 AM 19.44 66.992 0.57 7.75 37.72 7.82
8/31/2021 12:15:00 AM 19.38 66.884 0.571 7.74 36.29 7.71
8/31/2021 12:30:00 AM 19.32 66.776 0.571 7.73 36.42 7.6
8/31/2021 12:45:00 AM 19.27 66.686 0.57 7.72 36.83 7.47
8/31/2021 1:00:00 AM 19.21 66.578 0.57 7.71 40.93 7.41
8/31/2021 1:15:00 AM 19.14 66.452 0.571 7.69 37.16 7.46
8/31/2021 1:30:00 AM 19.08 66.344 0.571 7.7 36.73 7.43
8/31/2021 1:45:00 AM 19.02 66.236 0.571 7.71 37.77 7.15
8/31/2021 2:00:00 AM 18.97 66.146 0.571 7.69 39.4 7.19
8/31/2021 2:15:00 AM 18.91 66.038 0.572 7.69 36.84 7.16
8/31/2021 2:30:00 AM 18.85 65.93 0.572 7.68 38.51 7.31
8/31/2021 2:45:00 AM 18.8 65.84 0.572 7.69 39.75 7.37
8/31/2021 3:00:00 AM 18.74 65.732 0.572 7.68 36.87 7.32
8/31/2021 3:15:00 AM 18.69 65.642 0.572 7.67 37.04 7.36
8/31/2021 3:30:00 AM 18.64 65.552 0.572 7.67 36.19 7.38
8/31/2021 3:45:00 AM 18.58 65.444 0.572 7.67 39.41 7.33
8/31/2021 4:00:00 AM 18.53 65.354 0.572 7.64 35.43 7.35
8/31/2021 4:15:00 AM 18.48 65.264 0.572 7.67 36.89 7.38
8/31/2021 4:30:00 AM 18.43 65.174 0.571 7.63 36.31 7.35
8/31/2021 4:45:00 AM 18.37 65.066 0.572 7.66 34.62 7.39
8/31/2021 5:00:00 AM 18.31 64.958 0.572 7.66 36.68 7.46
8/31/2021 5:15:00 AM 18.26 64.868 0.572 7.67 34.67 7.42
8/31/2021 5:30:00 AM 18.21 64.778 0.572 7.66 36.42 7.4
8/31/2021 5:45:00 AM 18.15 64.67 0.572 7.67 34.96 7.37
8/31/2021 6:00:00 AM 18.09 64.562 0.572 7.66 35.11 7.5
8/31/2021 6:15:00 AM 18.03 64.454 0.573 7.66 34.66 7.52
8/31/2021 6:30:00 AM 17.98 64.364 0.573 7.66 34.91 7.48
8/31/2021 6:45:00 AM 17.92 64.256 0.573 7.66 34.27 7.4
8/31/2021 7:00:00 AM 17.86 64.148 0.574 7.66 43.13 7.52
8/31/2021 7:15:00 AM 17.81 64.058 0.574 7.66 41.97 7.46
8/31/2021 7:30:00 AM 17.76 63.968 0.575 7.65 36.49 7.56
8/31/2021 7:45:00 AM 17.73 63.914 0.576 7.67 36.44 7.62
8/31/2021 8:00:00 AM 17.7 63.86 0.575 7.67 39.92 7.59
8/31/2021 8:15:00 AM 17.67 63.806 0.577 7.68 34.92 7.72
8/31/2021 8:30:00 AM 17.64 63.752 0.577 7.68 35.44 7.79
8/31/2021 8:45:00 AM 17.63 63.734 0.576 7.68 35.71 7.74
8/31/2021 9:00:00 AM 17.61 63.698 0.577 7.69 35.58 7.93
8/31/2021 9:15:00 AM 17.59 63.662 0.577 7.7 35.92 8
8/31/2021 9:30:00 AM 17.58 63.644 0.578 7.71 35.64 8.12
8/31/2021 9:45:00 AM 17.58 63.644 0.577 7.71 34.79 8.18
8/31/2021 10:00:00 AM 17.6 63.68 0.577 7.72 38.53 8.34
8/31/2021 10:15:00 AM 17.63 63.734 0.577 7.72 35.67 8.56
8/31/2021 10:30:00 AM 17.67 63.806 0.577 7.74 35.71 8.65
8/31/2021 10:45:00 AM 17.7 63.86 0.576 7.75 33.77 8.86
8/31/2021 11:00:00 AM 17.75 63.95 0.576 7.74 34.67 8.99
8/31/2021 11:15:00 AM 17.8 64.04 0.576 7.76 40.01 9.14
8/31/2021 11:30:00 AM 17.89 64.202 0.576 7.76 34.91 9.41
8/31/2021 11:45:00 AM 18.03 64.454 0.576 7.81 87.06 9.66
8/31/2021 12:00:00 PM 18.15 64.67 0.576 7.83 60.3 9.89
8/31/2021 12:15:00 PM 18.25 64.85 0.576 7.83 35.99 9.67
8/31/2021 12:30:00 PM 18.39 65.102 0.577 7.85 51.35 9.89
8/31/2021 12:45:00 PM 18.49 65.282 0.576 7.88 91.64 10.2
8/31/2021 1:00:00 PM 18.61 65.498 0.578 7.9 40.06 10.19
8/31/2021 1:15:00 PM 18.73 65.714 0.577 7.88 38.49 10.27
8/31/2021 1:30:00 PM 18.85 65.93 0.578 7.94 41.11 10.43
8/31/2021 1:45:00 PM 19.09 66.362 0.578 7.94 46.11 10.83
8/31/2021 2:00:00 PM 19.12 66.416 0.577 7.95 45.14 10.68
8/31/2021 2:15:00 PM 19.29 66.722 0.577 7.98 36.65 10.81
8/31/2021 2:30:00 PM 19.42 66.956 0.578 8 35.9 10.98
8/31/2021 2:45:00 PM 19.56 67.208 0.578 8 37.04 11.13
8/31/2021 3:00:00 PM 19.75 67.55 0.578 8.04 35.62 11.07
8/31/2021 3:15:00 PM 19.86 67.748 0.577 8.03 35.49 11.23
8/31/2021 3:30:00 PM 19.95 67.91 0.577 8.06 35.19 11.29
8/31/2021 3:45:00 PM 20.02 68.036 0.577 8.04 35.53 11.33
8/31/2021 4:00:00 PM 20.09 68.162 0.577 8.08 36.04 11.38
8/31/2021 4:15:00 PM 20.19 68.342 0.577 8.1 36.04 11.41
8/31/2021 4:30:00 PM 20.27 68.486 0.576 8.1 36.72 11.45
8/31/2021 4:45:00 PM 20.34 68.612 0.577 8.1 36.17 11.3
8/31/2021 5:00:00 PM 20.4 68.72 0.576 8.1 35.8 11.32
8/31/2021 5:15:00 PM 20.43 68.774 0.576 8.1 35.91 11.28
8/31/2021 5:30:00 PM 20.45 68.81 0.577 8.1 37.35 11.11
8/31/2021 5:45:00 PM 20.46 68.828 0.578 8.09 35.53 11.06
8/31/2021 6:00:00 PM 20.46 68.828 0.578 8.08 35.47 10.85
8/31/2021 6:15:00 PM 20.43 68.774 0.579 8.08 37.76 10.85
8/31/2021 6:30:00 PM 20.41 68.738 0.579 8.05 35.83 10.58
8/31/2021 6:45:00 PM 20.35 68.63 0.58 8.05 35.21 10.46
8/31/2021 7:00:00 PM 20.29 68.522 0.58 8.03 34.93 10.23
8/31/2021 7:15:00 PM 20.22 68.396 0.58 8.02 35.92 10.07
8/31/2021 7:30:00 PM 20.15 68.27 0.581 8 34.58 9.85
8/31/2021 7:45:00 PM 20.09 68.162 0.581 7.98 34.16 9.71
8/31/2021 8:00:00 PM 20.02 68.036 0.581 7.97 34.7 9.52
8/31/2021 8:15:00 PM 19.95 67.91 0.582 7.95 34.88 9.47
8/31/2021 8:30:00 PM 19.9 67.82 0.582 7.94 34.66 9.14
8/31/2021 8:45:00 PM 19.84 67.712 0.582 7.93 35.1 9.09
8/31/2021 9:00:00 PM 19.78 67.604 0.582 7.92 34.73 8.78
8/31/2021 9:15:00 PM 19.73 67.514 0.583 7.9 33.95 8.77
8/31/2021 9:30:00 PM 19.68 67.424 0.584 7.89 33.8 8.68
8/31/2021 9:45:00 PM 19.63 67.334 0.583 7.87 34.44 8.57
8/31/2021 10:00:00 PM 19.59 67.262 0.584 7.86 33.72 8.37
8/31/2021 10:15:00 PM 19.54 67.172 0.584 7.85 34.13 8.32
8/31/2021 10:30:00 PM 19.49 67.082 0.585 7.84 33.87 8.23
8/31/2021 10:45:00 PM 19.45 67.01 0.585 7.83 35.68 8.03
8/31/2021 11:00:00 PM 19.39 66.902 0.586 7.79 35.02 8.07
8/31/2021 11:15:00 PM 19.34 66.812 0.586 7.8 33.39 7.96
8/31/2021 11:30:00 PM 19.28 66.704 0.586 7.79 35.11 7.87
8/31/2021 11:45:00 PM 19.23 66.614 0.587 7.78 33.82 7.72
9/1/2021 12:00:00 AM 19.18 66.524 0.587 7.78 36.89 7.68
9/1/2021 12:15:00 AM 19.12 66.416 0.588 7.76 33.43 7.59
9/1/2021 12:30:00 AM 19.06 66.308 0.588 7.75 35.21 7.63
9/1/2021 12:45:00 AM 19.01 66.218 0.588 7.74 33.27 7.6
9/1/2021 1:00:00 AM 18.96 66.128 0.589 7.73 34.56 7.53
9/1/2021 1:15:00 AM 18.91 66.038 0.589 7.73 35.49 7.44
9/1/2021 1:30:00 AM 18.86 65.948 0.589 7.73 35.78 7.43
9/1/2021 1:45:00 AM 18.8 65.84 0.589 7.7 34.56 7.46
9/1/2021 2:00:00 AM 18.76 65.768 0.589 7.71 35.95 7.41
9/1/2021 2:15:00 AM 18.72 65.696 0.589 7.68 38.83 7.37
9/1/2021 2:30:00 AM 18.67 65.606 0.589 7.71 38.9 7.35
9/1/2021 2:45:00 AM 18.63 65.534 0.589 7.7 39.04 7.35
9/1/2021 3:00:00 AM 18.58 65.444 0.589 7.7 37.25 7.37
9/1/2021 3:15:00 AM 18.54 65.372 0.59 7.69 35.67 7.34
9/1/2021 3:30:00 AM 18.5 65.3 0.589 7.69 34.42 7.3
9/1/2021 3:45:00 AM 18.46 65.228 0.589 7.69 34.74 7.29
9/1/2021 4:00:00 AM 18.42 65.156 0.589 7.69 36.93 7.31
9/1/2021 4:15:00 AM 18.38 65.084 0.589 7.69 38.24 7.32
9/1/2021 4:30:00 AM 18.33 64.994 0.59 7.68 37.25 7.35
9/1/2021 4:45:00 AM 18.29 64.922 0.59 7.68 36.41 7.33
9/1/2021 5:00:00 AM 18.24 64.832 0.589 7.67 34.86 7.39
9/1/2021 5:15:00 AM 18.2 64.76 0.59 7.68 43.25 7.41
9/1/2021 5:30:00 AM 18.15 64.67 0.59 7.68 36.4 7.32
9/1/2021 5:45:00 AM 18.11 64.598 0.59 7.68 37.27 7.3
9/1/2021 6:00:00 AM 18.06 64.508 0.59 7.68 34.31 7.42
9/1/2021 6:15:00 AM 18.01 64.418 0.591 7.68 36.38 7.44
9/1/2021 6:30:00 AM 17.97 64.346 0.59 7.68 39.4 7.4
9/1/2021 6:45:00 AM 17.93 64.274 0.591 7.66 36.2 7.45
9/1/2021 7:00:00 AM 17.88 64.184 0.591 7.68 38.89 7.46
9/1/2021 7:15:00 AM 17.85 64.13 0.592 7.68 38.97 7.41
9/1/2021 7:30:00 AM 17.8 64.04 0.592 7.68 40.67 7.51
9/1/2021 7:45:00 AM 17.76 63.968 0.592 7.68 36.16 7.54
9/1/2021 8:00:00 AM 17.72 63.896 0.593 7.65 34.77 7.57
9/1/2021 8:15:00 AM 17.69 63.842 0.593 7.68 36.64 7.54
9/1/2021 8:30:00 AM 17.66 63.788 0.593 7.68 33.97 7.63
9/1/2021 8:45:00 AM 17.62 63.716 0.593 7.69 34.12 7.68
9/1/2021 9:00:00 AM 17.59 63.662 0.594 7.69 34.33 7.69
9/1/2021 9:15:00 AM 17.56 63.608 0.594 7.69 34.13 7.71
9/1/2021 9:30:00 AM 17.53 63.554 0.595 7.69 35.36 7.89
9/1/2021 9:45:00 AM 17.51 63.518 0.594 7.7 38.09 7.92
9/1/2021 10:00:00 AM 17.49 63.482 0.594 7.71 39.23 8.04
9/1/2021 10:15:00 AM 17.48 63.464 0.594 7.71 34.42 8
9/1/2021 10:30:00 AM 17.47 63.446 0.594 7.72 36.12 8.01
9/1/2021 10:45:00 AM 17.47 63.446 0.594 7.69 36.09 8.15
9/1/2021 11:00:00 AM 17.46 63.428 0.595 7.74 37.55 8.27
9/1/2021 11:15:00 AM 17.46 63.428 0.595 7.74 39.02 8.36
9/1/2021 11:30:00 AM 17.46 63.428 0.595 7.76 35.56 8.51
9/1/2021 11:45:00 AM 17.45 63.41 0.595 7.76 33.71 8.61
9/1/2021 12:00:00 PM 17.44 63.392 0.596 7.73 33.6 8.68
9/1/2021 12:15:00 PM 17.43 63.374 0.595 7.78 39.98 8.85
9/1/2021 12:30:00 PM 17.43 63.374 0.596 7.78 33.42 8.84
9/1/2021 12:45:00 PM 17.43 63.374 0.596 7.79 34.67 9.08
9/1/2021 1:00:00 PM 17.43 63.374 0.596 7.8 34.13 9.01
9/1/2021 1:15:00 PM 17.42 63.356 0.596 7.79 34.04 9.11
9/1/2021 1:30:00 PM 17.41 63.338 0.597 7.81 32.98 9.15
9/1/2021 1:45:00 PM 17.4 63.32 0.596 7.81 34.16 9.11
9/1/2021 2:00:00 PM 17.39 63.302 0.596 7.83 33.29 9.3
9/1/2021 2:15:00 PM 17.39 63.302 0.596 7.79 36.64 9.22
9/1/2021 2:30:00 PM 17.38 63.284 0.595 7.83 33.48 9.23
9/1/2021 2:45:00 PM 17.36 63.248 0.595 7.82 33.92 9.26
9/1/2021 3:00:00 PM 17.34 63.212 0.594 7.82 33.76 9.23
9/1/2021 3:15:00 PM 17.33 63.194 0.593 7.83 33.88 9.2
9/1/2021 3:30:00 PM 17.32 63.176 0.592 7.83 35.84 9.23
9/1/2021 3:45:00 PM 17.3 63.14 0.592 7.84 33.45 9.19
9/1/2021 4:00:00 PM 17.29 63.122 0.591 7.83 34.21 9.22
9/1/2021 4:15:00 PM 17.28 63.104 0.59 7.83 34.5 9.15
9/1/2021 4:30:00 PM 17.27 63.086 0.588 7.81 34.84 9.12
9/1/2021 4:45:00 PM 17.26 63.068 0.587 7.84 36.07 9.09
9/1/2021 5:00:00 PM 17.24 63.032 0.587 7.84 34.48 9.09
9/1/2021 5:15:00 PM 17.23 63.014 0.587 7.82 35.03 9
9/1/2021 5:30:00 PM 17.21 62.978 0.586 7.83 35.27 8.92
9/1/2021 5:45:00 PM 17.19 62.942 0.585 7.82 442.95 9.01
9/1/2021 6:00:00 PM 17.18 62.924 0.585 7.82 41.04 8.96
9/1/2021 6:15:00 PM 17.17 62.906 0.586 7.82 40.03 8.97
9/1/2021 6:30:00 PM 17.15 62.87 0.586 7.82 36.43 8.89
9/1/2021 6:45:00 PM 17.13 62.834 0.585 7.77 36.67 8.84
9/1/2021 7:00:00 PM 17.11 62.798 0.585 7.82 37.17 8.78
9/1/2021 7:15:00 PM 17.09 62.762 0.585 7.8 36.72 8.8
9/1/2021 7:30:00 PM 17.07 62.726 0.585 7.81 37.78 8.73
9/1/2021 7:45:00 PM 17.05 62.69 0.584 7.81 37 8.74
9/1/2021 8:00:00 PM 17.03 62.654 0.584 7.78 36.17 8.63
9/1/2021 8:15:00 PM 17.01 62.618 0.583 7.79 36.94 8.62
9/1/2021 8:30:00 PM 16.99 62.582 0.583 7.79 37.1 8.53
9/1/2021 8:45:00 PM 16.97 62.546 0.582 7.79 36.92 8.39
9/1/2021 9:00:00 PM 16.95 62.51 0.582 7.79 36.83 8.49
9/1/2021 9:15:00 PM 16.93 62.474 0.582 7.79 36.67 8.46
9/1/2021 9:30:00 PM 16.9 62.42 0.582 7.77 36.64 8.41
9/1/2021 9:45:00 PM 16.87 62.366 0.583 7.76 36.29 8.48
9/1/2021 10:00:00 PM 16.84 62.312 0.583 7.74 35.54 8.3
9/1/2021 10:15:00 PM 16.8 62.24 0.584 7.78 38.15 8.25
9/1/2021 10:30:00 PM 16.76 62.168 0.584 7.77 35.82 8.3
9/1/2021 10:45:00 PM 16.71 62.078 0.584 7.75 35.96 8.31
9/1/2021 11:00:00 PM 16.67 62.006 0.584 7.72 36.2 8.28
9/1/2021 11:15:00 PM 16.62 61.916 0.584 7.75 35.26 8.2
9/1/2021 11:30:00 PM 16.58 61.844 0.584 7.72 36.26 8.11
9/1/2021 11:45:00 PM 16.52 61.736 0.583 7.75 43.31 8.26
9/2/2021 12:00:00 AM 16.47 61.646 0.583 7.71 45.12 8.14
9/2/2021 12:15:00 AM 16.42 61.556 0.583 7.75 42.21 8.14
9/2/2021 12:30:00 AM 16.36 61.448 0.583 7.74 36.53 8.14
9/2/2021 12:45:00 AM 16.31 61.358 0.583 7.74 38.54 8.13
9/2/2021 1:00:00 AM 16.25 61.25 0.582 7.72 37.41 8.11
9/2/2021 1:15:00 AM 16.2 61.16 0.582 7.73 37.39 8.07
9/2/2021 1:30:00 AM 16.14 61.052 0.582 7.73 36.61 8.12
9/2/2021 1:45:00 AM 16.08 60.944 0.581 7.73 36.98 8.09
9/2/2021 2:00:00 AM 16.03 60.854 0.58 7.73 37.31 8.11
9/2/2021 2:15:00 AM 15.97 60.746 0.578 7.73 36.79 8.09
9/2/2021 2:30:00 AM 15.92 60.656 0.576 7.73 38.92 8.05
9/2/2021 2:45:00 AM 15.87 60.566 0.573 7.73 37.47 8.1
9/2/2021 3:00:00 AM 15.83 60.494 0.57 7.73 37.78 8.27
9/2/2021 3:15:00 AM 15.78 60.404 0.565 7.73 35.76 8.19
9/2/2021 3:30:00 AM 15.75 60.35 0.56 7.73 38.08 8.18
9/2/2021 3:45:00 AM 15.71 60.278 0.554 7.73 36.02 8.26
9/2/2021 4:00:00 AM 15.69 60.242 0.548 7.7 40.08 8.26
9/2/2021 4:15:00 AM 15.67 60.206 0.542 7.71 35.43 8.18
9/2/2021 4:30:00 AM 15.65 60.17 0.539 7.7 40.21 8.2
9/2/2021 4:45:00 AM 15.62 60.116 0.535 7.68 35.28 8.23
9/2/2021 5:00:00 AM 15.59 60.062 0.532 7.7 35.25 8.25
9/2/2021 5:15:00 AM 15.55 59.99 0.531 7.67 35.16 8.24
9/2/2021 5:30:00 AM 15.5 59.9 0.532 7.71 34.96 8.3
9/2/2021 5:45:00 AM 15.45 59.81 0.534 7.71 34.79 8.23
9/2/2021 6:00:00 AM 15.4 59.72 0.537 7.67 35.88 8.29
9/2/2021 6:15:00 AM 15.34 59.612 0.542 7.71 35.11 8.34
9/2/2021 6:30:00 AM 15.28 59.504 0.546 7.69 35.33 8.36
9/2/2021 6:45:00 AM 15.22 59.396 0.55 7.71 37.01 8.22
9/2/2021 7:00:00 AM 15.16 59.288 0.553 7.69 62.65 8.09
9/2/2021 7:15:00 AM 15.1 59.18 0.556 7.66 38.41 8.42
9/2/2021 7:30:00 AM 15.05 59.09 0.556 7.67 35.46 8.24
9/2/2021 7:45:00 AM 15 59 0.555 7.69 36.23 8.21
9/2/2021 8:00:00 AM 14.96 58.928 0.551 7.67 34.62 8.36
9/2/2021 8:15:00 AM 14.92 58.856 0.545 7.64 34.32 8.22
9/2/2021 8:30:00 AM 14.9 58.82 0.538 7.67 41.44 8.39
9/2/2021 8:45:00 AM 14.89 58.802 0.53 7.64 35.09 8.39
9/2/2021 9:00:00 AM 1